Time,TemperatureF,DewpointF,PressureIn,WindDirection,WindDirectionDegrees,WindSpeedMPH,WindSpeedGustMPH,Humidity,HourlyPrecipIn,Conditions,Clouds,dailyrainin,SoftwareType,DateUTC
2013-02-23 00:00:00,14.2,14.2,29.77,South,191,0.0,0.0,100,0.00,,,0.00,VWS V13.01,2013-02-23 06:00:00,
2013-02-23 00:01:00,14.4,14.4,29.77,South,191,0.0,0.0,100,0.00,,,0.00,VWS V13.01,2013-02-23 06:01:00,
2013-02-23 00:02:00,14.4,14.4,29.77,South,191,0.0,0.0,100,0.00,,,0.00,VWS V13.01,2013-02-23 06:02:00,
2013-02-23 00:03:00,14.4,14.4,29.77,South,191,0.0,0.0,100,0.00,,,0.00,VWS V13.01,2013-02-23 06:03:00,
2013-02-23 00:04:00,14.4,14.4,29.77,South,191,0.0,0.0,100,0.00,,,0.00,VWS V13.01,2013-02-23 06:04:00,
2013-02-23 00:05:00,14.4,14.4,29.77,South,191,0.0,0.0,100,0.00,,,0.00,VWS V13.01,2013-02-23 06:05:00,
2013-02-23 00:06:00,14.4,14.4,29.77,South,191,0.0,0.0,100,0.00,,,0.00,VWS V13.01,2013-02-23 06:06:00,
2013-02-23 00:07:00,14.4,14.4,29.77,South,191,0.0,0.0,100,0.00,,,0.00,VWS V13.01,2013-02-23 06:07:00,
2013-02-23 00:08:00,14.4,14.4,29.77,South,191,0.0,0.0,100,0.00,,,0.00,VWS V13.01,2013-02-23 06:08:00,
2013-02-23 00:09:00,14.2,14.2,29.77,South,191,0.0,0.0,100,0.00,,,0.00,VWS V13.01,2013-02-23 06:09:00,
2013-02-23 00:10:00,14.2,14.2,29.77,South,191,0.0,0.0,100,0.00,,,0.00,VWS V13.01,2013-02-23 06:10:00,
2013-02-23 00:11:00,14.2,14.2,29.77,South,191,0.0,0.0,100,0.00,,,0.00,VWS V13.01,2013-02-23 06:11:00,
2013-02-23 00:12:00,14.2,14.2,29.77,South,191,0.0,0.0,100,0.00,,,0.00,VWS V13.01,2013-02-23 06:12:00,
2013-02-23 00:13:00,14.2,14.2,29.77,South,191,0.0,0.0,100,0.00,,,0.00,VWS V13.01,2013-02-23 06:13:00,
2013-02-23 00:14:00,14.2,14.2,29.77,South,189,0.0,0.0,100,0.00,,,0.00,VWS V13.01,2013-02-23 06:14:00,
2013-02-23 00:15:00,14.4,14.4,29.77,South,191,0.0,0.0,100,0.00,,,0.00,VWS V13.01,2013-02-23 06:15:00,
2013-02-23 00:16:00,14.4,14.4,29.77,South,191,0.0,0.0,100,0.00,,,0.00,VWS V13.01,2013-02-23 06:16:00,
2013-02-23 00:17:00,14.4,14.4,29.77,South,191,0.0,0.0,100,0.00,,,0.00,VWS V13.01,2013-02-23 06:17:00,
2013-02-23 00:18:00,14.4,14.4,29.77,South,191,0.0,0.0,100,0.00,,,0.00,VWS V13.01,2013-02-23 06:18:00,
2013-02-23 00:19:00,14.2,14.2,29.77,South,191,0.0,0.0,100,0.00,,,0.00,VWS V13.01,2013-02-23 06:19:00,
2013-02-23 00:20:00,14.2,14.2,29.77,South,191,0.0,0.0,100,0.00,,,0.00,VWS V13.01,2013-02-23 06:20:00,
2013-02-23 00:21:00,14.0,14.0,29.77,South,191,0.0,0.0,100,0.00,,,0.00,VWS V13.01,2013-02-23 06:21:00,
2013-02-23 00:22:00,13.8,13.8,29.77,South,191,0.0,0.0,100,0.00,,,0.00,VWS V13.01,2013-02-23 06:22:00,
2013-02-23 00:23:00,13.8,13.8,29.77,South,191,0.0,0.0,100,0.00,,,0.00,VWS V13.01,2013-02-23 06:23:00,
2013-02-23 00:24:00,13.8,13.8,29.77,South,191,0.0,0.0,100,0.00,,,0.00,VWS V13.01,2013-02-23 06:24:00,
2013-02-23 00:25:00,13.8,13.8,29.77,South,191,0.0,0.0,100,0.00,,,0.00,VWS V13.01,2013-02-23 06:25:00,
2013-02-23 00:26:00,13.8,13.8,29.77,South,191,0.0,0.0,100,0.00,,,0.00,VWS V13.01,2013-02-23 06:26:00,
2013-02-23 00:27:00,14.0,14.0,29.77,South,191,0.0,0.0,100,0.00,,,0.00,VWS V13.01,2013-02-23 06:27:00,
2013-02-23 00:28:00,14.0,14.0,29.77,South,191,0.0,0.0,100,0.00,,,0.00,VWS V13.01,2013-02-23 06:28:00,
2013-02-23 00:29:00,13.8,13.8,29.77,South,191,0.0,0.0,100,0.00,,,0.00,VWS V13.01,2013-02-23 06:29:00,
2013-02-23 00:30:00,13.8,13.8,29.77,South,191,0.0,0.0,100,0.00,,,0.00,VWS V13.01,2013-02-23 06:30:00,
2013-02-23 00:31:00,13.8,13.8,29.77,South,191,0.0,0.0,100,0.00,,,0.00,VWS V13.01,2013-02-23 06:31:00,
2013-02-23 00:32:00,13.8,13.8,29.77,South,191,0.0,0.0,100,0.00,,,0.00,VWS V13.01,2013-02-23 06:32:00,
2013-02-23 00:33:00,13.6,13.6,29.77,South,191,0.0,0.0,100,0.00,,,0.00,VWS V13.01,2013-02-23 06:33:00,
2013-02-23 00:34:00,13.6,13.6,29.77,South,191,0.0,0.0,100,0.00,,,0.00,VWS V13.01,2013-02-23 06:34:00,
2013-02-23 00:35:00,13.5,13.5,29.77,South,191,0.0,0.0,100,0.00,,,0.00,VWS V13.01,2013-02-23 06:35:00,
2013-02-23 00:36:00,13.3,13.3,29.77,South,191,0.0,0.0,100,0.00,,,0.00,VWS V13.01,2013-02-23 06:36:00,
2013-02-23 00:37:00,13.5,13.5,29.77,South,191,0.0,0.0,100,0.00,,,0.00,VWS V13.01,2013-02-23 06:37:00,
2013-02-23 00:38:00,13.6,13.6,29.77,SSW,192,0.0,0.0,100,0.00,,,0.00,VWS V13.01,2013-02-23 06:38:00,
2013-02-23 00:39:00,13.8,13.8,29.77,South,191,0.0,0.0,100,0.00,,,0.00,VWS V13.01,2013-02-23 06:39:00,
2013-02-23 00:40:00,13.8,13.8,29.77,South,191,0.0,0.0,100,0.00,,,0.00,VWS V13.01,2013-02-23 06:40:00,
2013-02-23 00:41:00,13.8,13.8,29.77,South,191,0.0,0.0,100,0.00,,,0.00,VWS V13.01,2013-02-23 06:41:00,
2013-02-23 00:42:00,13.8,13.8,29.77,SSW,192,0.0,0.0,100,0.00,,,0.00,VWS V13.01,2013-02-23 06:42:00,
2013-02-23 00:43:00,13.8,13.8,29.77,SSW,192,0.0,0.0,100,0.00,,,0.00,VWS V13.01,2013-02-23 06:43:00,
2013-02-23 00:44:00,13.6,13.6,29.77,South,191,0.0,0.0,100,0.00,,,0.00,VWS V13.01,2013-02-23 06:44:00,
2013-02-23 00:45:00,13.6,13.6,29.77,South,191,0.0,0.0,100,0.00,,,0.00,VWS V13.01,2013-02-23 06:45:00,
2013-02-23 00:46:00,13.5,13.5,29.77,South,191,0.0,0.0,100,0.00,,,0.00,VWS V13.01,2013-02-23 06:46:00,
2013-02-23 00:47:00,13.5,13.5,29.77,South,191,0.0,0.0,100,0.00,,,0.00,VWS V13.01,2013-02-23 06:47:00,
2013-02-23 00:48:00,13.3,13.3,29.77,South,191,0.0,0.0,100,0.00,,,0.00,VWS V13.01,2013-02-23 06:48:00,
2013-02-23 00:49:00,13.3,13.3,29.77,South,191,0.0,0.0,100,0.00,,,0.00,VWS V13.01,2013-02-23 06:49:00,
2013-02-23 00:50:00,13.3,13.3,29.77,South,191,0.0,0.0,100,0.00,,,0.00,VWS V13.01,2013-02-23 06:50:00,
2013-02-23 00:51:00,12.9,12.9,29.77,South,191,0.0,0.0,100,0.00,,,0.00,VWS V13.01,2013-02-23 06:51:00,
2013-02-23 00:52:00,13.1,13.1,29.77,South,191,0.0,0.0,100,0.00,,,0.00,VWS V13.01,2013-02-23 06:52:00,
2013-02-23 00:53:00,13.1,13.1,29.77,South,191,0.0,0.0,100,0.00,,,0.00,VWS V13.01,2013-02-23 06:53:00,
2013-02-23 00:54:00,13.1,13.1,29.77,South,191,0.0,0.0,100,0.00,,,0.00,VWS V13.01,2013-02-23 06:54:00,
2013-02-23 00:55:00,13.1,13.1,29.77,SSW,192,0.0,0.0,100,0.00,,,0.00,VWS V13.01,2013-02-23 06:55:00,
2013-02-23 00:56:00,12.9,12.9,29.77,South,191,0.0,0.0,100,0.00,,,0.00,VWS V13.01,2013-02-23 06:56:00,
2013-02-23 00:57:00,12.9,12.9,29.77,South,191,0.0,0.0,100,0.00,,,0.00,VWS V13.01,2013-02-23 06:57:00,
2013-02-23 00:58:00,12.7,12.7,29.77,South,191,0.0,0.0,100,0.00,,,0.00,VWS V13.01,2013-02-23 06:58:00,
2013-02-23 00:59:00,12.9,12.9,29.77,South,191,0.0,0.0,100,0.00,,,0.00,VWS V13.01,2013-02-23 06:59:00,
2013-02-23 01:00:00,12.7,12.7,29.77,South,191,0.0,0.0,100,0.00,,,0.00,VWS V13.01,2013-02-23 07:00:00,
2013-02-23 01:01:00,12.7,12.7,29.77,South,191,0.0,0.0,100,0.00,,,0.00,VWS V13.01,2013-02-23 07:01:00,
2013-02-23 01:02:00,12.7,12.7,29.77,South,191,0.0,0.0,100,0.00,,,0.00,VWS V13.01,2013-02-23 07:02:00,
2013-02-23 01:03:00,12.7,12.7,29.77,South,191,0.0,0.0,100,0.00,,,0.00,VWS V13.01,2013-02-23 07:03:00,
2013-02-23 01:04:00,12.7,12.7,29.77,South,191,0.0,0.0,100,0.00,,,0.00,VWS V13.01,2013-02-23 07:04:00,
2013-02-23 01:05:00,12.7,12.7,29.77,South,191,0.0,0.0,100,0.00,,,0.00,VWS V13.01,2013-02-23 07:05:00,
2013-02-23 01:06:00,12.7,12.7,29.77,South,191,0.0,0.0,100,0.00,,,0.00,VWS V13.01,2013-02-23 07:06:00,
2013-02-23 01:07:00,12.7,12.7,29.77,South,191,0.0,0.0,100,0.00,,,0.00,VWS V13.01,2013-02-23 07:07:00,
2013-02-23 01:08:00,12.7,12.7,29.77,South,191,0.0,0.0,100,0.00,,,0.00,VWS V13.01,2013-02-23 07:08:00,
2013-02-23 01:09:00,12.7,12.7,29.77,South,191,0.0,0.0,100,0.00,,,0.00,VWS V13.01,2013-02-23 07:09:00,
2013-02-23 01:10:00,12.7,12.7,29.77,South,191,0.0,0.0,100,0.00,,,0.00,VWS V13.01,2013-02-23 07:10:00,
2013-02-23 01:11:00,12.7,12.7,29.77,South,191,0.0,0.0,100,0.00,,,0.00,VWS V13.01,2013-02-23 07:11:00,
2013-02-23 01:12:00,12.6,12.6,29.77,South,191,0.0,0.0,100,0.00,,,0.00,VWS V13.01,2013-02-23 07:12:00,
2013-02-23 01:13:00,12.6,12.6,29.77,South,191,0.0,0.0,100,0.00,,,0.00,VWS V13.01,2013-02-23 07:13:00,
2013-02-23 01:14:00,12.6,12.6,29.77,South,191,0.0,0.0,100,0.00,,,0.00,VWS V13.01,2013-02-23 07:14:00,
2013-02-23 01:15:00,12.6,12.6,29.77,South,191,0.0,0.0,100,0.00,,,0.00,VWS V13.01,2013-02-23 07:15:00,
2013-02-23 01:16:00,12.6,12.6,29.77,South,191,0.0,0.0,100,0.00,,,0.00,VWS V13.01,2013-02-23 07:16:00,
2013-02-23 01:17:00,12.6,12.6,29.77,South,191,0.0,0.0,100,0.00,,,0.00,VWS V13.01,2013-02-23 07:17:00,
2013-02-23 01:18:00,12.6,12.6,29.77,South,191,0.0,0.0,100,0.00,,,0.00,VWS V13.01,2013-02-23 07:18:00,
2013-02-23 01:19:00,12.6,12.6,29.77,South,191,0.0,0.0,100,0.00,,,0.00,VWS V13.01,2013-02-23 07:19:00,
2013-02-23 01:20:00,12.7,12.7,29.77,South,191,0.0,0.0,100,0.00,,,0.00,VWS V13.01,2013-02-23 07:20:00,
2013-02-23 01:21:00,12.9,12.9,29.77,South,191,0.0,0.0,100,0.00,,,0.00,VWS V13.01,2013-02-23 07:21:00,
2013-02-23 01:22:00,12.9,12.9,29.77,SSW,192,0.0,0.0,100,0.00,,,0.00,VWS V13.01,2013-02-23 07:22:00,
2013-02-23 01:23:00,12.9,12.9,29.77,South,191,0.0,0.0,100,0.00,,,0.00,VWS V13.01,2013-02-23 07:23:00,
2013-02-23 01:24:00,12.9,12.9,29.77,South,191,0.0,0.0,100,0.00,,,0.00,VWS V13.01,2013-02-23 07:24:00,
2013-02-23 01:25:00,12.9,12.9,29.77,South,191,0.0,0.0,100,0.00,,,0.00,VWS V13.01,2013-02-23 07:25:00,
2013-02-23 01:26:00,12.9,12.9,29.77,South,191,0.0,0.0,100,0.00,,,0.00,VWS V13.01,2013-02-23 07:26:00,
2013-02-23 01:27:00,12.9,12.9,29.77,South,191,0.0,0.0,100,0.00,,,0.00,VWS V13.01,2013-02-23 07:27:00,
2013-02-23 01:28:00,12.9,12.9,29.77,South,191,0.0,0.0,100,0.00,,,0.00,VWS V13.01,2013-02-23 07:28:00,
2013-02-23 01:29:00,12.9,12.9,29.77,South,191,0.0,0.0,100,0.00,,,0.00,VWS V13.01,2013-02-23 07:29:00,
2013-02-23 01:30:00,12.7,12.7,29.77,South,191,0.0,0.0,100,0.00,,,0.00,VWS V13.01,2013-02-23 07:30:00,
2013-02-23 01:31:00,12.7,12.7,29.77,South,191,0.0,0.0,100,0.00,,,0.00,VWS V13.01,2013-02-23 07:31:00,
2013-02-23 01:32:00,12.7,12.7,29.77,South,191,0.0,0.0,100,0.00,,,0.00,VWS V13.01,2013-02-23 07:32:00,
2013-02-23 01:33:00,12.7,12.7,29.77,South,191,0.0,0.0,100,0.00,,,0.00,VWS V13.01,2013-02-23 07:33:00,
2013-02-23 01:34:00,12.7,12.7,29.77,South,191,0.0,0.0,100,0.00,,,0.00,VWS V13.01,2013-02-23 07:34:00,
2013-02-23 01:35:00,12.7,12.7,29.77,South,191,0.0,0.0,100,0.00,,,0.00,VWS V13.01,2013-02-23 07:35:00,
2013-02-23 01:36:00,12.7,12.7,29.77,South,191,0.0,0.0,100,0.00,,,0.00,VWS V13.01,2013-02-23 07:36:00,
2013-02-23 01:37:00,12.7,12.7,29.77,South,191,0.0,0.0,100,0.00,,,0.00,VWS V13.01,2013-02-23 07:37:00,
2013-02-23 01:38:00,12.7,12.7,29.77,South,191,0.0,0.0,100,0.00,,,0.00,VWS V13.01,2013-02-23 07:38:00,
2013-02-23 01:39:00,12.7,12.7,29.77,South,191,0.0,0.0,100,0.00,,,0.00,VWS V13.01,2013-02-23 07:39:00,
2013-02-23 01:40:00,12.6,12.6,29.77,South,191,0.0,0.0,100,0.00,,,0.00,VWS V13.01,2013-02-23 07:40:00,
2013-02-23 01:41:00,12.6,12.6,29.77,South,191,0.0,0.0,100,0.00,,,0.00,VWS V13.01,2013-02-23 07:41:00,
2013-02-23 01:42:00,12.6,12.6,29.77,South,191,0.0,0.0,100,0.00,,,0.00,VWS V13.01,2013-02-23 07:42:00,
2013-02-23 01:43:00,12.6,12.6,29.77,South,191,0.0,0.0,100,0.00,,,0.00,VWS V13.01,2013-02-23 07:43:00,
2013-02-23 01:44:00,12.4,12.4,29.77,South,191,0.0,0.0,100,0.00,,,0.00,VWS V13.01,2013-02-23 07:44:00,
2013-02-23 01:45:00,12.4,12.4,29.77,South,191,0.0,0.0,100,0.00,,,0.00,VWS V13.01,2013-02-23 07:45:00,
2013-02-23 01:46:00,12.4,12.4,29.77,South,191,0.0,0.0,100,0.00,,,0.00,VWS V13.01,2013-02-23 07:46:00,
2013-02-23 01:47:00,12.2,12.2,29.77,South,191,0.0,0.0,100,0.00,,,0.00,VWS V13.01,2013-02-23 07:47:00,
2013-02-23 01:48:00,12.2,12.2,29.77,South,191,0.0,0.0,100,0.00,,,0.00,VWS V13.01,2013-02-23 07:48:00,
2013-02-23 01:49:00,12.2,12.2,29.77,South,191,0.0,0.0,100,0.00,,,0.00,VWS V13.01,2013-02-23 07:49:00,
2013-02-23 01:50:00,12.0,12.0,29.77,South,191,0.0,0.0,100,0.00,,,0.00,VWS V13.01,2013-02-23 07:50:00,
2013-02-23 01:51:00,12.0,12.0,29.77,South,191,0.0,0.0,100,0.00,,,0.00,VWS V13.01,2013-02-23 07:51:00,
2013-02-23 01:52:00,12.2,12.2,29.77,South,191,0.0,0.0,100,0.00,,,0.00,VWS V13.01,2013-02-23 07:52:00,
2013-02-23 01:53:00,12.2,12.2,29.77,South,191,0.0,0.0,100,0.00,,,0.00,VWS V13.01,2013-02-23 07:53:00,
2013-02-23 01:54:00,12.2,12.2,29.77,South,191,0.0,0.0,100,0.00,,,0.00,VWS V13.01,2013-02-23 07:54:00,
2013-02-23 01:55:00,12.0,12.0,29.77,South,191,0.0,0.0,100,0.00,,,0.00,VWS V13.01,2013-02-23 07:55:00,
2013-02-23 01:56:00,12.0,12.0,29.77,South,191,0.0,0.0,100,0.00,,,0.00,VWS V13.01,2013-02-23 07:56:00,
2013-02-23 01:57:00,12.0,12.0,29.77,South,191,0.0,0.0,100,0.00,,,0.00,VWS V13.01,2013-02-23 07:57:00,
2013-02-23 01:58:00,12.0,12.0,29.77,South,191,0.0,0.0,100,0.00,,,0.00,VWS V13.01,2013-02-23 07:58:00,
2013-02-23 01:59:00,12.0,12.0,29.77,South,191,0.0,0.0,100,0.00,,,0.00,VWS V13.01,2013-02-23 07:59:00,
2013-02-23 02:00:00,12.0,12.0,29.77,South,191,0.0,0.0,100,0.00,,,0.00,VWS V13.01,2013-02-23 08:00:00,
2013-02-23 02:01:00,12.2,12.2,29.77,South,191,0.0,0.0,100,0.00,,,0.00,VWS V13.01,2013-02-23 08:01:00,
2013-02-23 02:02:00,12.2,12.2,29.77,South,191,0.0,0.0,100,0.00,,,0.00,VWS V13.01,2013-02-23 08:02:00,
2013-02-23 02:03:00,12.2,12.2,29.77,South,191,0.0,0.0,100,0.00,,,0.00,VWS V13.01,2013-02-23 08:03:00,
2013-02-23 02:04:00,12.2,12.2,29.77,South,191,0.0,0.0,100,0.00,,,0.00,VWS V13.01,2013-02-23 08:04:00,
2013-02-23 02:05:00,12.2,12.2,29.77,South,191,0.0,0.0,100,0.00,,,0.00,VWS V13.01,2013-02-23 08:05:00,
2013-02-23 02:06:00,12.0,12.0,29.77,South,191,0.0,0.0,100,0.00,,,0.00,VWS V13.01,2013-02-23 08:06:00,
2013-02-23 02:07:00,12.0,12.0,29.77,South,191,0.0,0.0,100,0.00,,,0.00,VWS V13.01,2013-02-23 08:07:00,
2013-02-23 02:08:00,12.0,12.0,29.77,South,191,0.0,0.0,100,0.00,,,0.00,VWS V13.01,2013-02-23 08:08:00,
2013-02-23 02:09:00,11.8,11.8,29.77,South,191,0.0,0.0,100,0.00,,,0.00,VWS V13.01,2013-02-23 08:09:00,
2013-02-23 02:10:00,11.8,11.8,29.77,South,191,0.0,0.0,100,0.00,,,0.00,VWS V13.01,2013-02-23 08:10:00,
2013-02-23 02:11:00,11.8,11.8,29.77,South,191,0.0,0.0,100,0.00,,,0.00,VWS V13.01,2013-02-23 08:11:00,
2013-02-23 02:12:00,11.8,11.8,29.77,South,191,0.0,0.0,100,0.00,,,0.00,VWS V13.01,2013-02-23 08:12:00,
2013-02-23 02:13:00,11.8,11.8,29.77,South,191,0.0,0.0,100,0.00,,,0.00,VWS V13.01,2013-02-23 08:13:00,
2013-02-23 02:14:00,11.8,11.8,29.77,South,191,0.0,0.0,100,0.00,,,0.00,VWS V13.01,2013-02-23 08:14:00,
2013-02-23 02:15:00,11.8,11.8,29.77,South,191,0.0,0.0,100,0.00,,,0.00,VWS V13.01,2013-02-23 08:15:00,
2013-02-23 02:16:00,12.0,12.0,29.77,South,191,0.0,0.0,100,0.00,,,0.00,VWS V13.01,2013-02-23 08:16:00,
2013-02-23 02:17:00,12.2,12.2,29.77,South,191,0.0,0.0,100,0.00,,,0.00,VWS V13.01,2013-02-23 08:17:00,
2013-02-23 02:18:00,12.2,12.2,29.77,South,191,0.0,0.0,100,0.00,,,0.00,VWS V13.01,2013-02-23 08:18:00,
2013-02-23 02:19:00,12.2,12.2,29.77,South,191,0.0,0.0,100,0.00,,,0.00,VWS V13.01,2013-02-23 08:19:00,
2013-02-23 02:20:00,12.2,12.2,29.77,South,191,0.0,0.0,100,0.00,,,0.00,VWS V13.01,2013-02-23 08:20:00,
2013-02-23 02:21:00,12.2,12.2,29.77,South,191,0.0,0.0,100,0.00,,,0.00,VWS V13.01,2013-02-23 08:21:00,
2013-02-23 02:22:00,12.2,12.2,29.77,South,191,0.0,0.0,100,0.00,,,0.00,VWS V13.01,2013-02-23 08:22:00,
2013-02-23 02:23:00,12.2,12.2,29.77,South,191,0.0,0.0,100,0.00,,,0.00,VWS V13.01,2013-02-23 08:23:00,
2013-02-23 02:24:00,12.0,12.0,29.77,South,191,0.0,0.0,100,0.00,,,0.00,VWS V13.01,2013-02-23 08:24:00,
2013-02-23 02:25:00,12.0,12.0,29.77,South,191,0.0,0.0,100,0.00,,,0.00,VWS V13.01,2013-02-23 08:25:00,
2013-02-23 02:26:00,12.2,12.2,29.77,South,191,0.0,0.0,100,0.00,,,0.00,VWS V13.01,2013-02-23 08:26:00,
2013-02-23 02:27:00,12.2,12.2,29.77,South,191,0.0,0.0,100,0.00,,,0.00,VWS V13.01,2013-02-23 08:27:00,
2013-02-23 02:28:00,12.2,12.2,29.77,South,191,0.0,0.0,100,0.00,,,0.00,VWS V13.01,2013-02-23 08:28:00,
2013-02-23 02:29:00,12.2,12.2,29.77,South,191,0.0,0.0,100,0.00,,,0.00,VWS V13.01,2013-02-23 08:29:00,
2013-02-23 02:30:00,12.2,12.2,29.77,South,191,0.0,0.0,100,0.00,,,0.00,VWS V13.01,2013-02-23 08:30:00,
2013-02-23 02:31:00,12.2,12.2,29.77,South,191,0.0,0.0,100,0.00,,,0.00,VWS V13.01,2013-02-23 08:31:00,
2013-02-23 02:32:00,12.2,12.2,29.77,South,191,0.0,0.0,100,0.00,,,0.00,VWS V13.01,2013-02-23 08:32:00,
2013-02-23 02:33:00,12.2,12.2,29.77,South,191,0.0,0.0,100,0.00,,,0.00,VWS V13.01,2013-02-23 08:33:00,
2013-02-23 02:34:00,12.2,12.2,29.77,South,191,0.0,0.0,100,0.00,,,0.00,VWS V13.01,2013-02-23 08:34:00,
2013-02-23 02:35:00,12.2,12.2,29.77,South,191,0.0,0.0,100,0.00,,,0.00,VWS V13.01,2013-02-23 08:35:00,
2013-02-23 02:36:00,12.2,12.2,29.77,South,191,0.0,0.0,100,0.00,,,0.00,VWS V13.01,2013-02-23 08:36:00,
2013-02-23 02:37:00,12.2,12.2,29.77,South,191,0.0,0.0,100,0.00,,,0.00,VWS V13.01,2013-02-23 08:37:00,
2013-02-23 02:38:00,12.2,12.2,29.77,South,191,0.0,0.0,100,0.00,,,0.00,VWS V13.01,2013-02-23 08:38:00,
2013-02-23 02:39:00,12.0,12.0,29.77,South,191,0.0,0.0,100,0.00,,,0.00,VWS V13.01,2013-02-23 08:39:00,
2013-02-23 02:40:00,12.0,12.0,29.77,South,191,0.0,0.0,100,0.00,,,0.00,VWS V13.01,2013-02-23 08:40:00,
2013-02-23 02:41:00,12.0,12.0,29.77,South,191,0.0,0.0,100,0.00,,,0.00,VWS V13.01,2013-02-23 08:41:00,
2013-02-23 02:42:00,11.8,11.8,29.77,South,191,0.0,0.0,100,0.00,,,0.00,VWS V13.01,2013-02-23 08:42:00,
2013-02-23 02:43:00,11.8,11.8,29.77,South,191,0.0,0.0,100,0.00,,,0.00,VWS V13.01,2013-02-23 08:43:00,
2013-02-23 02:44:00,11.8,11.8,29.77,South,191,0.0,0.0,100,0.00,,,0.00,VWS V13.01,2013-02-23 08:44:00,
2013-02-23 02:45:00,11.8,11.8,29.77,South,191,0.0,0.0,100,0.00,,,0.00,VWS V13.01,2013-02-23 08:45:00,
2013-02-23 02:46:00,11.8,11.8,29.77,South,191,0.0,0.0,100,0.00,,,0.00,VWS V13.01,2013-02-23 08:46:00,
2013-02-23 02:47:00,11.8,11.8,29.77,South,191,0.0,0.0,100,0.00,,,0.00,VWS V13.01,2013-02-23 08:47:00,
2013-02-23 02:48:00,11.8,11.8,29.77,South,191,0.0,0.0,100,0.00,,,0.00,VWS V13.01,2013-02-23 08:48:00,
2013-02-23 02:49:00,11.7,11.7,29.77,South,191,0.0,0.0,100,0.00,,,0.00,VWS V13.01,2013-02-23 08:49:00,
2013-02-23 02:50:00,11.7,11.7,29.77,South,191,0.0,0.0,100,0.00,,,0.00,VWS V13.01,2013-02-23 08:50:00,
2013-02-23 02:51:00,11.7,11.7,29.77,South,191,0.0,0.0,100,0.00,,,0.00,VWS V13.01,2013-02-23 08:51:00,
2013-02-23 02:52:00,11.7,11.7,29.77,South,191,0.0,0.0,100,0.00,,,0.00,VWS V13.01,2013-02-23 08:52:00,
2013-02-23 02:53:00,11.8,11.8,29.77,SSW,192,0.0,0.0,100,0.00,,,0.00,VWS V13.01,2013-02-23 08:53:00,
2013-02-23 02:54:00,11.8,11.8,29.77,South,191,0.0,0.0,100,0.00,,,0.00,VWS V13.01,2013-02-23 08:54:00,
2013-02-23 02:55:00,11.7,11.7,29.77,South,191,0.0,0.0,100,0.00,,,0.00,VWS V13.01,2013-02-23 08:55:00,
2013-02-23 02:56:00,11.7,11.7,29.77,South,191,0.0,0.0,100,0.00,,,0.00,VWS V13.01,2013-02-23 08:56:00,
2013-02-23 02:57:00,11.7,11.7,29.77,South,191,0.0,0.0,100,0.00,,,0.00,VWS V13.01,2013-02-23 08:57:00,
2013-02-23 02:58:00,11.7,11.7,29.77,South,191,0.0,0.0,100,0.00,,,0.00,VWS V13.01,2013-02-23 08:58:00,
2013-02-23 02:59:00,11.7,11.7,29.77,South,191,0.0,0.0,100,0.00,,,0.00,VWS V13.01,2013-02-23 08:59:00,
2013-02-23 03:00:00,11.7,11.7,29.77,South,191,0.0,0.0,100,0.00,,,0.00,VWS V13.01,2013-02-23 09:00:00,
2013-02-23 03:01:00,11.7,11.7,29.77,South,191,0.0,0.0,100,0.00,,,0.00,VWS V13.01,2013-02-23 09:01:00,
2013-02-23 03:02:00,11.7,11.7,29.77,South,191,0.0,0.0,100,0.00,,,0.00,VWS V13.01,2013-02-23 09:02:00,
2013-02-23 03:03:00,11.7,11.7,29.77,South,191,0.0,0.0,100,0.00,,,0.00,VWS V13.01,2013-02-23 09:03:00,
2013-02-23 03:04:00,11.7,11.7,29.77,South,191,0.0,0.0,100,0.00,,,0.00,VWS V13.01,2013-02-23 09:04:00,
2013-02-23 03:05:00,11.8,11.8,29.77,South,191,0.0,0.0,100,0.00,,,0.00,VWS V13.01,2013-02-23 09:05:00,
2013-02-23 03:06:00,11.8,11.8,29.77,South,191,0.0,0.0,100,0.00,,,0.00,VWS V13.01,2013-02-23 09:06:00,
2013-02-23 03:07:00,11.8,11.8,29.77,South,191,0.0,0.0,100,0.00,,,0.00,VWS V13.01,2013-02-23 09:07:00,
2013-02-23 03:08:00,11.8,11.8,29.77,South,191,0.0,0.0,100,0.00,,,0.00,VWS V13.01,2013-02-23 09:08:00,
2013-02-23 03:09:00,11.8,11.8,29.77,South,191,0.0,0.0,100,0.00,,,0.00,VWS V13.01,2013-02-23 09:09:00,
2013-02-23 03:10:00,11.8,11.8,29.77,South,191,0.0,0.0,100,0.00,,,0.00,VWS V13.01,2013-02-23 09:10:00,
2013-02-23 03:11:00,11.7,11.7,29.77,South,191,0.0,0.0,100,0.00,,,0.00,VWS V13.01,2013-02-23 09:11:00,
2013-02-23 03:12:00,11.7,11.7,29.77,South,191,0.0,0.0,100,0.00,,,0.00,VWS V13.01,2013-02-23 09:12:00,
2013-02-23 03:13:00,11.7,11.7,29.74,South,191,0.0,0.0,100,0.00,,,0.00,VWS V13.01,2013-02-23 09:13:00,
2013-02-23 03:14:00,11.5,11.5,29.74,South,191,0.0,0.0,100,0.00,,,0.00,VWS V13.01,2013-02-23 09:14:00,
2013-02-23 03:15:00,11.3,11.3,29.74,South,191,0.0,0.0,100,0.00,,,0.00,VWS V13.01,2013-02-23 09:15:00,
2013-02-23 03:16:00,11.3,11.3,29.74,South,191,0.0,0.0,100,0.00,,,0.00,VWS V13.01,2013-02-23 09:16:00,
2013-02-23 03:17:00,11.1,11.1,29.74,South,191,0.0,0.0,100,0.00,,,0.00,VWS V13.01,2013-02-23 09:17:00,
2013-02-23 03:18:00,11.3,11.3,29.74,South,191,0.0,0.0,100,0.00,,,0.00,VWS V13.01,2013-02-23 09:18:00,
2013-02-23 03:19:00,11.1,11.1,29.74,South,191,0.0,0.0,100,0.00,,,0.00,VWS V13.01,2013-02-23 09:19:00,
2013-02-23 03:20:00,11.1,11.1,29.74,South,191,0.0,0.0,100,0.00,,,0.00,VWS V13.01,2013-02-23 09:20:00,
2013-02-23 03:21:00,11.1,11.1,29.74,South,191,0.0,0.0,100,0.00,,,0.00,VWS V13.01,2013-02-23 09:21:00,
2013-02-23 03:22:00,11.1,11.1,29.74,South,191,0.0,0.0,100,0.00,,,0.00,VWS V13.01,2013-02-23 09:22:00,
2013-02-23 03:23:00,10.9,10.9,29.74,SSW,192,0.0,0.0,100,0.00,,,0.00,VWS V13.01,2013-02-23 09:23:00,
2013-02-23 03:24:00,10.9,10.9,29.74,South,191,0.0,0.0,100,0.00,,,0.00,VWS V13.01,2013-02-23 09:24:00,
2013-02-23 03:25:00,10.9,10.9,29.74,South,191,0.0,0.0,100,0.00,,,0.00,VWS V13.01,2013-02-23 09:25:00,
2013-02-23 03:26:00,10.9,10.9,29.74,South,191,0.0,0.0,100,0.00,,,0.00,VWS V13.01,2013-02-23 09:26:00,
2013-02-23 03:27:00,10.9,10.9,29.74,South,191,0.0,0.0,100,0.00,,,0.00,VWS V13.01,2013-02-23 09:27:00,
2013-02-23 03:28:00,10.9,10.9,29.74,South,191,0.0,0.0,100,0.00,,,0.00,VWS V13.01,2013-02-23 09:28:00,
2013-02-23 03:29:00,10.9,10.9,29.74,South,191,0.0,0.0,100,0.00,,,0.00,VWS V13.01,2013-02-23 09:29:00,
2013-02-23 03:30:00,10.9,10.9,29.74,South,191,0.0,0.0,100,0.00,,,0.00,VWS V13.01,2013-02-23 09:30:00,
2013-02-23 03:31:00,10.9,10.9,29.74,South,191,0.0,0.0,100,0.00,,,0.00,VWS V13.01,2013-02-23 09:31:00,
2013-02-23 03:32:00,10.9,10.9,29.74,South,191,0.0,0.0,100,0.00,,,0.00,VWS V13.01,2013-02-23 09:32:00,
2013-02-23 03:33:00,10.9,10.9,29.74,South,191,0.0,0.0,100,0.00,,,0.00,VWS V13.01,2013-02-23 09:33:00,
2013-02-23 03:34:00,10.9,10.9,29.74,South,191,0.0,0.0,100,0.00,,,0.00,VWS V13.01,2013-02-23 09:34:00,
2013-02-23 03:35:00,10.9,10.9,29.74,South,191,0.0,0.0,100,0.00,,,0.00,VWS V13.01,2013-02-23 09:35:00,
2013-02-23 03:36:00,10.9,10.9,29.74,South,191,0.0,0.0,100,0.00,,,0.00,VWS V13.01,2013-02-23 09:36:00,
2013-02-23 03:37:00,10.9,10.9,29.74,South,191,0.0,0.0,100,0.00,,,0.00,VWS V13.01,2013-02-23 09:37:00,
2013-02-23 03:38:00,11.1,11.1,29.74,South,191,0.0,0.0,100,0.00,,,0.00,VWS V13.01,2013-02-23 09:38:00,
2013-02-23 03:39:00,11.1,11.1,29.74,South,191,0.0,0.0,100,0.00,,,0.00,VWS V13.01,2013-02-23 09:39:00,
2013-02-23 03:40:00,11.1,11.1,29.74,SSW,192,0.0,0.0,100,0.00,,,0.00,VWS V13.01,2013-02-23 09:40:00,
2013-02-23 03:41:00,11.3,11.3,29.74,South,191,0.0,0.0,100,0.00,,,0.00,VWS V13.01,2013-02-23 09:41:00,
2013-02-23 03:42:00,11.1,11.1,29.74,South,191,0.0,0.0,100,0.00,,,0.00,VWS V13.01,2013-02-23 09:42:00,
2013-02-23 03:43:00,11.1,11.1,29.74,South,191,0.0,0.0,100,0.00,,,0.00,VWS V13.01,2013-02-23 09:43:00,
2013-02-23 03:44:00,10.9,10.9,29.74,South,191,0.0,0.0,100,0.00,,,0.00,VWS V13.01,2013-02-23 09:44:00,
2013-02-23 03:45:00,10.9,10.9,29.74,South,191,0.0,0.0,100,0.00,,,0.00,VWS V13.01,2013-02-23 09:45:00,
2013-02-23 03:46:00,10.8,10.8,29.74,South,191,0.0,0.0,100,0.00,,,0.00,VWS V13.01,2013-02-23 09:46:00,
2013-02-23 03:47:00,10.8,10.8,29.74,South,191,0.0,0.0,100,0.00,,,0.00,VWS V13.01,2013-02-23 09:47:00,
2013-02-23 03:48:00,10.9,10.9,29.74,South,191,0.0,0.0,100,0.00,,,0.00,VWS V13.01,2013-02-23 09:48:00,
2013-02-23 03:49:00,10.9,10.9,29.74,South,191,0.0,0.0,100,0.00,,,0.00,VWS V13.01,2013-02-23 09:49:00,
2013-02-23 03:50:00,10.9,10.9,29.74,South,191,0.0,0.0,100,0.00,,,0.00,VWS V13.01,2013-02-23 09:50:00,
2013-02-23 03:51:00,10.8,10.8,29.74,South,191,0.0,0.0,100,0.00,,,0.00,VWS V13.01,2013-02-23 09:51:00,
2013-02-23 03:52:00,10.8,10.8,29.74,South,191,0.0,0.0,100,0.00,,,0.00,VWS V13.01,2013-02-23 09:52:00,
2013-02-23 03:53:00,10.4,10.4,29.74,South,191,0.0,0.0,100,0.00,,,0.00,VWS V13.01,2013-02-23 09:53:00,
2013-02-23 03:54:00,10.4,10.4,29.74,South,191,0.0,0.0,100,0.00,,,0.00,VWS V13.01,2013-02-23 09:54:00,
2013-02-23 03:55:00,10.4,10.4,29.74,SSW,192,0.0,0.0,100,0.00,,,0.00,VWS V13.01,2013-02-23 09:55:00,
2013-02-23 03:56:00,10.2,10.2,29.74,South,191,0.0,0.0,100,0.00,,,0.00,VWS V13.01,2013-02-23 09:56:00,
2013-02-23 03:57:00,10.2,10.2,29.74,South,191,0.0,0.0,100,0.00,,,0.00,VWS V13.01,2013-02-23 09:57:00,
2013-02-23 03:58:00,10.4,10.4,29.74,SSW,192,0.0,0.0,100,0.00,,,0.00,VWS V13.01,2013-02-23 09:58:00,
2013-02-23 03:59:00,10.8,10.8,29.74,South,191,0.0,0.0,100,0.00,,,0.00,VWS V13.01,2013-02-23 09:59:00,
2013-02-23 04:00:00,10.8,10.8,29.74,South,191,0.0,0.0,100,0.00,,,0.00,VWS V13.01,2013-02-23 10:00:00,
2013-02-23 04:01:00,10.8,10.8,29.74,South,191,0.0,0.0,100,0.00,,,0.00,VWS V13.01,2013-02-23 10:01:00,
2013-02-23 04:02:00,10.8,10.8,29.74,SSW,192,0.0,0.0,100,0.00,,,0.00,VWS V13.01,2013-02-23 10:02:00,
2013-02-23 04:03:00,10.8,10.8,29.74,South,191,0.0,0.0,100,0.00,,,0.00,VWS V13.01,2013-02-23 10:03:00,
2013-02-23 04:04:00,10.8,10.8,29.74,South,191,0.0,0.0,100,0.00,,,0.00,VWS V13.01,2013-02-23 10:04:00,
2013-02-23 04:05:00,10.8,10.8,29.74,South,191,0.0,0.0,100,0.00,,,0.00,VWS V13.01,2013-02-23 10:05:00,
2013-02-23 04:06:00,10.8,10.8,29.74,South,191,0.0,0.0,100,0.00,,,0.00,VWS V13.01,2013-02-23 10:06:00,
2013-02-23 04:07:00,10.8,10.8,29.74,South,191,0.0,0.0,100,0.00,,,0.00,VWS V13.01,2013-02-23 10:07:00,
2013-02-23 04:08:00,10.6,10.6,29.74,South,191,0.0,0.0,100,0.00,,,0.00,VWS V13.01,2013-02-23 10:08:00,
2013-02-23 04:09:00,10.4,10.4,29.74,South,191,0.0,0.0,100,0.00,,,0.00,VWS V13.01,2013-02-23 10:09:00,
2013-02-23 04:10:00,10.4,10.4,29.74,South,191,0.0,0.0,100,0.00,,,0.00,VWS V13.01,2013-02-23 10:10:00,
2013-02-23 04:11:00,10.4,10.4,29.74,SSW,192,0.0,0.0,100,0.00,,,0.00,VWS V13.01,2013-02-23 10:11:00,
2013-02-23 04:12:00,10.4,10.4,29.74,South,191,0.0,0.0,100,0.00,,,0.00,VWS V13.01,2013-02-23 10:12:00,
2013-02-23 04:13:00,10.2,10.2,29.74,South,191,0.0,0.0,100,0.00,,,0.00,VWS V13.01,2013-02-23 10:13:00,
2013-02-23 04:14:00,10.2,10.2,29.74,South,191,0.0,0.0,100,0.00,,,0.00,VWS V13.01,2013-02-23 10:14:00,
2013-02-23 04:15:00,10.2,10.2,29.74,South,191,0.0,0.0,100,0.00,,,0.00,VWS V13.01,2013-02-23 10:15:00,
2013-02-23 04:16:00,10.4,10.4,29.74,South,191,0.0,0.0,100,0.00,,,0.00,VWS V13.01,2013-02-23 10:16:00,
2013-02-23 04:17:00,10.4,10.4,29.74,South,191,0.0,0.0,100,0.00,,,0.00,VWS V13.01,2013-02-23 10:17:00,
2013-02-23 04:18:00,10.6,10.6,29.74,South,191,2.2,2.2,100,0.00,,,0.00,VWS V13.01,2013-02-23 10:18:00,
2013-02-23 04:19:00,10.8,10.8,29.74,South,191,2.2,2.2,100,0.00,,,0.00,VWS V13.01,2013-02-23 10:19:00,
2013-02-23 04:20:00,10.8,10.8,29.74,South,191,3.1,3.1,100,0.00,,,0.00,VWS V13.01,2013-02-23 10:20:00,
2013-02-23 04:21:00,10.8,10.8,29.74,South,191,2.7,2.7,100,0.00,,,0.00,VWS V13.01,2013-02-23 10:21:00,
2013-02-23 04:22:00,10.8,10.8,29.74,South,191,2.7,2.7,100,0.00,,,0.00,VWS V13.01,2013-02-23 10:22:00,
2013-02-23 04:23:00,10.8,10.8,29.74,South,191,3.1,3.1,100,0.00,,,0.00,VWS V13.01,2013-02-23 10:23:00,
2013-02-23 04:24:00,10.8,10.8,29.74,South,191,2.7,2.7,100,0.00,,,0.00,VWS V13.01,2013-02-23 10:24:00,
2013-02-23 04:25:00,10.8,10.8,29.74,South,191,0.0,0.0,100,0.00,,,0.00,VWS V13.01,2013-02-23 10:25:00,
2013-02-23 04:26:00,10.8,10.8,29.74,South,191,0.0,0.0,100,0.00,,,0.00,VWS V13.01,2013-02-23 10:26:00,
2013-02-23 04:27:00,10.6,10.6,29.74,South,191,0.0,0.0,100,0.00,,,0.00,VWS V13.01,2013-02-23 10:27:00,
2013-02-23 04:28:00,10.4,10.4,29.74,South,191,0.0,0.0,100,0.00,,,0.00,VWS V13.01,2013-02-23 10:28:00,
2013-02-23 04:29:00,10.4,10.4,29.74,South,191,0.0,0.0,100,0.00,,,0.00,VWS V13.01,2013-02-23 10:29:00,
2013-02-23 04:30:00,10.2,10.2,29.74,South,191,0.0,0.0,100,0.00,,,0.00,VWS V13.01,2013-02-23 10:30:00,
2013-02-23 04:31:00,10.0,10.0,29.74,South,191,0.0,0.0,100,0.00,,,0.00,VWS V13.01,2013-02-23 10:31:00,
2013-02-23 04:32:00,10.0,10.0,29.74,South,191,0.0,0.0,100,0.00,,,0.00,VWS V13.01,2013-02-23 10:32:00,
2013-02-23 04:33:00,10.2,10.2,29.74,South,191,0.0,0.0,100,0.00,,,0.00,VWS V13.01,2013-02-23 10:33:00,
2013-02-23 04:34:00,10.0,10.0,29.74,South,191,0.0,0.0,100,0.00,,,0.00,VWS V13.01,2013-02-23 10:34:00,
2013-02-23 04:35:00,10.0,10.0,29.74,South,191,0.0,0.0,100,0.00,,,0.00,VWS V13.01,2013-02-23 10:35:00,
2013-02-23 04:36:00,10.0,10.0,29.74,South,191,0.0,0.0,100,0.00,,,0.00,VWS V13.01,2013-02-23 10:36:00,
2013-02-23 04:37:00,10.0,10.0,29.74,South,191,0.0,0.0,100,0.00,,,0.00,VWS V13.01,2013-02-23 10:37:00,
2013-02-23 04:38:00,9.9,9.9,29.74,South,191,0.0,0.0,100,0.00,,,0.00,VWS V13.01,2013-02-23 10:38:00,
2013-02-23 04:39:00,10.0,10.0,29.74,South,191,0.0,0.0,100,0.00,,,0.00,VWS V13.01,2013-02-23 10:39:00,
2013-02-23 04:40:00,10.0,10.0,29.74,South,191,0.0,0.0,100,0.00,,,0.00,VWS V13.01,2013-02-23 10:40:00,
2013-02-23 04:41:00,10.0,10.0,29.74,South,191,0.0,0.0,100,0.00,,,0.00,VWS V13.01,2013-02-23 10:41:00,
2013-02-23 04:42:00,9.9,9.9,29.74,South,191,0.0,0.0,100,0.00,,,0.00,VWS V13.01,2013-02-23 10:42:00,
2013-02-23 04:43:00,9.9,9.9,29.74,South,191,0.0,0.0,100,0.00,,,0.00,VWS V13.01,2013-02-23 10:43:00,
2013-02-23 04:44:00,9.7,9.7,29.74,South,191,0.0,0.0,100,0.00,,,0.00,VWS V13.01,2013-02-23 10:44:00,
2013-02-23 04:45:00,9.7,9.7,29.74,South,191,0.0,0.0,100,0.00,,,0.00,VWS V13.01,2013-02-23 10:45:00,
2013-02-23 04:46:00,9.7,9.7,29.74,South,191,0.0,0.0,100,0.00,,,0.00,VWS V13.01,2013-02-23 10:46:00,
2013-02-23 04:47:00,9.7,9.7,29.74,South,191,0.0,0.0,100,0.00,,,0.00,VWS V13.01,2013-02-23 10:47:00,
2013-02-23 04:48:00,9.7,9.7,29.74,South,191,0.0,0.0,100,0.00,,,0.00,VWS V13.01,2013-02-23 10:48:00,
2013-02-23 04:49:00,9.5,9.5,29.74,South,191,0.0,0.0,100,0.00,,,0.00,VWS V13.01,2013-02-23 10:49:00,
2013-02-23 04:50:00,9.5,9.5,29.74,South,191,0.0,0.0,100,0.00,,,0.00,VWS V13.01,2013-02-23 10:50:00,
2013-02-23 04:51:00,9.3,9.3,29.74,South,191,0.0,0.0,100,0.00,,,0.00,VWS V13.01,2013-02-23 10:51:00,
2013-02-23 04:52:00,9.3,9.3,29.74,South,191,0.0,0.0,100,0.00,,,0.00,VWS V13.01,2013-02-23 10:52:00,
2013-02-23 04:53:00,9.5,9.5,29.74,South,191,0.0,0.0,100,0.00,,,0.00,VWS V13.01,2013-02-23 10:53:00,
2013-02-23 04:54:00,9.5,9.5,29.74,South,191,0.0,0.0,100,0.00,,,0.00,VWS V13.01,2013-02-23 10:54:00,
2013-02-23 04:55:00,9.5,9.5,29.74,South,191,0.0,0.0,100,0.00,,,0.00,VWS V13.01,2013-02-23 10:55:00,
2013-02-23 04:56:00,9.5,9.5,29.74,South,191,0.0,0.0,100,0.00,,,0.00,VWS V13.01,2013-02-23 10:56:00,
2013-02-23 04:57:00,9.5,9.5,29.74,South,191,0.0,0.0,100,0.00,,,0.00,VWS V13.01,2013-02-23 10:57:00,
2013-02-23 04:58:00,9.5,9.5,29.74,South,191,0.0,0.0,100,0.00,,,0.00,VWS V13.01,2013-02-23 10:58:00,
2013-02-23 04:59:00,9.3,9.3,29.74,South,191,0.0,0.0,100,0.00,,,0.00,VWS V13.01,2013-02-23 10:59:00,
2013-02-23 05:00:00,9.5,9.5,29.74,South,191,0.0,0.0,100,0.00,,,0.00,VWS V13.01,2013-02-23 11:00:00,
2013-02-23 05:01:00,9.5,9.5,29.74,South,191,0.0,0.0,100,0.00,,,0.00,VWS V13.01,2013-02-23 11:01:00,
2013-02-23 05:02:00,9.7,9.7,29.74,South,191,0.0,0.0,100,0.00,,,0.00,VWS V13.01,2013-02-23 11:02:00,
2013-02-23 05:03:00,9.7,9.7,29.74,South,191,0.0,0.0,100,0.00,,,0.00,VWS V13.01,2013-02-23 11:03:00,
2013-02-23 05:04:00,9.7,9.7,29.74,South,191,0.0,0.0,100,0.00,,,0.00,VWS V13.01,2013-02-23 11:04:00,
2013-02-23 05:05:00,9.7,9.7,29.74,South,191,0.0,0.0,100,0.00,,,0.00,VWS V13.01,2013-02-23 11:05:00,
2013-02-23 05:06:00,9.7,9.7,29.74,South,191,0.0,0.0,100,0.00,,,0.00,VWS V13.01,2013-02-23 11:06:00,
2013-02-23 05:07:00,9.7,9.7,29.74,South,191,0.0,0.0,100,0.00,,,0.00,VWS V13.01,2013-02-23 11:07:00,
2013-02-23 05:08:00,9.7,9.7,29.74,South,191,0.0,0.0,100,0.00,,,0.00,VWS V13.01,2013-02-23 11:08:00,
2013-02-23 05:09:00,9.5,9.5,29.74,South,191,0.0,0.0,100,0.00,,,0.00,VWS V13.01,2013-02-23 11:09:00,
2013-02-23 05:10:00,9.5,9.5,29.74,South,191,0.0,0.0,100,0.00,,,0.00,VWS V13.01,2013-02-23 11:10:00,
2013-02-23 05:11:00,9.5,9.5,29.74,South,191,0.0,0.0,100,0.00,,,0.00,VWS V13.01,2013-02-23 11:11:00,
2013-02-23 05:12:00,9.5,9.5,29.74,South,191,0.0,0.0,100,0.00,,,0.00,VWS V13.01,2013-02-23 11:12:00,
2013-02-23 05:13:00,9.5,9.5,29.74,South,191,0.0,0.0,100,0.00,,,0.00,VWS V13.01,2013-02-23 11:13:00,
2013-02-23 05:14:00,9.5,9.5,29.74,South,191,0.0,0.0,100,0.00,,,0.00,VWS V13.01,2013-02-23 11:14:00,
2013-02-23 05:15:00,9.5,9.5,29.74,South,191,0.0,0.0,100,0.00,,,0.00,VWS V13.01,2013-02-23 11:15:00,
2013-02-23 05:16:00,9.5,9.5,29.74,South,191,0.0,0.0,100,0.00,,,0.00,VWS V13.01,2013-02-23 11:16:00,
2013-02-23 05:17:00,9.5,9.5,29.74,South,191,0.0,0.0,100,0.00,,,0.00,VWS V13.01,2013-02-23 11:17:00,
2013-02-23 05:18:00,9.3,9.3,29.74,South,191,0.0,0.0,100,0.00,,,0.00,VWS V13.01,2013-02-23 11:18:00,
2013-02-23 05:19:00,9.3,9.3,29.74,South,191,0.0,0.0,100,0.00,,,0.00,VWS V13.01,2013-02-23 11:19:00,
2013-02-23 05:20:00,9.3,9.3,29.74,South,191,0.0,0.0,100,0.00,,,0.00,VWS V13.01,2013-02-23 11:20:00,
2013-02-23 05:21:00,9.3,9.3,29.74,South,191,0.0,0.0,100,0.00,,,0.00,VWS V13.01,2013-02-23 11:21:00,
2013-02-23 05:22:00,9.3,9.3,29.74,South,191,0.0,0.0,100,0.00,,,0.00,VWS V13.01,2013-02-23 11:22:00,
2013-02-23 05:23:00,9.3,9.3,29.74,South,191,0.0,0.0,100,0.00,,,0.00,VWS V13.01,2013-02-23 11:23:00,
2013-02-23 05:24:00,9.3,9.3,29.74,South,191,0.0,0.0,100,0.00,,,0.00,VWS V13.01,2013-02-23 11:24:00,
2013-02-23 05:25:00,9.5,9.5,29.74,South,191,0.0,0.0,100,0.00,,,0.00,VWS V13.01,2013-02-23 11:25:00,
2013-02-23 05:26:00,9.7,9.7,29.74,SSW,192,0.0,0.0,100,0.00,,,0.00,VWS V13.01,2013-02-23 11:26:00,
2013-02-23 05:27:00,9.7,9.7,29.74,South,191,0.0,0.0,100,0.00,,,0.00,VWS V13.01,2013-02-23 11:27:00,
2013-02-23 05:28:00,9.7,9.7,29.74,South,191,0.0,0.0,100,0.00,,,0.00,VWS V13.01,2013-02-23 11:28:00,
2013-02-23 05:29:00,9.5,9.5,29.74,South,191,0.0,0.0,100,0.00,,,0.00,VWS V13.01,2013-02-23 11:29:00,
2013-02-23 05:30:00,9.5,9.5,29.74,South,191,0.0,0.0,100,0.00,,,0.00,VWS V13.01,2013-02-23 11:30:00,
2013-02-23 05:31:00,9.5,9.5,29.74,South,191,0.0,0.0,100,0.00,,,0.00,VWS V13.01,2013-02-23 11:31:00,
2013-02-23 05:32:00,9.5,9.5,29.74,South,191,0.0,0.0,100,0.00,,,0.00,VWS V13.01,2013-02-23 11:32:00,
2013-02-23 05:33:00,9.3,9.3,29.74,South,191,0.0,0.0,100,0.00,,,0.00,VWS V13.01,2013-02-23 11:33:00,
2013-02-23 05:34:00,9.3,9.3,29.74,South,191,0.0,0.0,100,0.00,,,0.00,VWS V13.01,2013-02-23 11:34:00,
2013-02-23 05:35:00,9.3,9.3,29.74,South,191,0.0,0.0,100,0.00,,,0.00,VWS V13.01,2013-02-23 11:35:00,
2013-02-23 05:36:00,9.3,9.3,29.74,South,191,0.0,0.0,100,0.00,,,0.00,VWS V13.01,2013-02-23 11:36:00,
2013-02-23 05:37:00,9.5,9.5,29.74,South,191,0.0,0.0,100,0.00,,,0.00,VWS V13.01,2013-02-23 11:37:00,
2013-02-23 05:38:00,9.5,9.5,29.74,South,191,0.0,0.0,100,0.00,,,0.00,VWS V13.01,2013-02-23 11:38:00,
2013-02-23 05:39:00,9.3,9.3,29.74,South,191,0.0,0.0,100,0.00,,,0.00,VWS V13.01,2013-02-23 11:39:00,
2013-02-23 05:40:00,9.3,9.3,29.74,South,191,0.0,0.0,100,0.00,,,0.00,VWS V13.01,2013-02-23 11:40:00,
2013-02-23 05:41:00,9.3,9.3,29.74,South,191,0.0,0.0,100,0.00,,,0.00,VWS V13.01,2013-02-23 11:41:00,
2013-02-23 05:42:00,9.3,9.3,29.74,South,191,0.0,0.0,100,0.00,,,0.00,VWS V13.01,2013-02-23 11:42:00,
2013-02-23 05:43:00,9.3,9.3,29.74,South,191,0.0,0.0,100,0.00,,,0.00,VWS V13.01,2013-02-23 11:43:00,
2013-02-23 05:44:00,9.3,9.3,29.74,South,191,0.0,0.0,100,0.00,,,0.00,VWS V13.01,2013-02-23 11:44:00,
2013-02-23 05:45:00,9.3,9.3,29.74,South,191,0.0,0.0,100,0.00,,,0.00,VWS V13.01,2013-02-23 11:45:00,
2013-02-23 05:46:00,9.3,9.3,29.74,South,191,0.0,0.0,100,0.00,,,0.00,VWS V13.01,2013-02-23 11:46:00,
2013-02-23 05:47:00,9.3,9.3,29.74,South,191,0.0,0.0,100,0.00,,,0.00,VWS V13.01,2013-02-23 11:47:00,
2013-02-23 05:48:00,9.3,9.3,29.74,South,191,0.0,0.0,100,0.00,,,0.00,VWS V13.01,2013-02-23 11:48:00,
2013-02-23 05:49:00,9.5,9.5,29.74,SSW,192,0.0,0.0,100,0.00,,,0.00,VWS V13.01,2013-02-23 11:49:00,
2013-02-23 05:50:00,9.5,9.5,29.74,South,191,0.0,0.0,100,0.00,,,0.00,VWS V13.01,2013-02-23 11:50:00,
2013-02-23 05:51:00,9.5,9.5,29.74,South,191,0.0,0.0,100,0.00,,,0.00,VWS V13.01,2013-02-23 11:51:00,
2013-02-23 05:52:00,9.5,9.5,29.74,South,191,0.0,0.0,100,0.00,,,0.00,VWS V13.01,2013-02-23 11:52:00,
2013-02-23 05:53:00,9.5,9.5,29.74,South,191,0.0,0.0,100,0.00,,,0.00,VWS V13.01,2013-02-23 11:53:00,
2013-02-23 05:54:00,9.3,9.3,29.74,South,191,0.0,0.0,100,0.00,,,0.00,VWS V13.01,2013-02-23 11:54:00,
2013-02-23 05:55:00,9.3,9.3,29.74,South,191,0.0,0.0,100,0.00,,,0.00,VWS V13.01,2013-02-23 11:55:00,
2013-02-23 05:56:00,9.3,9.3,29.74,South,191,0.0,0.0,100,0.00,,,0.00,VWS V13.01,2013-02-23 11:56:00,
2013-02-23 05:57:00,9.5,9.5,29.74,SSW,192,0.0,0.0,100,0.00,,,0.00,VWS V13.01,2013-02-23 11:57:00,
2013-02-23 05:58:00,9.7,9.7,29.74,South,191,0.0,0.0,100,0.00,,,0.00,VWS V13.01,2013-02-23 11:58:00,
2013-02-23 05:59:00,9.7,9.7,29.74,South,191,0.0,0.0,100,0.00,,,0.00,VWS V13.01,2013-02-23 11:59:00,
2013-02-23 06:00:00,9.9,9.9,29.74,South,191,0.0,0.0,100,0.00,,,0.00,VWS V13.01,2013-02-23 12:00:00,
2013-02-23 06:01:00,9.9,9.9,29.74,South,191,0.0,0.0,100,0.00,,,0.00,VWS V13.01,2013-02-23 12:01:00,
2013-02-23 06:02:00,9.7,9.7,29.74,South,191,0.0,0.0,100,0.00,,,0.00,VWS V13.01,2013-02-23 12:02:00,
2013-02-23 06:03:00,9.7,9.7,29.74,South,191,0.0,0.0,100,0.00,,,0.00,VWS V13.01,2013-02-23 12:03:00,
2013-02-23 06:04:00,9.5,9.5,29.74,South,191,0.0,0.0,100,0.00,,,0.00,VWS V13.01,2013-02-23 12:04:00,
2013-02-23 06:05:00,9.5,9.5,29.74,South,191,0.0,0.0,100,0.00,,,0.00,VWS V13.01,2013-02-23 12:05:00,
2013-02-23 06:06:00,9.5,9.5,29.74,South,191,0.0,0.0,100,0.00,,,0.00,VWS V13.01,2013-02-23 12:06:00,
2013-02-23 06:07:00,9.5,9.5,29.74,South,191,0.0,0.0,100,0.00,,,0.00,VWS V13.01,2013-02-23 12:07:00,
2013-02-23 06:08:00,9.5,9.5,29.74,South,191,0.0,0.0,100,0.00,,,0.00,VWS V13.01,2013-02-23 12:08:00,
2013-02-23 06:09:00,9.5,9.5,29.74,South,191,0.0,0.0,100,0.00,,,0.00,VWS V13.01,2013-02-23 12:09:00,
2013-02-23 06:10:00,9.5,9.5,29.74,South,191,0.0,0.0,100,0.00,,,0.00,VWS V13.01,2013-02-23 12:10:00,
2013-02-23 06:11:00,9.5,9.5,29.74,South,191,0.0,0.0,100,0.00,,,0.00,VWS V13.01,2013-02-23 12:11:00,
2013-02-23 06:12:00,9.3,9.3,29.74,South,191,0.0,0.0,100,0.00,,,0.00,VWS V13.01,2013-02-23 12:12:00,
2013-02-23 06:13:00,9.3,9.3,29.74,South,191,0.0,0.0,100,0.00,,,0.00,VWS V13.01,2013-02-23 12:13:00,
2013-02-23 06:14:00,9.3,9.3,29.74,South,191,0.0,0.0,100,0.00,,,0.00,VWS V13.01,2013-02-23 12:14:00,
2013-02-23 06:15:00,9.3,9.3,29.74,South,191,0.0,0.0,100,0.00,,,0.00,VWS V13.01,2013-02-23 12:15:00,
2013-02-23 06:16:00,9.1,9.1,29.74,South,191,0.0,0.0,100,0.00,,,0.00,VWS V13.01,2013-02-23 12:16:00,
2013-02-23 06:17:00,9.1,9.1,29.74,South,191,0.0,0.0,100,0.00,,,0.00,VWS V13.01,2013-02-23 12:17:00,
2013-02-23 06:18:00,9.1,9.1,29.74,South,191,0.0,0.0,100,0.00,,,0.00,VWS V13.01,2013-02-23 12:18:00,
2013-02-23 06:19:00,9.1,9.1,29.74,South,191,0.0,0.0,100,0.00,,,0.00,VWS V13.01,2013-02-23 12:19:00,
2013-02-23 06:20:00,9.1,9.1,29.74,South,191,0.0,0.0,100,0.00,,,0.00,VWS V13.01,2013-02-23 12:20:00,
2013-02-23 06:21:00,9.1,9.1,29.74,South,191,0.0,0.0,100,0.00,,,0.00,VWS V13.01,2013-02-23 12:21:00,
2013-02-23 06:22:00,9.1,9.1,29.74,SSW,192,0.0,0.0,100,0.00,,,0.00,VWS V13.01,2013-02-23 12:22:00,
2013-02-23 06:23:00,9.1,9.1,29.74,South,191,0.0,0.0,100,0.00,,,0.00,VWS V13.01,2013-02-23 12:23:00,
2013-02-23 06:24:00,9.1,9.1,29.74,South,191,0.0,0.0,100,0.00,,,0.00,VWS V13.01,2013-02-23 12:24:00,
2013-02-23 06:25:00,9.1,9.1,29.74,South,191,0.0,0.0,100,0.00,,,0.00,VWS V13.01,2013-02-23 12:25:00,
2013-02-23 06:26:00,9.3,9.3,29.74,South,191,0.0,0.0,100,0.00,,,0.00,VWS V13.01,2013-02-23 12:26:00,
2013-02-23 06:27:00,9.3,9.3,29.74,South,191,0.0,0.0,100,0.00,,,0.00,VWS V13.01,2013-02-23 12:27:00,
2013-02-23 06:28:00,9.3,9.3,29.74,South,191,0.0,0.0,100,0.00,,,0.00,VWS V13.01,2013-02-23 12:28:00,
2013-02-23 06:29:00,9.1,9.1,29.74,South,191,0.0,0.0,100,0.00,,,0.00,VWS V13.01,2013-02-23 12:29:00,
2013-02-23 06:30:00,9.1,9.1,29.74,South,191,0.0,0.0,100,0.00,,,0.00,VWS V13.01,2013-02-23 12:30:00,
2013-02-23 06:31:00,9.1,9.1,29.74,South,191,0.0,0.0,100,0.00,,,0.00,VWS V13.01,2013-02-23 12:31:00,
2013-02-23 06:32:00,9.1,9.1,29.74,South,191,0.0,0.0,100,0.00,,,0.00,VWS V13.01,2013-02-23 12:32:00,
2013-02-23 06:33:00,9.3,9.3,29.74,South,191,0.0,0.0,100,0.00,,,0.00,VWS V13.01,2013-02-23 12:33:00,
2013-02-23 06:34:00,9.3,9.3,29.74,South,191,0.0,0.0,100,0.00,,,0.00,VWS V13.01,2013-02-23 12:34:00,
2013-02-23 06:35:00,9.3,9.3,29.74,South,191,0.0,0.0,100,0.00,,,0.00,VWS V13.01,2013-02-23 12:35:00,
2013-02-23 06:36:00,9.5,9.5,29.74,South,191,0.0,0.0,100,0.00,,,0.00,VWS V13.01,2013-02-23 12:36:00,
2013-02-23 06:37:00,9.5,9.5,29.74,South,191,0.0,0.0,100,0.00,,,0.00,VWS V13.01,2013-02-23 12:37:00,
2013-02-23 06:38:00,9.7,9.7,29.74,South,191,0.0,0.0,100,0.00,,,0.00,VWS V13.01,2013-02-23 12:38:00,
2013-02-23 06:39:00,9.7,9.7,29.74,South,191,0.0,0.0,100,0.00,,,0.00,VWS V13.01,2013-02-23 12:39:00,
2013-02-23 06:40:00,9.7,9.7,29.74,South,191,0.0,0.0,100,0.00,,,0.00,VWS V13.01,2013-02-23 12:40:00,
2013-02-23 06:41:00,9.7,9.7,29.74,South,191,0.0,0.0,100,0.00,,,0.00,VWS V13.01,2013-02-23 12:41:00,
2013-02-23 06:42:00,9.7,9.7,29.71,South,191,0.0,0.0,100,0.00,,,0.00,VWS V13.01,2013-02-23 12:42:00,
2013-02-23 06:43:00,9.7,9.7,29.71,South,191,0.0,0.0,100,0.00,,,0.00,VWS V13.01,2013-02-23 12:43:00,
2013-02-23 06:44:00,9.9,9.9,29.71,South,191,0.0,0.0,100,0.00,,,0.00,VWS V13.01,2013-02-23 12:44:00,
2013-02-23 06:45:00,10.0,10.0,29.71,South,191,0.0,0.0,100,0.00,,,0.00,VWS V13.01,2013-02-23 12:45:00,
2013-02-23 06:46:00,10.0,10.0,29.71,South,191,0.0,0.0,100,0.00,,,0.00,VWS V13.01,2013-02-23 12:46:00,
2013-02-23 06:47:00,10.0,10.0,29.71,South,191,0.0,0.0,100,0.00,,,0.00,VWS V13.01,2013-02-23 12:47:00,
2013-02-23 06:48:00,10.0,10.0,29.71,South,191,0.0,0.0,100,0.00,,,0.00,VWS V13.01,2013-02-23 12:48:00,
2013-02-23 06:49:00,10.0,10.0,29.71,South,191,0.0,0.0,100,0.00,,,0.00,VWS V13.01,2013-02-23 12:49:00,
2013-02-23 06:50:00,10.0,10.0,29.71,South,191,0.0,0.0,100,0.00,,,0.00,VWS V13.01,2013-02-23 12:50:00,
2013-02-23 06:51:00,10.0,10.0,29.71,South,191,0.0,0.0,100,0.00,,,0.00,VWS V13.01,2013-02-23 12:51:00,
2013-02-23 06:52:00,10.2,10.2,29.71,South,191,0.0,0.0,100,0.00,,,0.00,VWS V13.01,2013-02-23 12:52:00,
2013-02-23 06:53:00,10.2,10.2,29.71,South,191,0.0,0.0,100,0.00,,,0.00,VWS V13.01,2013-02-23 12:53:00,
2013-02-23 06:54:00,10.2,10.2,29.71,South,191,0.0,0.0,100,0.00,,,0.00,VWS V13.01,2013-02-23 12:54:00,
2013-02-23 06:55:00,10.2,10.2,29.71,South,191,0.0,0.0,100,0.00,,,0.00,VWS V13.01,2013-02-23 12:55:00,
2013-02-23 06:56:00,10.2,10.2,29.71,South,191,0.0,0.0,100,0.00,,,0.00,VWS V13.01,2013-02-23 12:56:00,
2013-02-23 06:57:00,10.2,10.2,29.71,South,191,0.0,0.0,100,0.00,,,0.00,VWS V13.01,2013-02-23 12:57:00,
2013-02-23 06:58:00,10.2,10.2,29.71,South,191,0.0,0.0,100,0.00,,,0.00,VWS V13.01,2013-02-23 12:58:00,
2013-02-23 06:59:00,10.2,10.2,29.71,South,191,0.0,0.0,100,0.00,,,0.00,VWS V13.01,2013-02-23 12:59:00,
2013-02-23 07:00:00,10.2,10.2,29.71,South,191,0.0,0.0,100,0.00,,,0.00,VWS V13.01,2013-02-23 13:00:00,
2013-02-23 07:01:00,10.2,10.2,29.71,South,191,0.0,0.0,100,0.00,,,0.00,VWS V13.01,2013-02-23 13:01:00,
2013-02-23 07:02:00,10.2,10.2,29.71,South,191,0.0,0.0,100,0.00,,,0.00,VWS V13.01,2013-02-23 13:02:00,
2013-02-23 07:03:00,10.2,10.2,29.71,South,191,0.0,0.0,100,0.00,,,0.00,VWS V13.01,2013-02-23 13:03:00,
2013-02-23 07:04:00,10.2,10.2,29.71,South,191,0.0,0.0,100,0.00,,,0.00,VWS V13.01,2013-02-23 13:04:00,
2013-02-23 07:05:00,10.4,10.4,29.71,South,191,0.0,0.0,100,0.00,,,0.00,VWS V13.01,2013-02-23 13:05:00,
2013-02-23 07:06:00,10.4,10.4,29.71,South,191,0.0,0.0,100,0.00,,,0.00,VWS V13.01,2013-02-23 13:06:00,
2013-02-23 07:07:00,10.4,10.4,29.71,South,191,0.0,0.0,100,0.00,,,0.00,VWS V13.01,2013-02-23 13:07:00,
2013-02-23 07:08:00,10.4,10.4,29.71,South,191,0.0,0.0,100,0.00,,,0.00,VWS V13.01,2013-02-23 13:08:00,
2013-02-23 07:09:00,10.8,10.8,29.71,South,191,0.0,0.0,100,0.00,,,0.00,VWS V13.01,2013-02-23 13:09:00,
2013-02-23 07:10:00,10.9,10.9,29.71,South,191,0.0,0.0,100,0.00,,,0.00,VWS V13.01,2013-02-23 13:10:00,
2013-02-23 07:11:00,10.9,10.9,29.71,South,191,0.0,0.0,100,0.00,,,0.00,VWS V13.01,2013-02-23 13:11:00,
2013-02-23 07:12:00,10.9,10.9,29.71,South,191,0.0,0.0,100,0.00,,,0.00,VWS V13.01,2013-02-23 13:12:00,
2013-02-23 07:13:00,11.1,11.1,29.71,South,191,0.0,0.0,100,0.00,,,0.00,VWS V13.01,2013-02-23 13:13:00,
2013-02-23 07:14:00,11.1,11.1,29.71,South,191,0.0,0.0,100,0.00,,,0.00,VWS V13.01,2013-02-23 13:14:00,
2013-02-23 07:15:00,11.1,11.1,29.71,South,191,0.0,0.0,100,0.00,,,0.00,VWS V13.01,2013-02-23 13:15:00,
2013-02-23 07:16:00,11.1,11.1,29.71,South,191,0.0,0.0,100,0.00,,,0.00,VWS V13.01,2013-02-23 13:16:00,
2013-02-23 07:17:00,11.1,11.1,29.71,South,191,0.0,0.0,100,0.00,,,0.00,VWS V13.01,2013-02-23 13:17:00,
2013-02-23 07:18:00,10.9,10.9,29.71,South,191,0.0,0.0,100,0.00,,,0.00,VWS V13.01,2013-02-23 13:18:00,
2013-02-23 07:19:00,10.9,10.9,29.71,South,191,0.0,0.0,100,0.00,,,0.00,VWS V13.01,2013-02-23 13:19:00,
2013-02-23 07:20:00,10.9,10.9,29.71,South,191,0.0,0.0,100,0.00,,,0.00,VWS V13.01,2013-02-23 13:20:00,
2013-02-23 07:21:00,10.9,10.9,29.71,South,191,0.0,0.0,100,0.00,,,0.00,VWS V13.01,2013-02-23 13:21:00,
2013-02-23 07:22:00,10.9,10.9,29.71,South,191,0.0,0.0,100,0.00,,,0.00,VWS V13.01,2013-02-23 13:22:00,
2013-02-23 07:23:00,10.9,10.9,29.71,South,191,0.0,0.0,100,0.00,,,0.00,VWS V13.01,2013-02-23 13:23:00,
2013-02-23 07:24:00,10.9,10.9,29.71,South,191,0.0,0.0,100,0.00,,,0.00,VWS V13.01,2013-02-23 13:24:00,
2013-02-23 07:25:00,10.8,10.8,29.71,South,191,0.0,0.0,100,0.00,,,0.00,VWS V13.01,2013-02-23 13:25:00,
2013-02-23 07:26:00,10.8,10.8,29.71,South,191,0.0,0.0,100,0.00,,,0.00,VWS V13.01,2013-02-23 13:26:00,
2013-02-23 07:27:00,10.8,10.8,29.71,South,191,0.0,0.0,100,0.00,,,0.00,VWS V13.01,2013-02-23 13:27:00,
2013-02-23 07:28:00,10.8,10.8,29.71,South,191,0.0,0.0,100,0.00,,,0.00,VWS V13.01,2013-02-23 13:28:00,
2013-02-23 07:29:00,10.8,10.8,29.71,South,191,0.0,0.0,100,0.00,,,0.00,VWS V13.01,2013-02-23 13:29:00,
2013-02-23 07:30:00,10.8,10.8,29.71,South,191,0.0,0.0,100,0.00,,,0.00,VWS V13.01,2013-02-23 13:30:00,
2013-02-23 07:31:00,10.8,10.8,29.71,South,191,0.0,0.0,100,0.00,,,0.00,VWS V13.01,2013-02-23 13:31:00,
2013-02-23 07:32:00,10.8,10.8,29.71,South,191,0.0,0.0,100,0.00,,,0.00,VWS V13.01,2013-02-23 13:32:00,
2013-02-23 07:33:00,10.8,10.8,29.71,South,191,0.0,0.0,100,0.00,,,0.00,VWS V13.01,2013-02-23 13:33:00,
2013-02-23 07:34:00,10.9,10.9,29.71,South,191,0.0,0.0,100,0.00,,,0.00,VWS V13.01,2013-02-23 13:34:00,
2013-02-23 07:35:00,10.9,10.9,29.71,South,191,0.0,0.0,100,0.00,,,0.00,VWS V13.01,2013-02-23 13:35:00,
2013-02-23 07:36:00,10.8,10.8,29.71,South,191,0.0,0.0,100,0.00,,,0.00,VWS V13.01,2013-02-23 13:36:00,
2013-02-23 07:37:00,10.8,10.8,29.71,South,191,0.0,0.0,100,0.00,,,0.00,VWS V13.01,2013-02-23 13:37:00,
2013-02-23 07:38:00,10.8,10.8,29.71,South,191,0.0,0.0,100,0.00,,,0.00,VWS V13.01,2013-02-23 13:38:00,
2013-02-23 07:39:00,10.8,10.8,29.71,South,191,0.0,0.0,100,0.00,,,0.00,VWS V13.01,2013-02-23 13:39:00,
2013-02-23 07:40:00,10.8,10.8,29.71,South,191,0.0,0.0,100,0.00,,,0.00,VWS V13.01,2013-02-23 13:40:00,
2013-02-23 07:41:00,10.8,10.8,29.71,South,191,0.0,0.0,100,0.00,,,0.00,VWS V13.01,2013-02-23 13:41:00,
2013-02-23 07:42:00,10.8,10.8,29.74,South,191,0.0,0.0,100,0.00,,,0.00,VWS V13.01,2013-02-23 13:42:00,
2013-02-23 07:43:00,10.8,10.8,29.74,South,191,0.0,0.0,100,0.00,,,0.00,VWS V13.01,2013-02-23 13:43:00,
2013-02-23 07:44:00,10.9,10.9,29.74,South,191,0.0,0.0,100,0.00,,,0.00,VWS V13.01,2013-02-23 13:44:00,
2013-02-23 07:45:00,10.9,10.9,29.74,South,191,0.0,0.0,100,0.00,,,0.00,VWS V13.01,2013-02-23 13:45:00,
2013-02-23 07:46:00,10.9,10.9,29.74,South,191,0.0,0.0,100,0.00,,,0.00,VWS V13.01,2013-02-23 13:46:00,
2013-02-23 07:47:00,10.9,10.9,29.74,South,191,0.0,0.0,100,0.00,,,0.00,VWS V13.01,2013-02-23 13:47:00,
2013-02-23 07:48:00,10.9,10.9,29.74,South,191,0.0,0.0,100,0.00,,,0.00,VWS V13.01,2013-02-23 13:48:00,
2013-02-23 07:49:00,10.9,10.9,29.74,South,191,0.0,0.0,100,0.00,,,0.00,VWS V13.01,2013-02-23 13:49:00,
2013-02-23 07:50:00,10.9,10.9,29.74,South,191,0.0,0.0,100,0.00,,,0.00,VWS V13.01,2013-02-23 13:50:00,
2013-02-23 07:51:00,10.9,10.9,29.74,South,191,0.0,0.0,100,0.00,,,0.00,VWS V13.01,2013-02-23 13:51:00,
2013-02-23 07:52:00,11.3,11.3,29.74,South,191,0.0,0.0,100,0.00,,,0.00,VWS V13.01,2013-02-23 13:52:00,
2013-02-23 07:53:00,11.3,11.3,29.74,South,191,0.0,0.0,100,0.00,,,0.00,VWS V13.01,2013-02-23 13:53:00,
2013-02-23 07:54:00,12.0,12.0,29.74,South,191,0.0,0.0,100,0.00,,,0.00,VWS V13.01,2013-02-23 13:54:00,
2013-02-23 07:55:00,12.2,12.2,29.74,South,191,0.0,0.0,100,0.00,,,0.00,VWS V13.01,2013-02-23 13:55:00,
2013-02-23 07:56:00,12.6,12.6,29.74,South,191,0.0,0.0,100,0.00,,,0.00,VWS V13.01,2013-02-23 13:56:00,
2013-02-23 07:57:00,13.3,13.3,29.71,South,191,0.0,0.0,100,0.00,,,0.00,VWS V13.01,2013-02-23 13:57:00,
2013-02-23 07:58:00,13.3,13.3,29.71,South,191,0.0,0.0,100,0.00,,,0.00,VWS V13.01,2013-02-23 13:58:00,
2013-02-23 07:59:00,13.5,13.5,29.71,South,191,0.0,0.0,100,0.00,,,0.00,VWS V13.01,2013-02-23 13:59:00,
2013-02-23 08:00:00,13.6,13.6,29.71,South,191,0.0,0.0,100,0.00,,,0.00,VWS V13.01,2013-02-23 14:00:00,
2013-02-23 08:01:00,13.6,13.6,29.71,South,191,0.0,0.0,100,0.00,,,0.00,VWS V13.01,2013-02-23 14:01:00,
2013-02-23 08:02:00,13.5,13.5,29.71,South,191,0.0,0.0,100,0.00,,,0.00,VWS V13.01,2013-02-23 14:02:00,
2013-02-23 08:03:00,13.5,13.5,29.71,South,191,0.0,0.0,100,0.00,,,0.00,VWS V13.01,2013-02-23 14:03:00,
2013-02-23 08:04:00,13.5,13.5,29.71,South,191,0.0,0.0,100,0.00,,,0.00,VWS V13.01,2013-02-23 14:04:00,
2013-02-23 08:05:00,13.5,13.5,29.71,South,191,0.0,0.0,100,0.00,,,0.00,VWS V13.01,2013-02-23 14:05:00,
2013-02-23 08:06:00,13.6,13.6,29.71,South,191,0.0,0.0,100,0.00,,,0.00,VWS V13.01,2013-02-23 14:06:00,
2013-02-23 08:07:00,13.6,13.6,29.71,South,191,0.0,0.0,100,0.00,,,0.00,VWS V13.01,2013-02-23 14:07:00,
2013-02-23 08:08:00,13.6,13.6,29.71,South,191,0.0,0.0,100,0.00,,,0.00,VWS V13.01,2013-02-23 14:08:00,
2013-02-23 08:09:00,13.6,13.6,29.71,South,191,0.0,0.0,100,0.00,,,0.00,VWS V13.01,2013-02-23 14:09:00,
2013-02-23 08:10:00,13.6,13.6,29.71,South,191,0.0,0.0,100,0.00,,,0.00,VWS V13.01,2013-02-23 14:10:00,
2013-02-23 08:11:00,13.8,13.8,29.71,South,191,0.0,0.0,100,0.00,,,0.00,VWS V13.01,2013-02-23 14:11:00,
2013-02-23 08:12:00,14.2,14.2,29.74,South,191,0.0,0.0,100,0.00,,,0.00,VWS V13.01,2013-02-23 14:12:00,
2013-02-23 08:13:00,14.4,14.4,29.74,South,191,0.0,0.0,100,0.00,,,0.00,VWS V13.01,2013-02-23 14:13:00,
2013-02-23 08:14:00,14.9,14.9,29.74,South,191,0.0,0.0,100,0.00,,,0.00,VWS V13.01,2013-02-23 14:14:00,
2013-02-23 08:15:00,15.1,15.1,29.74,South,191,0.0,0.0,100,0.00,,,0.00,VWS V13.01,2013-02-23 14:15:00,
2013-02-23 08:16:00,16.0,16.0,29.74,South,191,0.0,0.0,100,0.00,,,0.00,VWS V13.01,2013-02-23 14:16:00,
2013-02-23 08:17:00,16.5,16.5,29.74,South,191,0.0,0.0,100,0.00,,,0.00,VWS V13.01,2013-02-23 14:17:00,
2013-02-23 08:18:00,17.1,17.1,29.74,South,191,0.0,0.0,100,0.00,,,0.00,VWS V13.01,2013-02-23 14:18:00,
2013-02-23 08:19:00,16.9,16.9,29.74,South,191,0.0,0.0,100,0.00,,,0.00,VWS V13.01,2013-02-23 14:19:00,
2013-02-23 08:20:00,18.0,18.0,29.74,South,191,0.0,0.0,100,0.00,,,0.00,VWS V13.01,2013-02-23 14:20:00,
2013-02-23 08:21:00,17.1,17.1,29.74,South,191,0.0,0.0,100,0.00,,,0.00,VWS V13.01,2013-02-23 14:21:00,
2013-02-23 08:22:00,17.1,17.1,29.74,South,191,0.0,0.0,100,0.00,,,0.00,VWS V13.01,2013-02-23 14:22:00,
2013-02-23 08:23:00,17.4,17.4,29.74,South,191,0.0,0.0,100,0.00,,,0.00,VWS V13.01,2013-02-23 14:23:00,
2013-02-23 08:24:00,17.8,17.8,29.74,South,191,0.0,0.0,100,0.00,,,0.00,VWS V13.01,2013-02-23 14:24:00,
2013-02-23 08:25:00,18.5,18.5,29.74,South,191,0.0,0.0,100,0.00,,,0.00,VWS V13.01,2013-02-23 14:25:00,
2013-02-23 08:26:00,19.9,19.9,29.74,ENE,77,0.0,0.0,100,0.00,,,0.00,VWS V13.01,2013-02-23 14:26:00,
2013-02-23 08:27:00,19.6,19.6,29.71,East,82,0.0,0.0,100,0.00,,,0.00,VWS V13.01,2013-02-23 14:27:00,
2013-02-23 08:28:00,19.4,19.4,29.71,East,85,0.0,0.0,100,0.00,,,0.00,VWS V13.01,2013-02-23 14:28:00,
2013-02-23 08:29:00,18.9,18.9,29.71,East,85,0.0,0.0,100,0.00,,,0.00,VWS V13.01,2013-02-23 14:29:00,
2013-02-23 08:30:00,18.9,18.9,29.71,East,85,0.0,0.0,100,0.00,,,0.00,VWS V13.01,2013-02-23 14:30:00,
2013-02-23 08:31:00,19.4,19.4,29.71,East,85,0.0,0.0,100,0.00,,,0.00,VWS V13.01,2013-02-23 14:31:00,
2013-02-23 08:32:00,19.4,19.4,29.71,East,85,0.0,0.0,100,0.00,,,0.00,VWS V13.01,2013-02-23 14:32:00,
2013-02-23 08:33:00,19.2,19.2,29.71,East,85,0.0,0.0,100,0.00,,,0.00,VWS V13.01,2013-02-23 14:33:00,
2013-02-23 08:34:00,19.0,19.0,29.71,East,85,0.0,0.0,100,0.00,,,0.00,VWS V13.01,2013-02-23 14:34:00,
2013-02-23 08:35:00,19.0,19.0,29.71,East,85,0.0,0.0,100,0.00,,,0.00,VWS V13.01,2013-02-23 14:35:00,
2013-02-23 08:36:00,18.1,18.1,29.71,East,85,0.0,0.0,100,0.00,,,0.00,VWS V13.01,2013-02-23 14:36:00,
2013-02-23 08:37:00,17.6,17.6,29.71,East,85,0.0,0.0,100,0.00,,,0.00,VWS V13.01,2013-02-23 14:37:00,
2013-02-23 08:38:00,17.6,17.6,29.71,East,85,0.0,0.0,100,0.00,,,0.00,VWS V13.01,2013-02-23 14:38:00,
2013-02-23 08:39:00,16.9,16.9,29.71,East,85,0.0,0.0,100,0.00,,,0.00,VWS V13.01,2013-02-23 14:39:00,
2013-02-23 08:40:00,16.9,16.9,29.71,East,85,0.0,0.0,100,0.00,,,0.00,VWS V13.01,2013-02-23 14:40:00,
2013-02-23 08:41:00,17.1,17.1,29.71,East,85,0.0,0.0,100,0.00,,,0.00,VWS V13.01,2013-02-23 14:41:00,
2013-02-23 08:42:00,17.8,17.8,29.71,East,85,0.0,0.0,100,0.00,,,0.00,VWS V13.01,2013-02-23 14:42:00,
2013-02-23 08:43:00,16.9,16.9,29.71,East,84,0.0,0.0,100,0.00,,,0.00,VWS V13.01,2013-02-23 14:43:00,
2013-02-23 08:44:00,17.8,17.8,29.71,East,84,0.0,0.0,100,0.00,,,0.00,VWS V13.01,2013-02-23 14:44:00,
2013-02-23 08:45:00,18.0,17.2,29.71,East,84,0.0,0.0,97,0.00,,,0.00,VWS V13.01,2013-02-23 14:45:00,
2013-02-23 08:46:00,17.6,17.6,29.71,East,84,0.0,0.0,100,0.00,,,0.00,VWS V13.01,2013-02-23 14:46:00,
2013-02-23 08:47:00,18.0,17.2,29.71,East,84,0.0,0.0,97,0.00,,,0.00,VWS V13.01,2013-02-23 14:47:00,
2013-02-23 08:48:00,18.5,17.8,29.71,East,84,0.0,0.0,97,0.00,,,0.00,VWS V13.01,2013-02-23 14:48:00,
2013-02-23 08:49:00,18.1,17.4,29.71,NNW,342,0.0,0.0,97,0.00,,,0.00,VWS V13.01,2013-02-23 14:49:00,
2013-02-23 08:50:00,17.4,17.4,29.71,West,270,4.0,4.0,100,0.00,,,0.00,VWS V13.01,2013-02-23 14:50:00,
2013-02-23 08:51:00,16.7,16.7,29.71,West,275,5.4,5.4,100,0.00,,,0.00,VWS V13.01,2013-02-23 14:51:00,
2013-02-23 08:52:00,16.9,16.9,29.71,West,269,3.6,3.6,100,0.00,,,0.00,VWS V13.01,2013-02-23 14:52:00,
2013-02-23 08:53:00,17.1,17.1,29.71,West,269,4.0,4.0,100,0.00,,,0.00,VWS V13.01,2013-02-23 14:53:00,
2013-02-23 08:54:00,16.9,16.9,29.71,West,271,2.7,2.7,100,0.00,,,0.00,VWS V13.01,2013-02-23 14:54:00,
2013-02-23 08:55:00,17.2,17.2,29.71,West,271,3.1,3.1,100,0.00,,,0.00,VWS V13.01,2013-02-23 14:55:00,
2013-02-23 08:56:00,18.3,17.6,29.71,West,273,4.0,4.0,97,0.00,,,0.00,VWS V13.01,2013-02-23 14:56:00,
2013-02-23 08:57:00,16.9,16.9,29.74,West,275,2.7,2.7,100,0.00,,,0.00,VWS V13.01,2013-02-23 14:57:00,
2013-02-23 08:58:00,16.7,16.7,29.74,West,275,4.0,4.0,100,0.00,,,0.00,VWS V13.01,2013-02-23 14:58:00,
2013-02-23 08:59:00,16.5,16.5,29.74,West,276,4.9,4.9,100,0.00,,,0.00,VWS V13.01,2013-02-23 14:59:00,
2013-02-23 09:00:00,16.7,16.7,29.74,West,276,4.0,4.0,100,0.00,,,0.00,VWS V13.01,2013-02-23 15:00:00,
2013-02-23 09:01:00,16.5,16.5,29.74,West,279,3.1,3.1,100,0.00,,,0.00,VWS V13.01,2013-02-23 15:01:00,
2013-02-23 09:02:00,17.6,17.6,29.74,WNW,282,0.0,0.0,100,0.00,,,0.00,VWS V13.01,2013-02-23 15:02:00,
2013-02-23 09:03:00,17.6,17.6,29.74,WNW,282,0.0,0.0,100,0.00,,,0.00,VWS V13.01,2013-02-23 15:03:00,
2013-02-23 09:04:00,19.4,18.7,29.74,West,281,0.0,0.0,97,0.00,,,0.00,VWS V13.01,2013-02-23 15:04:00,
2013-02-23 09:05:00,21.0,20.3,29.74,West,281,0.0,0.0,97,0.00,,,0.00,VWS V13.01,2013-02-23 15:05:00,
2013-02-23 09:06:00,21.6,20.8,29.74,WNW,282,0.0,0.0,97,0.00,,,0.00,VWS V13.01,2013-02-23 15:06:00,
2013-02-23 09:07:00,21.9,21.2,29.74,WNW,282,0.0,0.0,97,0.00,,,0.00,VWS V13.01,2013-02-23 15:07:00,
2013-02-23 09:08:00,21.9,21.2,29.74,WNW,282,0.0,0.0,97,0.00,,,0.00,VWS V13.01,2013-02-23 15:08:00,
2013-02-23 09:09:00,21.7,21.0,29.74,West,281,0.0,0.0,97,0.00,,,0.00,VWS V13.01,2013-02-23 15:09:00,
2013-02-23 09:10:00,21.7,21.0,29.74,West,281,0.0,0.0,97,0.00,,,0.00,VWS V13.01,2013-02-23 15:10:00,
2013-02-23 09:11:00,21.9,21.2,29.74,West,281,0.0,0.0,97,0.00,,,0.00,VWS V13.01,2013-02-23 15:11:00,
2013-02-23 09:12:00,20.8,20.1,29.74,West,281,0.0,0.0,97,0.00,,,0.00,VWS V13.01,2013-02-23 15:12:00,
2013-02-23 09:13:00,21.2,20.5,29.74,West,281,0.0,0.0,97,0.00,,,0.00,VWS V13.01,2013-02-23 15:13:00,
2013-02-23 09:14:00,21.0,20.3,29.74,West,281,0.0,0.0,97,0.00,,,0.00,VWS V13.01,2013-02-23 15:14:00,
2013-02-23 09:15:00,21.0,20.3,29.74,West,281,0.0,0.0,97,0.00,,,0.00,VWS V13.01,2013-02-23 15:15:00,
2013-02-23 09:16:00,20.7,19.9,29.74,West,281,0.0,0.0,97,0.00,,,0.00,VWS V13.01,2013-02-23 15:16:00,
2013-02-23 09:17:00,20.7,19.9,29.74,West,281,0.0,0.0,97,0.00,,,0.00,VWS V13.01,2013-02-23 15:17:00,
2013-02-23 09:18:00,20.1,19.4,29.74,West,281,0.0,0.0,97,0.00,,,0.00,VWS V13.01,2013-02-23 15:18:00,
2013-02-23 09:19:00,20.5,19.8,29.74,West,281,0.0,0.0,97,0.00,,,0.00,VWS V13.01,2013-02-23 15:19:00,
2013-02-23 09:20:00,20.5,19.8,29.74,West,281,0.0,0.0,97,0.00,,,0.00,VWS V13.01,2013-02-23 15:20:00,
2013-02-23 09:21:00,21.2,20.5,29.74,West,281,0.0,0.0,97,0.00,,,0.00,VWS V13.01,2013-02-23 15:21:00,
2013-02-23 09:22:00,21.9,21.2,29.74,West,281,0.0,0.0,97,0.00,,,0.00,VWS V13.01,2013-02-23 15:22:00,
2013-02-23 09:23:00,21.9,21.2,29.74,West,281,0.0,0.0,97,0.00,,,0.00,VWS V13.01,2013-02-23 15:23:00,
2013-02-23 09:24:00,22.3,21.6,29.74,West,281,0.0,0.0,97,0.00,,,0.00,VWS V13.01,2013-02-23 15:24:00,
2013-02-23 09:25:00,22.3,21.6,29.74,West,281,0.0,0.0,97,0.00,,,0.00,VWS V13.01,2013-02-23 15:25:00,
2013-02-23 09:26:00,21.7,21.0,29.74,West,281,0.0,0.0,97,0.00,,,0.00,VWS V13.01,2013-02-23 15:26:00,
2013-02-23 09:27:00,23.2,21.0,29.74,West,281,0.0,0.0,91,0.00,,,0.00,VWS V13.01,2013-02-23 15:27:00,
2013-02-23 09:28:00,24.4,22.2,29.74,West,281,0.0,0.0,91,0.00,,,0.00,VWS V13.01,2013-02-23 15:28:00,
2013-02-23 09:29:00,25.3,23.1,29.74,West,281,0.0,0.0,91,0.00,,,0.00,VWS V13.01,2013-02-23 15:29:00,
2013-02-23 09:30:00,25.3,23.1,29.74,West,281,0.0,0.0,91,0.00,,,0.00,VWS V13.01,2013-02-23 15:30:00,
2013-02-23 09:31:00,25.0,22.7,29.74,West,281,0.0,0.0,91,0.00,,,0.00,VWS V13.01,2013-02-23 15:31:00,
2013-02-23 09:32:00,24.4,22.2,29.74,West,281,0.0,0.0,91,0.00,,,0.00,VWS V13.01,2013-02-23 15:32:00,
2013-02-23 09:33:00,22.8,22.1,29.74,West,281,0.0,0.0,97,0.00,,,0.00,VWS V13.01,2013-02-23 15:33:00,
2013-02-23 09:34:00,22.8,22.1,29.74,West,281,0.0,0.0,97,0.00,,,0.00,VWS V13.01,2013-02-23 15:34:00,
2013-02-23 09:35:00,21.6,20.8,29.74,West,281,0.0,0.0,97,0.00,,,0.00,VWS V13.01,2013-02-23 15:35:00,
2013-02-23 09:36:00,20.8,20.1,29.74,South,186,0.0,0.0,97,0.00,,,0.00,VWS V13.01,2013-02-23 15:36:00,
2013-02-23 09:37:00,19.6,18.9,29.74,South,187,0.0,0.0,97,0.00,,,0.00,VWS V13.01,2013-02-23 15:37:00,
2013-02-23 09:38:00,19.6,18.9,29.74,South,187,0.0,0.0,97,0.00,,,0.00,VWS V13.01,2013-02-23 15:38:00,
2013-02-23 09:39:00,19.6,18.9,29.74,South,176,0.0,0.0,97,0.00,,,0.00,VWS V13.01,2013-02-23 15:39:00,
2013-02-23 09:40:00,19.9,19.2,29.74,South,181,0.0,0.0,97,0.00,,,0.00,VWS V13.01,2013-02-23 15:40:00,
2013-02-23 09:41:00,20.1,19.4,29.74,South,183,0.0,0.0,97,0.00,,,0.00,VWS V13.01,2013-02-23 15:41:00,
2013-02-23 09:42:00,19.4,18.7,29.74,South,184,0.0,0.0,97,0.00,,,0.00,VWS V13.01,2013-02-23 15:42:00,
2013-02-23 09:43:00,19.4,18.7,29.74,South,184,0.0,0.0,97,0.00,,,0.00,VWS V13.01,2013-02-23 15:43:00,
2013-02-23 09:44:00,19.4,18.7,29.74,South,182,0.0,0.0,97,0.00,,,0.00,VWS V13.01,2013-02-23 15:44:00,
2013-02-23 09:45:00,19.8,19.0,29.74,South,183,0.0,0.0,97,0.00,,,0.00,VWS V13.01,2013-02-23 15:45:00,
2013-02-23 09:46:00,19.8,19.0,29.74,South,175,0.0,0.0,97,0.00,,,0.00,VWS V13.01,2013-02-23 15:46:00,
2013-02-23 09:47:00,19.4,18.7,29.74,South,178,0.0,0.0,97,0.00,,,0.00,VWS V13.01,2013-02-23 15:47:00,
2013-02-23 09:48:00,19.4,18.7,29.74,South,178,0.0,0.0,97,0.00,,,0.00,VWS V13.01,2013-02-23 15:48:00,
2013-02-23 09:49:00,19.4,18.7,29.74,South,180,0.0,0.0,97,0.00,,,0.00,VWS V13.01,2013-02-23 15:49:00,
2013-02-23 09:50:00,19.4,18.7,29.74,South,180,0.0,0.0,97,0.00,,,0.00,VWS V13.01,2013-02-23 15:50:00,
2013-02-23 09:51:00,19.8,19.0,29.74,South,179,0.0,0.0,97,0.00,,,0.00,VWS V13.01,2013-02-23 15:51:00,
2013-02-23 09:52:00,20.5,19.8,29.74,South,180,0.0,0.0,97,0.00,,,0.00,VWS V13.01,2013-02-23 15:52:00,
2013-02-23 09:53:00,20.7,19.9,29.74,South,180,0.0,0.0,97,0.00,,,0.00,VWS V13.01,2013-02-23 15:53:00,
2013-02-23 09:54:00,20.7,19.9,29.74,South,180,0.0,0.0,97,0.00,,,0.00,VWS V13.01,2013-02-23 15:54:00,
2013-02-23 09:55:00,20.1,19.4,29.74,South,180,0.0,0.0,97,0.00,,,0.00,VWS V13.01,2013-02-23 15:55:00,
2013-02-23 09:56:00,20.1,19.4,29.74,South,180,0.0,0.0,97,0.00,,,0.00,VWS V13.01,2013-02-23 15:56:00,
2013-02-23 09:57:00,20.5,19.8,29.74,South,180,0.0,0.0,97,0.00,,,0.00,VWS V13.01,2013-02-23 15:57:00,
2013-02-23 09:58:00,20.5,19.8,29.74,South,180,0.0,0.0,97,0.00,,,0.00,VWS V13.01,2013-02-23 15:58:00,
2013-02-23 09:59:00,20.5,19.8,29.74,South,180,0.0,0.0,97,0.00,,,0.00,VWS V13.01,2013-02-23 15:59:00,
2013-02-23 10:00:00,20.5,19.8,29.74,South,180,0.0,0.0,97,0.00,,,0.00,VWS V13.01,2013-02-23 16:00:00,
2013-02-23 10:01:00,20.5,19.8,29.74,South,180,0.0,0.0,97,0.00,,,0.00,VWS V13.01,2013-02-23 16:01:00,
2013-02-23 10:02:00,20.1,19.4,29.74,South,180,0.0,0.0,97,0.00,,,0.00,VWS V13.01,2013-02-23 16:02:00,
2013-02-23 10:03:00,20.1,19.4,29.74,South,180,0.0,0.0,97,0.00,,,0.00,VWS V13.01,2013-02-23 16:03:00,
2013-02-23 10:04:00,19.9,19.2,29.74,South,180,0.0,0.0,97,0.00,,,0.00,VWS V13.01,2013-02-23 16:04:00,
2013-02-23 10:05:00,19.8,19.0,29.74,South,180,0.0,0.0,97,0.00,,,0.00,VWS V13.01,2013-02-23 16:05:00,
2013-02-23 10:06:00,19.8,19.0,29.74,South,180,0.0,0.0,97,0.00,,,0.00,VWS V13.01,2013-02-23 16:06:00,
2013-02-23 10:07:00,21.0,20.3,29.74,South,180,0.0,0.0,97,0.00,,,0.00,VWS V13.01,2013-02-23 16:07:00,
2013-02-23 10:08:00,21.0,20.3,29.74,South,180,0.0,0.0,97,0.00,,,0.00,VWS V13.01,2013-02-23 16:08:00,
2013-02-23 10:09:00,21.9,21.2,29.74,South,180,0.0,0.0,97,0.00,,,0.00,VWS V13.01,2013-02-23 16:09:00,
2013-02-23 10:10:00,21.9,21.2,29.74,South,180,0.0,0.0,97,0.00,,,0.00,VWS V13.01,2013-02-23 16:10:00,
2013-02-23 10:11:00,21.7,21.0,29.74,South,180,0.0,0.0,97,0.00,,,0.00,VWS V13.01,2013-02-23 16:11:00,
2013-02-23 10:12:00,21.7,21.0,29.74,South,180,0.0,0.0,97,0.00,,,0.00,VWS V13.01,2013-02-23 16:12:00,
2013-02-23 10:13:00,21.7,21.0,29.74,South,180,0.0,0.0,97,0.00,,,0.00,VWS V13.01,2013-02-23 16:13:00,
2013-02-23 10:14:00,21.9,21.2,29.74,South,180,0.0,0.0,97,0.00,,,0.00,VWS V13.01,2013-02-23 16:14:00,
2013-02-23 10:15:00,21.9,21.2,29.74,South,180,0.0,0.0,97,0.00,,,0.00,VWS V13.01,2013-02-23 16:15:00,
2013-02-23 10:16:00,22.3,21.6,29.74,South,180,0.0,0.0,97,0.00,,,0.00,VWS V13.01,2013-02-23 16:16:00,
2013-02-23 10:17:00,23.0,22.3,29.74,South,180,0.0,0.0,97,0.00,,,0.00,VWS V13.01,2013-02-23 16:17:00,
2013-02-23 10:18:00,23.0,22.3,29.74,South,180,0.0,0.0,97,0.00,,,0.00,VWS V13.01,2013-02-23 16:18:00,
2013-02-23 10:19:00,24.1,21.8,29.74,South,180,0.0,0.0,91,0.00,,,0.00,VWS V13.01,2013-02-23 16:19:00,
2013-02-23 10:20:00,24.3,22.0,29.74,South,180,0.0,0.0,91,0.00,,,0.00,VWS V13.01,2013-02-23 16:20:00,
2013-02-23 10:21:00,24.4,22.2,29.74,South,180,0.0,0.0,91,0.00,,,0.00,VWS V13.01,2013-02-23 16:21:00,
2013-02-23 10:22:00,24.3,22.0,29.74,South,180,0.0,0.0,91,0.00,,,0.00,VWS V13.01,2013-02-23 16:22:00,
2013-02-23 10:23:00,23.9,21.7,29.74,South,180,0.0,0.0,91,0.00,,,0.00,VWS V13.01,2013-02-23 16:23:00,
2013-02-23 10:24:00,23.5,21.3,29.74,South,180,0.0,0.0,91,0.00,,,0.00,VWS V13.01,2013-02-23 16:24:00,
2013-02-23 10:25:00,22.6,21.9,29.74,South,179,0.0,0.0,97,0.00,,,0.00,VWS V13.01,2013-02-23 16:25:00,
2013-02-23 10:26:00,22.3,21.6,29.74,South,178,0.0,0.0,97,0.00,,,0.00,VWS V13.01,2013-02-23 16:26:00,
2013-02-23 10:27:00,21.7,21.0,29.74,South,178,0.0,0.0,97,0.00,,,0.00,VWS V13.01,2013-02-23 16:27:00,
2013-02-23 10:28:00,21.2,20.5,29.74,South,178,0.0,0.0,97,0.00,,,0.00,VWS V13.01,2013-02-23 16:28:00,
2013-02-23 10:29:00,21.2,20.5,29.74,South,178,0.0,0.0,97,0.00,,,0.00,VWS V13.01,2013-02-23 16:29:00,
2013-02-23 10:30:00,21.6,20.8,29.74,South,178,0.0,0.0,97,0.00,,,0.00,VWS V13.01,2013-02-23 16:30:00,
2013-02-23 10:31:00,21.7,21.0,29.74,South,178,0.0,0.0,97,0.00,,,0.00,VWS V13.01,2013-02-23 16:31:00,
2013-02-23 10:32:00,21.7,21.0,29.74,South,177,0.0,0.0,97,0.00,,,0.00,VWS V13.01,2013-02-23 16:32:00,
2013-02-23 10:33:00,21.7,21.0,29.74,South,175,0.0,0.0,97,0.00,,,0.00,VWS V13.01,2013-02-23 16:33:00,
2013-02-23 10:34:00,22.1,21.4,29.74,South,175,4.0,4.0,97,0.00,,,0.00,VWS V13.01,2013-02-23 16:34:00,
2013-02-23 10:35:00,22.5,21.7,29.74,South,175,3.6,3.6,97,0.00,,,0.00,VWS V13.01,2013-02-23 16:35:00,
2013-02-23 10:36:00,22.6,21.9,29.74,South,177,4.9,4.9,97,0.00,,,0.00,VWS V13.01,2013-02-23 16:36:00,
2013-02-23 10:37:00,22.5,21.7,29.74,South,177,4.0,4.0,97,0.00,,,0.00,VWS V13.01,2013-02-23 16:37:00,
2013-02-23 10:38:00,22.3,21.6,29.74,South,177,3.6,3.6,97,0.00,,,0.00,VWS V13.01,2013-02-23 16:38:00,
2013-02-23 10:39:00,21.7,21.0,29.74,South,180,3.1,3.1,97,0.00,,,0.00,VWS V13.01,2013-02-23 16:39:00,
2013-02-23 10:40:00,21.6,20.8,29.74,South,174,3.6,3.6,97,0.00,,,0.00,VWS V13.01,2013-02-23 16:40:00,
2013-02-23 10:41:00,21.6,20.8,29.74,South,176,4.0,4.0,97,0.00,,,0.00,VWS V13.01,2013-02-23 16:41:00,
2013-02-23 10:42:00,21.6,20.8,29.74,South,184,3.6,3.6,97,0.00,,,0.00,VWS V13.01,2013-02-23 16:42:00,
2013-02-23 10:43:00,21.7,21.0,29.74,South,184,5.4,5.4,97,0.00,,,0.00,VWS V13.01,2013-02-23 16:43:00,
2013-02-23 10:44:00,21.7,21.0,29.74,South,174,4.0,4.0,97,0.00,,,0.00,VWS V13.01,2013-02-23 16:44:00,
2013-02-23 10:45:00,21.9,21.2,29.74,South,172,3.6,3.6,97,0.00,,,0.00,VWS V13.01,2013-02-23 16:45:00,
2013-02-23 10:46:00,22.1,21.4,29.74,South,183,4.9,4.9,97,0.00,,,0.00,VWS V13.01,2013-02-23 16:46:00,
2013-02-23 10:47:00,22.5,21.7,29.74,SSE,166,3.6,3.6,97,0.00,,,0.00,VWS V13.01,2013-02-23 16:47:00,
2013-02-23 10:48:00,22.8,22.1,29.74,South,180,4.0,4.0,97,0.00,,,0.00,VWS V13.01,2013-02-23 16:48:00,
2013-02-23 10:49:00,23.7,21.5,29.74,South,180,4.0,4.0,91,0.00,,,0.00,VWS V13.01,2013-02-23 16:49:00,
2013-02-23 10:50:00,23.5,21.3,29.74,South,173,5.4,5.4,91,0.00,,,0.00,VWS V13.01,2013-02-23 16:50:00,
2013-02-23 10:51:00,23.5,21.3,29.74,South,185,4.0,4.0,91,0.00,,,0.00,VWS V13.01,2013-02-23 16:51:00,
2013-02-23 10:52:00,23.7,21.5,29.74,South,184,4.9,4.9,91,0.00,,,0.00,VWS V13.01,2013-02-23 16:52:00,
2013-02-23 10:53:00,24.3,22.0,29.74,South,183,4.9,4.9,91,0.00,,,0.00,VWS V13.01,2013-02-23 16:53:00,
2013-02-23 10:54:00,23.9,21.7,29.74,South,184,3.6,3.6,91,0.00,,,0.00,VWS V13.01,2013-02-23 16:54:00,
2013-02-23 10:55:00,23.4,21.1,29.74,South,179,4.0,4.0,91,0.00,,,0.00,VWS V13.01,2013-02-23 16:55:00,
2013-02-23 10:56:00,23.0,22.3,29.74,South,179,4.0,4.0,97,0.00,,,0.00,VWS V13.01,2013-02-23 16:56:00,
2013-02-23 10:57:00,23.2,21.0,29.74,South,175,4.0,4.0,91,0.00,,,0.00,VWS V13.01,2013-02-23 16:57:00,
2013-02-23 10:58:00,23.4,21.1,29.74,South,174,4.5,4.5,91,0.00,,,0.00,VWS V13.01,2013-02-23 16:58:00,
2013-02-23 10:59:00,24.1,21.8,29.74,South,182,3.6,3.6,91,0.00,,,0.00,VWS V13.01,2013-02-23 16:59:00,
2013-02-23 11:00:00,24.4,22.2,29.74,South,182,4.0,4.0,91,0.00,,,0.00,VWS V13.01,2013-02-23 17:00:00,
2013-02-23 11:01:00,25.0,22.7,29.74,South,180,4.0,4.0,91,0.00,,,0.00,VWS V13.01,2013-02-23 17:01:00,
2013-02-23 11:02:00,25.7,23.4,29.74,South,180,3.1,3.1,91,0.00,,,0.00,VWS V13.01,2013-02-23 17:02:00,
2013-02-23 11:03:00,26.2,24.0,29.74,South,179,4.0,4.0,91,0.00,,,0.00,VWS V13.01,2013-02-23 17:03:00,
2013-02-23 11:04:00,26.8,22.9,29.74,South,179,3.6,3.6,85,0.00,,,0.00,VWS V13.01,2013-02-23 17:04:00,
2013-02-23 11:05:00,26.6,24.3,29.74,South,179,4.0,4.0,91,0.00,,,0.00,VWS V13.01,2013-02-23 17:05:00,
2013-02-23 11:06:00,26.6,24.3,29.74,South,179,4.9,4.9,91,0.00,,,0.00,VWS V13.01,2013-02-23 17:06:00,
2013-02-23 11:07:00,27.0,23.1,29.74,South,178,4.0,4.0,85,0.00,,,0.00,VWS V13.01,2013-02-23 17:07:00,
2013-02-23 11:08:00,26.4,24.1,29.74,South,187,6.3,6.3,91,0.00,,,0.00,VWS V13.01,2013-02-23 17:08:00,
2013-02-23 11:09:00,26.6,24.3,29.74,South,187,3.6,3.6,91,0.00,,,0.00,VWS V13.01,2013-02-23 17:09:00,
2013-02-23 11:10:00,27.0,23.1,29.74,South,187,3.6,3.6,85,0.00,,,0.00,VWS V13.01,2013-02-23 17:10:00,
2013-02-23 11:11:00,27.0,23.1,29.74,South,187,3.6,3.6,85,0.00,,,0.00,VWS V13.01,2013-02-23 17:11:00,
2013-02-23 11:12:00,27.0,23.1,29.74,South,185,3.6,3.6,85,0.00,,,0.00,VWS V13.01,2013-02-23 17:12:00,
2013-02-23 11:13:00,26.4,24.1,29.74,South,186,4.0,4.0,91,0.00,,,0.00,VWS V13.01,2013-02-23 17:13:00,
2013-02-23 11:14:00,27.1,23.2,29.74,South,185,3.1,3.1,85,0.00,,,0.00,VWS V13.01,2013-02-23 17:14:00,
2013-02-23 11:15:00,26.8,22.9,29.74,South,185,4.5,4.5,85,0.00,,,0.00,VWS V13.01,2013-02-23 17:15:00,
2013-02-23 11:16:00,26.8,22.9,29.74,South,185,3.1,3.1,85,0.00,,,0.00,VWS V13.01,2013-02-23 17:16:00,
2013-02-23 11:17:00,26.4,24.1,29.74,SSE,168,4.0,4.0,91,0.00,,,0.00,VWS V13.01,2013-02-23 17:17:00,
2013-02-23 11:18:00,26.8,22.9,29.74,South,169,5.8,5.8,85,0.00,,,0.00,VWS V13.01,2013-02-23 17:18:00,
2013-02-23 11:19:00,27.5,23.6,29.74,South,171,3.6,3.6,85,0.00,,,0.00,VWS V13.01,2013-02-23 17:19:00,
2013-02-23 11:20:00,27.5,23.6,29.74,South,171,2.7,2.7,85,0.00,,,0.00,VWS V13.01,2013-02-23 17:20:00,
2013-02-23 11:21:00,27.5,23.6,29.74,South,171,4.0,4.0,85,0.00,,,0.00,VWS V13.01,2013-02-23 17:21:00,
2013-02-23 11:22:00,27.1,23.2,29.74,South,171,3.6,3.6,85,0.00,,,0.00,VWS V13.01,2013-02-23 17:22:00,
2013-02-23 11:23:00,27.5,23.6,29.74,South,172,4.0,4.0,85,0.00,,,0.00,VWS V13.01,2013-02-23 17:23:00,
2013-02-23 11:24:00,27.5,23.6,29.74,South,181,5.4,5.4,85,0.00,,,0.00,VWS V13.01,2013-02-23 17:24:00,
2013-02-23 11:25:00,27.3,23.4,29.74,South,180,3.6,3.6,85,0.00,,,0.00,VWS V13.01,2013-02-23 17:25:00,
2013-02-23 11:26:00,27.0,23.1,29.74,SSE,164,4.9,4.9,85,0.00,,,0.00,VWS V13.01,2013-02-23 17:26:00,
2013-02-23 11:27:00,26.8,22.9,29.74,SSE,164,4.5,4.5,85,0.00,,,0.00,VWS V13.01,2013-02-23 17:27:00,
2013-02-23 11:28:00,27.1,23.2,29.74,South,177,5.8,5.8,85,0.00,,,0.00,VWS V13.01,2013-02-23 17:28:00,
2013-02-23 11:29:00,27.1,23.2,29.74,South,177,3.6,3.6,85,0.00,,,0.00,VWS V13.01,2013-02-23 17:29:00,
2013-02-23 11:30:00,27.5,23.6,29.74,South,186,4.9,4.9,85,0.00,,,0.00,VWS V13.01,2013-02-23 17:30:00,
2013-02-23 11:31:00,28.4,24.5,29.74,South,186,4.9,4.9,85,0.00,,,0.00,VWS V13.01,2013-02-23 17:31:00,
2013-02-23 11:32:00,28.6,24.6,29.74,South,169,3.6,3.6,85,0.00,,,0.00,VWS V13.01,2013-02-23 17:32:00,
2013-02-23 11:33:00,28.6,24.6,29.74,South,177,4.5,4.5,85,0.00,,,0.00,VWS V13.01,2013-02-23 17:33:00,
2013-02-23 11:34:00,28.4,24.5,29.74,South,178,5.8,5.8,85,0.00,,,0.00,VWS V13.01,2013-02-23 17:34:00,
2013-02-23 11:35:00,28.0,24.1,29.74,South,182,4.9,4.9,85,0.00,,,0.00,VWS V13.01,2013-02-23 17:35:00,
2013-02-23 11:36:00,28.4,24.5,29.74,South,182,4.0,4.0,85,0.00,,,0.00,VWS V13.01,2013-02-23 17:36:00,
2013-02-23 11:37:00,28.2,24.3,29.74,South,182,3.6,3.6,85,0.00,,,0.00,VWS V13.01,2013-02-23 17:37:00,
2013-02-23 11:38:00,28.8,24.8,29.74,South,185,4.9,4.9,85,0.00,,,0.00,VWS V13.01,2013-02-23 17:38:00,
2013-02-23 11:39:00,28.6,24.6,29.74,South,177,4.0,4.0,85,0.00,,,0.00,VWS V13.01,2013-02-23 17:39:00,
2013-02-23 11:40:00,28.4,24.5,29.74,SSE,166,4.0,4.0,85,0.00,,,0.00,VWS V13.01,2013-02-23 17:40:00,
2013-02-23 11:41:00,27.9,23.9,29.74,South,170,4.9,4.9,85,0.00,,,0.00,VWS V13.01,2013-02-23 17:41:00,
2013-02-23 11:42:00,28.0,24.1,29.74,South,169,4.0,4.0,85,0.00,,,0.00,VWS V13.01,2013-02-23 17:42:00,
2013-02-23 11:43:00,27.9,24.0,29.74,South,179,3.6,3.6,85,0.00,,,0.00,VWS V13.01,2013-02-23 17:43:00,
2013-02-23 11:44:00,27.7,23.8,29.74,South,172,4.0,4.0,85,0.00,,,0.00,VWS V13.01,2013-02-23 17:44:00,
2013-02-23 11:45:00,27.7,23.8,29.74,South,179,4.9,4.9,85,0.00,,,0.00,VWS V13.01,2013-02-23 17:45:00,
2013-02-23 11:46:00,27.5,23.6,29.74,South,181,4.9,4.9,85,0.00,,,0.00,VWS V13.01,2013-02-23 17:46:00,
2013-02-23 11:47:00,27.3,23.4,29.74,South,178,4.0,4.0,85,0.00,,,0.00,VWS V13.01,2013-02-23 17:47:00,
2013-02-23 11:48:00,27.3,23.4,29.74,South,175,6.3,6.3,85,0.00,,,0.00,VWS V13.01,2013-02-23 17:48:00,
2013-02-23 11:49:00,27.1,23.2,29.74,South,172,5.4,5.4,85,0.00,,,0.00,VWS V13.01,2013-02-23 17:49:00,
2013-02-23 11:50:00,27.1,23.2,29.74,South,186,6.3,6.3,85,0.00,,,0.00,VWS V13.01,2013-02-23 17:50:00,
2013-02-23 11:51:00,27.1,23.2,29.74,South,184,5.8,5.8,85,0.00,,,0.00,VWS V13.01,2013-02-23 17:51:00,
2013-02-23 11:52:00,27.0,23.1,29.74,South,183,5.4,5.4,85,0.00,,,0.00,VWS V13.01,2013-02-23 17:52:00,
2013-02-23 11:53:00,27.1,23.2,29.74,South,179,5.4,5.4,85,0.00,,,0.00,VWS V13.01,2013-02-23 17:53:00,
2013-02-23 11:54:00,27.7,23.8,29.74,South,183,4.9,4.9,85,0.00,,,0.00,VWS V13.01,2013-02-23 17:54:00,
2013-02-23 11:55:00,28.0,24.1,29.74,SSW,193,3.1,3.1,85,0.00,,,0.00,VWS V13.01,2013-02-23 17:55:00,
2013-02-23 11:56:00,28.2,24.3,29.74,South,187,5.4,5.4,85,0.00,,,0.00,VWS V13.01,2013-02-23 17:56:00,
2013-02-23 11:57:00,28.4,24.5,29.74,SSE,168,3.1,3.1,85,0.00,,,0.00,VWS V13.01,2013-02-23 17:57:00,
2013-02-23 11:58:00,28.2,24.3,29.74,South,178,5.8,5.8,85,0.00,,,0.00,VWS V13.01,2013-02-23 17:58:00,
2013-02-23 11:59:00,28.2,24.3,29.74,South,177,4.9,4.9,85,0.00,,,0.00,VWS V13.01,2013-02-23 17:59:00,
2013-02-23 12:00:00,28.6,24.6,29.74,South,183,3.6,3.6,85,0.00,,,0.00,VWS V13.01,2013-02-23 18:00:00,
2013-02-23 12:01:00,28.9,25.0,29.74,South,176,4.0,4.0,85,0.00,,,0.00,VWS V13.01,2013-02-23 18:01:00,
2013-02-23 12:02:00,29.1,25.2,29.74,South,175,4.0,4.0,85,0.00,,,0.00,VWS V13.01,2013-02-23 18:02:00,
2013-02-23 12:03:00,29.5,25.5,29.74,South,176,4.9,4.9,85,0.00,,,0.00,VWS V13.01,2013-02-23 18:03:00,
2013-02-23 12:04:00,29.5,25.5,29.74,South,172,5.4,5.4,85,0.00,,,0.00,VWS V13.01,2013-02-23 18:04:00,
2013-02-23 12:05:00,29.5,25.5,29.74,South,191,6.3,6.3,85,0.00,,,0.00,VWS V13.01,2013-02-23 18:05:00,
2013-02-23 12:06:00,28.9,25.0,29.74,South,177,5.4,5.4,85,0.00,,,0.00,VWS V13.01,2013-02-23 18:06:00,
2013-02-23 12:07:00,28.6,24.6,29.74,South,186,6.3,6.3,85,0.00,,,0.00,VWS V13.01,2013-02-23 18:07:00,
2013-02-23 12:08:00,28.6,24.6,29.74,South,181,5.4,5.4,85,0.00,,,0.00,VWS V13.01,2013-02-23 18:08:00,
2013-02-23 12:09:00,28.8,24.8,29.74,South,175,6.3,6.3,85,0.00,,,0.00,VWS V13.01,2013-02-23 18:09:00,
2013-02-23 12:10:00,28.8,24.8,29.74,South,177,5.4,5.4,85,0.00,,,0.00,VWS V13.01,2013-02-23 18:10:00,
2013-02-23 12:11:00,28.8,24.8,29.74,South,177,5.8,5.8,85,0.00,,,0.00,VWS V13.01,2013-02-23 18:11:00,
2013-02-23 12:12:00,29.1,25.2,29.74,South,174,4.0,4.0,85,0.00,,,0.00,VWS V13.01,2013-02-23 18:12:00,
2013-02-23 12:13:00,29.3,25.4,29.74,South,171,6.3,6.3,85,0.00,,,0.00,VWS V13.01,2013-02-23 18:13:00,
2013-02-23 12:14:00,29.7,25.7,29.74,South,191,5.4,5.4,85,0.00,,,0.00,VWS V13.01,2013-02-23 18:14:00,
2013-02-23 12:15:00,29.5,25.5,29.74,South,181,5.4,5.4,85,0.00,,,0.00,VWS V13.01,2013-02-23 18:15:00,
2013-02-23 12:16:00,29.7,25.7,29.74,South,186,5.4,5.4,85,0.00,,,0.00,VWS V13.01,2013-02-23 18:16:00,
2013-02-23 12:17:00,29.5,25.5,29.74,South,183,5.4,5.4,85,0.00,,,0.00,VWS V13.01,2013-02-23 18:17:00,
2013-02-23 12:18:00,29.3,25.4,29.74,South,182,5.8,5.8,85,0.00,,,0.00,VWS V13.01,2013-02-23 18:18:00,
2013-02-23 12:19:00,29.7,25.7,29.74,SSE,167,4.0,4.0,85,0.00,,,0.00,VWS V13.01,2013-02-23 18:19:00,
2013-02-23 12:20:00,29.5,25.5,29.74,South,181,5.8,5.8,85,0.00,,,0.00,VWS V13.01,2013-02-23 18:20:00,
2013-02-23 12:21:00,29.5,25.5,29.74,South,185,6.3,6.3,85,0.00,,,0.00,VWS V13.01,2013-02-23 18:21:00,
2013-02-23 12:22:00,29.1,25.2,29.74,South,183,5.4,5.4,85,0.00,,,0.00,VWS V13.01,2013-02-23 18:22:00,
2013-02-23 12:23:00,28.9,25.0,29.74,SSE,154,5.4,5.4,85,0.00,,,0.00,VWS V13.01,2013-02-23 18:23:00,
2013-02-23 12:24:00,29.3,25.4,29.74,South,183,5.8,5.8,85,0.00,,,0.00,VWS V13.01,2013-02-23 18:24:00,
2013-02-23 12:25:00,29.7,25.7,29.74,South,189,5.4,5.4,85,0.00,,,0.00,VWS V13.01,2013-02-23 18:25:00,
2013-02-23 12:26:00,29.7,25.7,29.74,South,189,5.8,5.8,85,0.00,,,0.00,VWS V13.01,2013-02-23 18:26:00,
2013-02-23 12:27:00,29.3,25.4,29.74,South,187,6.3,6.3,85,0.00,,,0.00,VWS V13.01,2013-02-23 18:27:00,
2013-02-23 12:28:00,29.3,25.4,29.71,South,187,5.4,5.4,85,0.00,,,0.00,VWS V13.01,2013-02-23 18:28:00,
2013-02-23 12:29:00,29.1,25.2,29.71,South,177,7.6,7.6,85,0.00,,,0.00,VWS V13.01,2013-02-23 18:29:00,
2013-02-23 12:30:00,28.8,24.8,29.71,SSE,168,7.6,7.6,85,0.00,,,0.00,VWS V13.01,2013-02-23 18:30:00,
2013-02-23 12:31:00,28.8,24.8,29.71,SSW,195,5.8,5.8,85,0.00,,,0.00,VWS V13.01,2013-02-23 18:31:00,
2013-02-23 12:32:00,29.5,25.5,29.71,SSW,192,6.3,6.3,85,0.00,,,0.00,VWS V13.01,2013-02-23 18:32:00,
2013-02-23 12:33:00,29.5,25.5,29.71,SSE,164,8.1,8.1,85,0.00,,,0.00,VWS V13.01,2013-02-23 18:33:00,
2013-02-23 12:34:00,28.9,25.0,29.71,SSE,164,7.2,7.2,85,0.00,,,0.00,VWS V13.01,2013-02-23 18:34:00,
2013-02-23 12:35:00,29.1,25.2,29.71,South,181,5.4,5.4,85,0.00,,,0.00,VWS V13.01,2013-02-23 18:35:00,
2013-02-23 12:36:00,28.9,25.0,29.71,South,183,6.3,6.3,85,0.00,,,0.00,VWS V13.01,2013-02-23 18:36:00,
2013-02-23 12:37:00,30.0,26.1,29.71,South,190,6.3,6.3,85,0.00,,,0.00,VWS V13.01,2013-02-23 18:37:00,
2013-02-23 12:38:00,30.0,26.1,29.71,South,179,7.6,7.6,85,0.00,,,0.00,VWS V13.01,2013-02-23 18:38:00,
2013-02-23 12:39:00,29.1,25.2,29.71,South,173,6.3,6.3,85,0.00,,,0.00,VWS V13.01,2013-02-23 18:39:00,
2013-02-23 12:40:00,28.9,25.0,29.71,South,171,6.7,6.7,85,0.00,,,0.00,VWS V13.01,2013-02-23 18:40:00,
2013-02-23 12:41:00,29.5,25.5,29.71,South,185,6.3,6.3,85,0.00,,,0.00,VWS V13.01,2013-02-23 18:41:00,
2013-02-23 12:42:00,28.9,25.0,29.71,South,171,6.7,6.7,85,0.00,,,0.00,VWS V13.01,2013-02-23 18:42:00,
2013-02-23 12:43:00,29.8,25.9,29.74,South,172,5.4,5.4,85,0.00,,,0.00,VWS V13.01,2013-02-23 18:43:00,
2013-02-23 12:44:00,30.2,26.2,29.74,South,184,5.8,5.8,85,0.00,,,0.00,VWS V13.01,2013-02-23 18:44:00,
2013-02-23 12:45:00,29.7,25.7,29.74,South,181,7.6,7.6,85,0.00,,,0.00,VWS V13.01,2013-02-23 18:45:00,
2013-02-23 12:46:00,30.0,26.1,29.74,South,176,5.8,5.8,85,0.00,,,0.00,VWS V13.01,2013-02-23 18:46:00,
2013-02-23 12:47:00,30.0,26.1,29.74,South,178,5.4,5.4,85,0.00,,,0.00,VWS V13.01,2013-02-23 18:47:00,
2013-02-23 12:48:00,30.6,26.6,29.74,SSW,194,5.8,5.8,85,0.00,,,0.00,VWS V13.01,2013-02-23 18:48:00,
2013-02-23 12:49:00,31.1,27.1,29.74,SSW,194,4.9,4.9,85,0.00,,,0.00,VWS V13.01,2013-02-23 18:49:00,
2013-02-23 12:50:00,30.7,26.8,29.74,South,180,4.9,4.9,85,0.00,,,0.00,VWS V13.01,2013-02-23 18:50:00,
2013-02-23 12:51:00,30.6,26.6,29.74,South,179,6.3,6.3,85,0.00,,,0.00,VWS V13.01,2013-02-23 18:51:00,
2013-02-23 12:52:00,30.6,26.6,29.74,South,179,6.3,6.3,85,0.00,,,0.00,VWS V13.01,2013-02-23 18:52:00,
2013-02-23 12:53:00,30.2,26.2,29.74,SSE,167,7.2,7.2,85,0.00,,,0.00,VWS V13.01,2013-02-23 18:53:00,
2013-02-23 12:54:00,30.7,26.8,29.74,South,181,6.3,6.3,85,0.00,,,0.00,VWS V13.01,2013-02-23 18:54:00,
2013-02-23 12:55:00,30.2,26.2,29.74,SSW,194,5.8,5.8,85,0.00,,,0.00,VWS V13.01,2013-02-23 18:55:00,
2013-02-23 12:56:00,30.0,26.1,29.74,South,182,7.6,7.6,85,0.00,,,0.00,VWS V13.01,2013-02-23 18:56:00,
2013-02-23 12:57:00,29.7,25.7,29.74,South,186,5.4,5.4,85,0.00,,,0.00,VWS V13.01,2013-02-23 18:57:00,
2013-02-23 12:58:00,29.8,25.9,29.74,South,186,6.3,6.3,85,0.00,,,0.00,VWS V13.01,2013-02-23 18:58:00,
2013-02-23 12:59:00,30.2,26.2,29.74,South,183,5.4,5.4,85,0.00,,,0.00,VWS V13.01,2013-02-23 18:59:00,
2013-02-23 13:00:00,30.4,26.4,29.74,South,186,4.9,4.9,85,0.00,,,0.00,VWS V13.01,2013-02-23 19:00:00,
2013-02-23 13:01:00,30.2,26.2,29.74,South,184,6.3,6.3,85,0.00,,,0.00,VWS V13.01,2013-02-23 19:01:00,
2013-02-23 13:02:00,30.4,26.4,29.74,South,184,6.3,6.3,85,0.00,,,0.00,VWS V13.01,2013-02-23 19:02:00,
2013-02-23 13:03:00,31.1,27.1,29.74,South,187,5.4,5.4,85,0.00,,,0.00,VWS V13.01,2013-02-23 19:03:00,
2013-02-23 13:04:00,31.3,27.3,29.74,South,187,5.4,5.4,85,0.00,,,0.00,VWS V13.01,2013-02-23 19:04:00,
2013-02-23 13:05:00,31.3,27.3,29.74,SSW,192,5.8,5.8,85,0.00,,,0.00,VWS V13.01,2013-02-23 19:05:00,
2013-02-23 13:06:00,31.1,27.1,29.74,SSW,192,4.9,4.9,85,0.00,,,0.00,VWS V13.01,2013-02-23 19:06:00,
2013-02-23 13:07:00,31.8,27.8,29.74,SSW,192,3.6,3.6,85,0.00,,,0.00,VWS V13.01,2013-02-23 19:07:00,
2013-02-23 13:08:00,32.4,28.4,29.74,SSW,192,5.8,5.8,85,0.00,,,0.00,VWS V13.01,2013-02-23 19:08:00,
2013-02-23 13:09:00,31.8,27.8,29.74,SSW,192,6.3,6.3,85,0.00,,,0.00,VWS V13.01,2013-02-23 19:09:00,
2013-02-23 13:10:00,31.8,27.8,29.74,South,191,4.9,4.9,85,0.00,,,0.00,VWS V13.01,2013-02-23 19:10:00,
2013-02-23 13:11:00,31.3,27.3,29.74,South,188,5.4,5.4,85,0.00,,,0.00,VWS V13.01,2013-02-23 19:11:00,
2013-02-23 13:12:00,31.3,27.3,29.74,South,188,5.4,5.4,85,0.00,,,0.00,VWS V13.01,2013-02-23 19:12:00,
2013-02-23 13:13:00,31.5,27.5,29.71,South,188,4.9,4.9,85,0.00,,,0.00,VWS V13.01,2013-02-23 19:13:00,
2013-02-23 13:14:00,32.2,28.2,29.71,South,188,4.0,4.0,85,0.00,,,0.00,VWS V13.01,2013-02-23 19:14:00,
2013-02-23 13:15:00,32.5,28.5,29.71,South,190,5.4,5.4,85,0.00,,,0.00,VWS V13.01,2013-02-23 19:15:00,
2013-02-23 13:16:00,32.4,28.4,29.71,SSW,199,3.6,3.6,85,0.00,,,0.00,VWS V13.01,2013-02-23 19:16:00,
2013-02-23 13:17:00,32.0,28.0,29.71,SSW,194,6.3,6.3,85,0.00,,,0.00,VWS V13.01,2013-02-23 19:17:00,
2013-02-23 13:18:00,32.0,28.0,29.71,SSW,201,4.0,4.0,85,0.00,,,0.00,VWS V13.01,2013-02-23 19:18:00,
2013-02-23 13:19:00,31.8,27.8,29.71,SSW,201,5.8,5.8,85,0.00,,,0.00,VWS V13.01,2013-02-23 19:19:00,
2013-02-23 13:20:00,32.0,28.0,29.71,SSW,200,3.6,3.6,85,0.00,,,0.00,VWS V13.01,2013-02-23 19:20:00,
2013-02-23 13:21:00,32.7,28.7,29.71,South,184,5.8,5.8,85,0.00,,,0.00,VWS V13.01,2013-02-23 19:21:00,
2013-02-23 13:22:00,32.4,28.4,29.71,SSW,197,5.8,5.8,85,0.00,,,0.00,VWS V13.01,2013-02-23 19:22:00,
2013-02-23 13:23:00,32.5,28.5,29.71,SW,217,2.7,2.7,85,0.00,,,0.00,VWS V13.01,2013-02-23 19:23:00,
2013-02-23 13:24:00,32.9,28.9,29.71,SSW,192,3.6,3.6,85,0.00,,,0.00,VWS V13.01,2013-02-23 19:24:00,
2013-02-23 13:25:00,32.7,28.7,29.71,South,187,4.9,4.9,85,0.00,,,0.00,VWS V13.01,2013-02-23 19:25:00,
2013-02-23 13:26:00,32.7,28.7,29.71,South,182,4.0,4.0,85,0.00,,,0.00,VWS V13.01,2013-02-23 19:26:00,
2013-02-23 13:27:00,32.4,28.4,29.71,South,180,5.8,5.8,85,0.00,,,0.00,VWS V13.01,2013-02-23 19:27:00,
2013-02-23 13:28:00,31.6,27.7,29.71,South,182,6.3,6.3,85,0.00,,,0.00,VWS V13.01,2013-02-23 19:28:00,
2013-02-23 13:29:00,31.3,27.3,29.71,South,190,5.8,5.8,85,0.00,,,0.00,VWS V13.01,2013-02-23 19:29:00,
2013-02-23 13:30:00,30.9,27.0,29.71,South,187,5.8,5.8,85,0.00,,,0.00,VWS V13.01,2013-02-23 19:30:00,
2013-02-23 13:31:00,31.1,27.1,29.71,South,191,4.0,4.0,85,0.00,,,0.00,VWS V13.01,2013-02-23 19:31:00,
2013-02-23 13:32:00,30.6,26.6,29.71,South,188,5.4,5.4,85,0.00,,,0.00,VWS V13.01,2013-02-23 19:32:00,
2013-02-23 13:33:00,30.0,26.1,29.71,South,183,5.8,5.8,85,0.00,,,0.00,VWS V13.01,2013-02-23 19:33:00,
2013-02-23 13:34:00,30.2,26.2,29.71,South,183,6.3,6.3,85,0.00,,,0.00,VWS V13.01,2013-02-23 19:34:00,
2013-02-23 13:35:00,29.8,25.9,29.71,South,185,5.4,5.4,85,0.00,,,0.00,VWS V13.01,2013-02-23 19:35:00,
2013-02-23 13:36:00,29.5,25.5,29.71,South,185,4.9,4.9,85,0.00,,,0.00,VWS V13.01,2013-02-23 19:36:00,
2013-02-23 13:37:00,29.8,25.9,29.71,South,188,4.9,4.9,85,0.00,,,0.00,VWS V13.01,2013-02-23 19:37:00,
2013-02-23 13:38:00,30.0,26.1,29.71,South,191,3.6,3.6,85,0.00,,,0.00,VWS V13.01,2013-02-23 19:38:00,
2013-02-23 13:39:00,30.7,26.8,29.71,SSW,192,3.1,3.1,85,0.00,,,0.00,VWS V13.01,2013-02-23 19:39:00,
2013-02-23 13:40:00,31.1,27.1,29.71,SSW,192,4.0,4.0,85,0.00,,,0.00,VWS V13.01,2013-02-23 19:40:00,
2013-02-23 13:41:00,31.1,27.1,29.71,South,191,5.4,5.4,85,0.00,,,0.00,VWS V13.01,2013-02-23 19:41:00,
2013-02-23 13:42:00,31.3,27.3,29.71,South,191,4.0,4.0,85,0.00,,,0.00,VWS V13.01,2013-02-23 19:42:00,
2013-02-23 13:43:00,31.1,27.1,29.71,South,191,5.4,5.4,85,0.00,,,0.00,VWS V13.01,2013-02-23 19:43:00,
2013-02-23 13:44:00,31.1,27.1,29.71,South,190,4.9,4.9,85,0.00,,,0.00,VWS V13.01,2013-02-23 19:44:00,
2013-02-23 13:45:00,31.3,27.3,29.71,South,190,4.0,4.0,85,0.00,,,0.00,VWS V13.01,2013-02-23 19:45:00,
2013-02-23 13:46:00,31.1,27.1,29.71,South,189,4.0,4.0,85,0.00,,,0.00,VWS V13.01,2013-02-23 19:46:00,
2013-02-23 13:47:00,30.6,26.6,29.71,South,190,5.4,5.4,85,0.00,,,0.00,VWS V13.01,2013-02-23 19:47:00,
2013-02-23 13:48:00,30.4,26.4,29.71,South,190,4.9,4.9,85,0.00,,,0.00,VWS V13.01,2013-02-23 19:48:00,
2013-02-23 13:49:00,30.2,26.2,29.71,SSW,192,4.0,4.0,85,0.00,,,0.00,VWS V13.01,2013-02-23 19:49:00,
2013-02-23 13:50:00,30.2,26.2,29.71,SSW,192,3.6,3.6,85,0.00,,,0.00,VWS V13.01,2013-02-23 19:50:00,
2013-02-23 13:51:00,31.1,27.1,29.71,SSW,192,3.1,3.1,85,0.00,,,0.00,VWS V13.01,2013-02-23 19:51:00,
2013-02-23 13:52:00,31.1,27.1,29.71,SSW,192,2.7,2.7,85,0.00,,,0.00,VWS V13.01,2013-02-23 19:52:00,
2013-02-23 13:53:00,31.3,27.3,29.71,SSW,192,4.0,4.0,85,0.00,,,0.00,VWS V13.01,2013-02-23 19:53:00,
2013-02-23 13:54:00,30.9,27.0,29.71,SSW,192,5.4,5.4,85,0.00,,,0.00,VWS V13.01,2013-02-23 19:54:00,
2013-02-23 13:55:00,31.5,27.5,29.71,SSW,193,4.9,4.9,85,0.00,,,0.00,VWS V13.01,2013-02-23 19:55:00,
2013-02-23 13:56:00,31.1,27.1,29.71,SSW,193,4.9,4.9,85,0.00,,,0.00,VWS V13.01,2013-02-23 19:56:00,
2013-02-23 13:57:00,30.6,26.6,29.71,SSW,193,4.9,4.9,85,0.00,,,0.00,VWS V13.01,2013-02-23 19:57:00,
2013-02-23 13:58:00,30.6,26.6,29.71,SSW,193,5.8,5.8,85,0.00,,,0.00,VWS V13.01,2013-02-23 19:58:00,
2013-02-23 13:59:00,30.2,26.2,29.71,SSW,193,5.8,5.8,85,0.00,,,0.00,VWS V13.01,2013-02-23 19:59:00,
2013-02-23 14:00:00,30.4,26.4,29.71,SSW,192,5.8,5.8,85,0.00,,,0.00,VWS V13.01,2013-02-23 20:00:00,
2013-02-23 14:01:00,30.2,26.2,29.71,SSW,192,5.4,5.4,85,0.00,,,0.00,VWS V13.01,2013-02-23 20:01:00,
2013-02-23 14:02:00,30.4,26.4,29.71,SSW,192,4.0,4.0,85,0.00,,,0.00,VWS V13.01,2013-02-23 20:02:00,
2013-02-23 14:03:00,30.6,26.6,29.71,SSW,192,4.0,4.0,85,0.00,,,0.00,VWS V13.01,2013-02-23 20:03:00,
2013-02-23 14:04:00,30.9,27.0,29.71,SSW,193,3.6,3.6,85,0.00,,,0.00,VWS V13.01,2013-02-23 20:04:00,
2013-02-23 14:05:00,30.4,26.4,29.71,South,185,5.4,5.4,85,0.00,,,0.00,VWS V13.01,2013-02-23 20:05:00,
2013-02-23 14:06:00,30.2,26.2,29.71,South,186,4.0,4.0,85,0.00,,,0.00,VWS V13.01,2013-02-23 20:06:00,
2013-02-23 14:07:00,29.8,25.9,29.71,South,189,5.4,5.4,85,0.00,,,0.00,VWS V13.01,2013-02-23 20:07:00,
2013-02-23 14:08:00,29.7,25.7,29.71,South,189,4.9,4.9,85,0.00,,,0.00,VWS V13.01,2013-02-23 20:08:00,
2013-02-23 14:09:00,29.8,25.9,29.71,SSW,195,5.4,5.4,85,0.00,,,0.00,VWS V13.01,2013-02-23 20:09:00,
2013-02-23 14:10:00,29.8,25.9,29.71,South,188,5.4,5.4,85,0.00,,,0.00,VWS V13.01,2013-02-23 20:10:00,
2013-02-23 14:11:00,29.8,25.9,29.71,SSW,197,5.4,5.4,85,0.00,,,0.00,VWS V13.01,2013-02-23 20:11:00,
2013-02-23 14:12:00,29.8,25.9,29.71,SSW,194,5.4,5.4,85,0.00,,,0.00,VWS V13.01,2013-02-23 20:12:00,
2013-02-23 14:13:00,29.8,25.9,29.71,SSW,194,5.8,5.8,85,0.00,,,0.00,VWS V13.01,2013-02-23 20:13:00,
2013-02-23 14:14:00,30.2,26.2,29.71,SSW,195,4.0,4.0,85,0.00,,,0.00,VWS V13.01,2013-02-23 20:14:00,
2013-02-23 14:15:00,30.4,26.4,29.71,SSW,196,5.4,5.4,85,0.00,,,0.00,VWS V13.01,2013-02-23 20:15:00,
2013-02-23 14:16:00,30.6,26.6,29.71,SSW,195,5.8,5.8,85,0.00,,,0.00,VWS V13.01,2013-02-23 20:16:00,
2013-02-23 14:17:00,30.6,26.6,29.71,SSW,193,5.8,5.8,85,0.00,,,0.00,VWS V13.01,2013-02-23 20:17:00,
2013-02-23 14:18:00,30.6,26.6,29.71,South,191,6.3,6.3,85,0.00,,,0.00,VWS V13.01,2013-02-23 20:18:00,
2013-02-23 14:19:00,30.4,26.4,29.71,South,180,6.3,6.3,85,0.00,,,0.00,VWS V13.01,2013-02-23 20:19:00,
2013-02-23 14:20:00,30.9,27.0,29.71,South,189,4.0,4.0,85,0.00,,,0.00,VWS V13.01,2013-02-23 20:20:00,
2013-02-23 14:21:00,30.9,27.0,29.71,South,184,5.4,5.4,85,0.00,,,0.00,VWS V13.01,2013-02-23 20:21:00,
2013-02-23 14:22:00,31.1,27.1,29.71,SSW,198,5.4,5.4,85,0.00,,,0.00,VWS V13.01,2013-02-23 20:22:00,
2013-02-23 14:23:00,30.9,27.0,29.71,SSW,194,4.9,4.9,85,0.00,,,0.00,VWS V13.01,2013-02-23 20:23:00,
2013-02-23 14:24:00,31.1,27.1,29.71,SSW,192,4.0,4.0,85,0.00,,,0.00,VWS V13.01,2013-02-23 20:24:00,
2013-02-23 14:25:00,31.1,27.1,29.71,SSW,194,4.0,4.0,85,0.00,,,0.00,VWS V13.01,2013-02-23 20:25:00,
2013-02-23 14:26:00,31.1,27.1,29.71,SSW,192,4.9,4.9,85,0.00,,,0.00,VWS V13.01,2013-02-23 20:26:00,
2013-02-23 14:27:00,31.1,27.1,29.71,South,189,3.1,3.1,85,0.00,,,0.00,VWS V13.01,2013-02-23 20:27:00,
2013-02-23 14:28:00,31.5,27.5,29.71,South,189,3.1,3.1,85,0.00,,,0.00,VWS V13.01,2013-02-23 20:28:00,
2013-02-23 14:29:00,31.3,27.3,29.71,South,190,4.9,4.9,85,0.00,,,0.00,VWS V13.01,2013-02-23 20:29:00,
2013-02-23 14:30:00,30.6,26.6,29.71,South,185,4.9,4.9,85,0.00,,,0.00,VWS V13.01,2013-02-23 20:30:00,
2013-02-23 14:31:00,30.6,26.6,29.71,SSW,201,6.3,6.3,85,0.00,,,0.00,VWS V13.01,2013-02-23 20:31:00,
2013-02-23 14:32:00,30.6,26.6,29.71,SSW,196,5.8,5.8,85,0.00,,,0.00,VWS V13.01,2013-02-23 20:32:00,
2013-02-23 14:33:00,30.4,26.4,29.71,SSW,195,5.4,5.4,85,0.00,,,0.00,VWS V13.01,2013-02-23 20:33:00,
2013-02-23 14:34:00,30.0,26.1,29.71,SSW,194,6.3,6.3,85,0.00,,,0.00,VWS V13.01,2013-02-23 20:34:00,
2013-02-23 14:35:00,29.8,25.9,29.71,South,183,5.4,5.4,85,0.00,,,0.00,VWS V13.01,2013-02-23 20:35:00,
2013-02-23 14:36:00,30.0,26.1,29.71,South,191,3.6,3.6,85,0.00,,,0.00,VWS V13.01,2013-02-23 20:36:00,
2013-02-23 14:37:00,30.2,26.2,29.71,SSW,196,5.4,5.4,85,0.00,,,0.00,VWS V13.01,2013-02-23 20:37:00,
2013-02-23 14:38:00,30.2,26.2,29.71,SSW,196,5.4,5.4,85,0.00,,,0.00,VWS V13.01,2013-02-23 20:38:00,
2013-02-23 14:39:00,30.2,26.2,29.71,SSW,193,4.0,4.0,85,0.00,,,0.00,VWS V13.01,2013-02-23 20:39:00,
2013-02-23 14:40:00,30.2,26.2,29.71,SSW,193,5.4,5.4,85,0.00,,,0.00,VWS V13.01,2013-02-23 20:40:00,
2013-02-23 14:41:00,30.2,26.2,29.71,South,182,5.8,5.8,85,0.00,,,0.00,VWS V13.01,2013-02-23 20:41:00,
2013-02-23 14:42:00,30.0,26.1,29.71,South,185,4.0,4.0,85,0.00,,,0.00,VWS V13.01,2013-02-23 20:42:00,
2013-02-23 14:43:00,29.8,25.9,29.71,SSW,192,5.8,5.8,85,0.00,,,0.00,VWS V13.01,2013-02-23 20:43:00,
2013-02-23 14:44:00,29.7,25.7,29.71,SSW,199,5.4,5.4,85,0.00,,,0.00,VWS V13.01,2013-02-23 20:44:00,
2013-02-23 14:45:00,29.7,25.7,29.71,South,189,6.3,6.3,85,0.00,,,0.00,VWS V13.01,2013-02-23 20:45:00,
2013-02-23 14:46:00,29.5,25.5,29.71,SSW,199,4.0,4.0,85,0.00,,,0.00,VWS V13.01,2013-02-23 20:46:00,
2013-02-23 14:47:00,29.5,25.5,29.71,SSW,192,5.8,5.8,85,0.00,,,0.00,VWS V13.01,2013-02-23 20:47:00,
2013-02-23 14:48:00,29.7,25.7,29.71,SSW,197,4.0,4.0,85,0.00,,,0.00,VWS V13.01,2013-02-23 20:48:00,
2013-02-23 14:49:00,30.2,26.2,29.71,SSW,196,5.4,5.4,85,0.00,,,0.00,VWS V13.01,2013-02-23 20:49:00,
2013-02-23 14:50:00,30.6,26.6,29.71,SSW,196,6.3,6.3,85,0.00,,,0.00,VWS V13.01,2013-02-23 20:50:00,
2013-02-23 14:51:00,30.4,26.4,29.71,South,190,6.3,6.3,85,0.00,,,0.00,VWS V13.01,2013-02-23 20:51:00,
2013-02-23 14:52:00,30.4,26.4,29.71,South,186,5.4,5.4,85,0.00,,,0.00,VWS V13.01,2013-02-23 20:52:00,
2013-02-23 14:53:00,30.2,26.2,29.71,South,186,3.1,3.1,85,0.00,,,0.00,VWS V13.01,2013-02-23 20:53:00,
2013-02-23 14:54:00,30.2,26.2,29.71,SSW,193,6.3,6.3,85,0.00,,,0.00,VWS V13.01,2013-02-23 20:54:00,
2013-02-23 14:55:00,29.8,25.9,29.71,South,172,5.4,5.4,85,0.00,,,0.00,VWS V13.01,2013-02-23 20:55:00,
2013-02-23 14:56:00,29.8,25.9,29.71,South,173,5.8,5.8,85,0.00,,,0.00,VWS V13.01,2013-02-23 20:56:00,
2013-02-23 14:57:00,29.8,25.9,29.71,South,176,5.8,5.8,85,0.00,,,0.00,VWS V13.01,2013-02-23 20:57:00,
2013-02-23 14:58:00,30.0,26.1,29.71,South,175,4.9,4.9,85,0.00,,,0.00,VWS V13.01,2013-02-23 20:58:00,
2013-02-23 14:59:00,30.2,26.2,29.71,South,173,4.9,4.9,85,0.00,,,0.00,VWS V13.01,2013-02-23 20:59:00,
2013-02-23 15:00:00,30.2,26.2,29.71,South,177,4.0,4.0,85,0.00,,,0.00,VWS V13.01,2013-02-23 21:00:00,
2013-02-23 15:01:00,30.0,26.1,29.71,South,186,5.4,5.4,85,0.00,,,0.00,VWS V13.01,2013-02-23 21:01:00,
2013-02-23 15:02:00,29.8,25.9,29.71,South,186,4.0,4.0,85,0.00,,,0.00,VWS V13.01,2013-02-23 21:02:00,
2013-02-23 15:03:00,30.0,26.1,29.71,South,187,4.0,4.0,85,0.00,,,0.00,VWS V13.01,2013-02-23 21:03:00,
2013-02-23 15:04:00,30.2,26.2,29.71,South,189,4.9,4.9,85,0.00,,,0.00,VWS V13.01,2013-02-23 21:04:00,
2013-02-23 15:05:00,30.6,26.6,29.71,South,189,5.4,5.4,85,0.00,,,0.00,VWS V13.01,2013-02-23 21:05:00,
2013-02-23 15:06:00,30.7,26.8,29.71,South,179,3.1,3.1,85,0.00,,,0.00,VWS V13.01,2013-02-23 21:06:00,
2013-02-23 15:07:00,30.7,26.8,29.71,SSW,197,4.0,4.0,85,0.00,,,0.00,VWS V13.01,2013-02-23 21:07:00,
2013-02-23 15:08:00,30.9,27.0,29.71,SSW,195,4.9,4.9,85,0.00,,,0.00,VWS V13.01,2013-02-23 21:08:00,
2013-02-23 15:09:00,30.7,26.8,29.71,South,189,5.8,5.8,85,0.00,,,0.00,VWS V13.01,2013-02-23 21:09:00,
2013-02-23 15:10:00,30.4,26.4,29.71,SSW,193,4.5,4.5,85,0.00,,,0.00,VWS V13.01,2013-02-23 21:10:00,
2013-02-23 15:11:00,30.7,26.8,29.71,South,189,4.0,4.0,85,0.00,,,0.00,VWS V13.01,2013-02-23 21:11:00,
2013-02-23 15:12:00,30.9,27.0,29.71,SSW,192,4.0,4.0,85,0.00,,,0.00,VWS V13.01,2013-02-23 21:12:00,
2013-02-23 15:13:00,31.1,27.1,29.71,SSW,193,4.0,4.0,85,0.00,,,0.00,VWS V13.01,2013-02-23 21:13:00,
2013-02-23 15:14:00,31.1,27.1,29.71,South,181,5.4,5.4,85,0.00,,,0.00,VWS V13.01,2013-02-23 21:14:00,
2013-02-23 15:15:00,30.9,27.0,29.71,South,189,6.3,6.3,85,0.00,,,0.00,VWS V13.01,2013-02-23 21:15:00,
2013-02-23 15:16:00,30.7,26.8,29.71,South,188,4.0,4.0,85,0.00,,,0.00,VWS V13.01,2013-02-23 21:16:00,
2013-02-23 15:17:00,31.1,27.1,29.71,South,188,4.0,4.0,85,0.00,,,0.00,VWS V13.01,2013-02-23 21:17:00,
2013-02-23 15:18:00,31.1,27.1,29.71,South,190,5.4,5.4,85,0.00,,,0.00,VWS V13.01,2013-02-23 21:18:00,
2013-02-23 15:19:00,31.1,27.1,29.71,SSW,194,5.4,5.4,85,0.00,,,0.00,VWS V13.01,2013-02-23 21:19:00,
2013-02-23 15:20:00,31.3,27.3,29.71,SSW,193,5.4,5.4,85,0.00,,,0.00,VWS V13.01,2013-02-23 21:20:00,
2013-02-23 15:21:00,31.1,27.1,29.71,South,190,5.8,5.8,85,0.00,,,0.00,VWS V13.01,2013-02-23 21:21:00,
2013-02-23 15:22:00,31.6,27.7,29.71,South,190,5.4,5.4,85,0.00,,,0.00,VWS V13.01,2013-02-23 21:22:00,
2013-02-23 15:23:00,31.8,27.8,29.71,South,191,4.0,4.0,85,0.00,,,0.00,VWS V13.01,2013-02-23 21:23:00,
2013-02-23 15:24:00,31.5,27.5,29.71,South,190,3.6,3.6,85,0.00,,,0.00,VWS V13.01,2013-02-23 21:24:00,
2013-02-23 15:25:00,31.5,27.5,29.71,South,187,4.0,4.0,85,0.00,,,0.00,VWS V13.01,2013-02-23 21:25:00,
2013-02-23 15:26:00,31.3,27.3,29.71,South,187,6.3,6.3,85,0.00,,,0.00,VWS V13.01,2013-02-23 21:26:00,
2013-02-23 15:27:00,31.3,27.3,29.71,South,184,4.9,4.9,85,0.00,,,0.00,VWS V13.01,2013-02-23 21:27:00,
2013-02-23 15:28:00,31.3,27.3,29.71,SSW,192,3.6,3.6,85,0.00,,,0.00,VWS V13.01,2013-02-23 21:28:00,
2013-02-23 15:29:00,31.1,27.1,29.71,South,187,5.4,5.4,85,0.00,,,0.00,VWS V13.01,2013-02-23 21:29:00,
2013-02-23 15:30:00,31.1,27.1,29.71,South,188,4.0,4.0,85,0.00,,,0.00,VWS V13.01,2013-02-23 21:30:00,
2013-02-23 15:31:00,31.1,27.1,29.71,South,188,5.4,5.4,85,0.00,,,0.00,VWS V13.01,2013-02-23 21:31:00,
2013-02-23 15:32:00,31.1,27.1,29.71,South,188,5.4,5.4,85,0.00,,,0.00,VWS V13.01,2013-02-23 21:32:00,
2013-02-23 15:33:00,31.1,27.1,29.71,South,188,5.4,5.4,85,0.00,,,0.00,VWS V13.01,2013-02-23 21:33:00,
2013-02-23 15:34:00,30.9,27.0,29.71,South,185,5.4,5.4,85,0.00,,,0.00,VWS V13.01,2013-02-23 21:34:00,
2013-02-23 15:35:00,30.9,27.0,29.71,South,185,5.4,5.4,85,0.00,,,0.00,VWS V13.01,2013-02-23 21:35:00,
2013-02-23 15:36:00,30.7,26.8,29.71,South,185,4.9,4.9,85,0.00,,,0.00,VWS V13.01,2013-02-23 21:36:00,
2013-02-23 15:37:00,30.7,26.8,29.71,South,185,3.1,3.1,85,0.00,,,0.00,VWS V13.01,2013-02-23 21:37:00,
2013-02-23 15:38:00,30.7,26.8,29.71,South,185,3.6,3.6,85,0.00,,,0.00,VWS V13.01,2013-02-23 21:38:00,
2013-02-23 15:39:00,30.4,26.4,29.71,South,185,4.0,4.0,85,0.00,,,0.00,VWS V13.01,2013-02-23 21:39:00,
2013-02-23 15:40:00,30.2,26.2,29.71,South,184,4.9,4.9,85,0.00,,,0.00,VWS V13.01,2013-02-23 21:40:00,
2013-02-23 15:41:00,30.2,26.2,29.71,South,184,3.6,3.6,85,0.00,,,0.00,VWS V13.01,2013-02-23 21:41:00,
2013-02-23 15:42:00,30.2,26.2,29.71,South,184,2.7,2.7,85,0.00,,,0.00,VWS V13.01,2013-02-23 21:42:00,
2013-02-23 15:43:00,30.2,26.2,29.71,South,184,3.6,3.6,85,0.00,,,0.00,VWS V13.01,2013-02-23 21:43:00,
2013-02-23 15:44:00,30.7,26.8,29.71,South,184,3.6,3.6,85,0.00,,,0.00,VWS V13.01,2013-02-23 21:44:00,
2013-02-23 15:45:00,30.6,26.6,29.71,South,184,4.5,4.5,85,0.00,,,0.00,VWS V13.01,2013-02-23 21:45:00,
2013-02-23 15:46:00,30.7,26.8,29.71,South,184,4.0,4.0,85,0.00,,,0.00,VWS V13.01,2013-02-23 21:46:00,
2013-02-23 15:47:00,30.6,26.6,29.71,South,184,6.3,6.3,85,0.00,,,0.00,VWS V13.01,2013-02-23 21:47:00,
2013-02-23 15:48:00,30.2,26.2,29.71,South,169,5.4,5.4,85,0.00,,,0.00,VWS V13.01,2013-02-23 21:48:00,
2013-02-23 15:49:00,30.2,26.2,29.71,South,169,4.0,4.0,85,0.00,,,0.00,VWS V13.01,2013-02-23 21:49:00,
2013-02-23 15:50:00,30.2,26.2,29.71,South,169,4.0,4.0,85,0.00,,,0.00,VWS V13.01,2013-02-23 21:50:00,
2013-02-23 15:51:00,30.0,26.1,29.71,South,178,6.3,6.3,85,0.00,,,0.00,VWS V13.01,2013-02-23 21:51:00,
2013-02-23 15:52:00,30.0,26.1,29.71,SSW,198,4.0,4.0,85,0.00,,,0.00,VWS V13.01,2013-02-23 21:52:00,
2013-02-23 15:53:00,30.6,26.6,29.71,SSW,198,4.0,4.0,85,0.00,,,0.00,VWS V13.01,2013-02-23 21:53:00,
2013-02-23 15:54:00,30.6,26.6,29.71,SSW,198,3.6,3.6,85,0.00,,,0.00,VWS V13.01,2013-02-23 21:54:00,
2013-02-23 15:55:00,30.7,26.8,29.71,SSW,198,3.6,3.6,85,0.00,,,0.00,VWS V13.01,2013-02-23 21:55:00,
2013-02-23 15:56:00,30.9,27.0,29.71,SSW,198,3.6,3.6,85,0.00,,,0.00,VWS V13.01,2013-02-23 21:56:00,
2013-02-23 15:57:00,30.9,27.0,29.71,SSW,197,4.9,4.9,85,0.00,,,0.00,VWS V13.01,2013-02-23 21:57:00,
2013-02-23 15:58:00,30.6,26.6,29.68,South,180,4.9,4.9,85,0.00,,,0.00,VWS V13.01,2013-02-23 21:58:00,
2013-02-23 15:59:00,30.6,26.6,29.68,South,180,4.0,4.0,85,0.00,,,0.00,VWS V13.01,2013-02-23 21:59:00,
2013-02-23 16:00:00,30.7,26.8,29.68,South,183,4.9,4.9,85,0.00,,,0.00,VWS V13.01,2013-02-23 22:00:00,
2013-02-23 16:01:00,30.7,26.8,29.68,South,182,5.4,5.4,85,0.00,,,0.00,VWS V13.01,2013-02-23 22:01:00,
2013-02-23 16:02:00,30.7,26.8,29.68,South,190,5.4,5.4,85,0.00,,,0.00,VWS V13.01,2013-02-23 22:02:00,
2013-02-23 16:03:00,30.9,27.0,29.68,SSW,192,4.9,4.9,85,0.00,,,0.00,VWS V13.01,2013-02-23 22:03:00,
2013-02-23 16:04:00,30.9,27.0,29.68,SSW,192,3.6,3.6,85,0.00,,,0.00,VWS V13.01,2013-02-23 22:04:00,
2013-02-23 16:05:00,30.7,26.8,29.68,South,178,5.4,5.4,85,0.00,,,0.00,VWS V13.01,2013-02-23 22:05:00,
2013-02-23 16:06:00,30.9,27.0,29.68,South,179,4.0,4.0,85,0.00,,,0.00,VWS V13.01,2013-02-23 22:06:00,
2013-02-23 16:07:00,30.7,26.8,29.68,South,179,5.4,5.4,85,0.00,,,0.00,VWS V13.01,2013-02-23 22:07:00,
2013-02-23 16:08:00,30.9,27.0,29.68,South,179,4.9,4.9,85,0.00,,,0.00,VWS V13.01,2013-02-23 22:08:00,
2013-02-23 16:09:00,30.9,27.0,29.68,South,179,4.0,4.0,85,0.00,,,0.00,VWS V13.01,2013-02-23 22:09:00,
2013-02-23 16:10:00,31.1,27.1,29.68,South,179,3.6,3.6,85,0.00,,,0.00,VWS V13.01,2013-02-23 22:10:00,
2013-02-23 16:11:00,30.9,27.0,29.68,South,179,4.0,4.0,85,0.00,,,0.00,VWS V13.01,2013-02-23 22:11:00,
2013-02-23 16:12:00,30.7,26.8,29.68,South,179,5.8,5.8,85,0.00,,,0.00,VWS V13.01,2013-02-23 22:12:00,
2013-02-23 16:13:00,30.7,26.8,29.68,South,180,3.1,3.1,85,0.00,,,0.00,VWS V13.01,2013-02-23 22:13:00,
2013-02-23 16:14:00,30.7,26.8,29.68,South,180,3.6,3.6,85,0.00,,,0.00,VWS V13.01,2013-02-23 22:14:00,
2013-02-23 16:15:00,30.6,26.6,29.68,South,180,5.8,5.8,85,0.00,,,0.00,VWS V13.01,2013-02-23 22:15:00,
2013-02-23 16:16:00,30.4,26.4,29.68,South,180,4.0,4.0,85,0.00,,,0.00,VWS V13.01,2013-02-23 22:16:00,
2013-02-23 16:17:00,30.4,26.4,29.68,South,180,4.0,4.0,85,0.00,,,0.00,VWS V13.01,2013-02-23 22:17:00,
2013-02-23 16:18:00,30.4,26.4,29.68,South,180,3.6,3.6,85,0.00,,,0.00,VWS V13.01,2013-02-23 22:18:00,
2013-02-23 16:19:00,30.4,26.4,29.68,South,180,3.6,3.6,85,0.00,,,0.00,VWS V13.01,2013-02-23 22:19:00,
2013-02-23 16:20:00,30.4,26.4,29.68,South,180,3.6,3.6,85,0.00,,,0.00,VWS V13.01,2013-02-23 22:20:00,
2013-02-23 16:21:00,30.4,26.4,29.68,South,179,5.8,5.8,85,0.00,,,0.00,VWS V13.01,2013-02-23 22:21:00,
2013-02-23 16:22:00,30.0,26.1,29.68,South,179,5.4,5.4,85,0.00,,,0.00,VWS V13.01,2013-02-23 22:22:00,
2013-02-23 16:23:00,29.7,25.7,29.68,South,179,3.6,3.6,85,0.00,,,0.00,VWS V13.01,2013-02-23 22:23:00,
2013-02-23 16:24:00,29.7,25.7,29.68,South,179,4.9,4.9,85,0.00,,,0.00,VWS V13.01,2013-02-23 22:24:00,
2013-02-23 16:25:00,29.5,25.5,29.68,South,179,3.1,3.1,85,0.00,,,0.00,VWS V13.01,2013-02-23 22:25:00,
2013-02-23 16:26:00,29.7,25.7,29.68,South,179,3.6,3.6,85,0.00,,,0.00,VWS V13.01,2013-02-23 22:26:00,
2013-02-23 16:27:00,29.7,25.7,29.68,South,179,4.0,4.0,85,0.00,,,0.00,VWS V13.01,2013-02-23 22:27:00,
2013-02-23 16:28:00,29.7,25.7,29.68,South,179,4.9,4.9,85,0.00,,,0.00,VWS V13.01,2013-02-23 22:28:00,
2013-02-23 16:29:00,29.7,25.7,29.68,South,179,3.6,3.6,85,0.00,,,0.00,VWS V13.01,2013-02-23 22:29:00,
2013-02-23 16:30:00,29.8,25.9,29.68,South,179,3.6,3.6,85,0.00,,,0.00,VWS V13.01,2013-02-23 22:30:00,
2013-02-23 16:31:00,29.8,25.9,29.68,South,179,3.1,3.1,85,0.00,,,0.00,VWS V13.01,2013-02-23 22:31:00,
2013-02-23 16:32:00,29.8,25.9,29.68,South,179,5.4,5.4,85,0.00,,,0.00,VWS V13.01,2013-02-23 22:32:00,
2013-02-23 16:33:00,29.5,25.5,29.68,South,179,3.6,3.6,85,0.00,,,0.00,VWS V13.01,2013-02-23 22:33:00,
2013-02-23 16:34:00,29.5,25.5,29.68,South,179,3.6,3.6,85,0.00,,,0.00,VWS V13.01,2013-02-23 22:34:00,
2013-02-23 16:35:00,29.5,25.5,29.68,South,179,3.1,3.1,85,0.00,,,0.00,VWS V13.01,2013-02-23 22:35:00,
2013-02-23 16:36:00,29.5,25.5,29.68,South,179,2.7,2.7,85,0.00,,,0.00,VWS V13.01,2013-02-23 22:36:00,
2013-02-23 16:37:00,29.3,25.4,29.68,South,179,3.1,3.1,85,0.00,,,0.00,VWS V13.01,2013-02-23 22:37:00,
2013-02-23 16:38:00,29.5,25.5,29.68,South,179,2.7,2.7,85,0.00,,,0.00,VWS V13.01,2013-02-23 22:38:00,
2013-02-23 16:39:00,29.5,25.5,29.68,South,179,2.7,2.7,85,0.00,,,0.00,VWS V13.01,2013-02-23 22:39:00,
2013-02-23 16:40:00,29.3,25.4,29.68,South,179,3.1,3.1,85,0.00,,,0.00,VWS V13.01,2013-02-23 22:40:00,
2013-02-23 16:41:00,29.3,25.4,29.68,South,179,4.0,4.0,85,0.00,,,0.00,VWS V13.01,2013-02-23 22:41:00,
2013-02-23 16:42:00,29.7,25.7,29.68,South,179,2.2,2.2,85,0.00,,,0.00,VWS V13.01,2013-02-23 22:42:00,
2013-02-23 16:43:00,29.7,25.7,29.68,South,179,3.1,3.1,85,0.00,,,0.00,VWS V13.01,2013-02-23 22:43:00,
2013-02-23 16:44:00,29.7,25.7,29.68,South,179,2.7,2.7,85,0.00,,,0.00,VWS V13.01,2013-02-23 22:44:00,
2013-02-23 16:45:00,29.8,25.9,29.68,South,179,2.7,2.7,85,0.00,,,0.00,VWS V13.01,2013-02-23 22:45:00,
2013-02-23 16:46:00,29.8,25.9,29.68,South,179,3.1,3.1,85,0.00,,,0.00,VWS V13.01,2013-02-23 22:46:00,
2013-02-23 16:47:00,29.8,25.9,29.68,South,179,3.1,3.1,85,0.00,,,0.00,VWS V13.01,2013-02-23 22:47:00,
2013-02-23 16:48:00,29.7,25.7,29.68,South,179,4.0,4.0,85,0.00,,,0.00,VWS V13.01,2013-02-23 22:48:00,
2013-02-23 16:49:00,29.7,25.7,29.68,South,179,4.0,4.0,85,0.00,,,0.00,VWS V13.01,2013-02-23 22:49:00,
2013-02-23 16:50:00,29.8,25.9,29.68,South,179,4.0,4.0,85,0.00,,,0.00,VWS V13.01,2013-02-23 22:50:00,
2013-02-23 16:51:00,29.5,25.5,29.68,South,179,3.6,3.6,85,0.00,,,0.00,VWS V13.01,2013-02-23 22:51:00,
2013-02-23 16:52:00,29.5,25.5,29.68,South,179,3.1,3.1,85,0.00,,,0.00,VWS V13.01,2013-02-23 22:52:00,
2013-02-23 16:53:00,29.5,25.5,29.68,South,179,3.6,3.6,85,0.00,,,0.00,VWS V13.01,2013-02-23 22:53:00,
2013-02-23 16:54:00,29.5,25.5,29.68,South,179,2.7,2.7,85,0.00,,,0.00,VWS V13.01,2013-02-23 22:54:00,
2013-02-23 16:55:00,29.5,25.5,29.68,South,179,4.0,4.0,85,0.00,,,0.00,VWS V13.01,2013-02-23 22:55:00,
2013-02-23 16:56:00,29.5,25.5,29.68,South,179,2.7,2.7,85,0.00,,,0.00,VWS V13.01,2013-02-23 22:56:00,
2013-02-23 16:57:00,29.5,25.5,29.68,South,179,3.1,3.1,85,0.00,,,0.00,VWS V13.01,2013-02-23 22:57:00,
2013-02-23 16:58:00,29.7,25.7,29.68,South,179,2.7,2.7,85,0.00,,,0.00,VWS V13.01,2013-02-23 22:58:00,
2013-02-23 16:59:00,29.7,25.7,29.68,South,179,3.1,3.1,85,0.00,,,0.00,VWS V13.01,2013-02-23 22:59:00,
2013-02-23 17:00:00,29.7,25.7,29.68,South,179,4.0,4.0,85,0.00,,,0.00,VWS V13.01,2013-02-23 23:00:00,
2013-02-23 17:01:00,29.7,25.7,29.68,South,179,3.6,3.6,85,0.00,,,0.00,VWS V13.01,2013-02-23 23:01:00,
2013-02-23 17:02:00,29.8,25.9,29.68,South,179,3.6,3.6,85,0.00,,,0.00,VWS V13.01,2013-02-23 23:02:00,
2013-02-23 17:03:00,29.5,25.5,29.68,South,179,4.9,4.9,85,0.00,,,0.00,VWS V13.01,2013-02-23 23:03:00,
2013-02-23 17:04:00,29.5,25.5,29.68,South,179,3.6,3.6,85,0.00,,,0.00,VWS V13.01,2013-02-23 23:04:00,
2013-02-23 17:05:00,29.7,25.7,29.68,South,179,4.0,4.0,85,0.00,,,0.00,VWS V13.01,2013-02-23 23:05:00,
2013-02-23 17:06:00,29.5,25.5,29.68,South,179,4.0,4.0,85,0.00,,,0.00,VWS V13.01,2013-02-23 23:06:00,
2013-02-23 17:07:00,29.3,25.4,29.68,South,179,4.0,4.0,85,0.00,,,0.00,VWS V13.01,2013-02-23 23:07:00,
2013-02-23 17:08:00,29.1,25.2,29.68,South,179,4.9,4.9,85,0.00,,,0.00,VWS V13.01,2013-02-23 23:08:00,
2013-02-23 17:09:00,28.9,25.0,29.68,South,179,3.6,3.6,85,0.00,,,0.00,VWS V13.01,2013-02-23 23:09:00,
2013-02-23 17:10:00,29.1,25.2,29.68,South,179,4.9,4.9,85,0.00,,,0.00,VWS V13.01,2013-02-23 23:10:00,
2013-02-23 17:11:00,28.9,25.0,29.68,South,179,4.0,4.0,85,0.00,,,0.00,VWS V13.01,2013-02-23 23:11:00,
2013-02-23 17:12:00,28.9,25.0,29.68,South,179,4.0,4.0,85,0.00,,,0.00,VWS V13.01,2013-02-23 23:12:00,
2013-02-23 17:13:00,28.9,25.0,29.68,South,179,3.6,3.6,85,0.00,,,0.00,VWS V13.01,2013-02-23 23:13:00,
2013-02-23 17:14:00,28.8,24.8,29.68,South,179,3.6,3.6,85,0.00,,,0.00,VWS V13.01,2013-02-23 23:14:00,
2013-02-23 17:15:00,28.9,25.0,29.68,South,179,2.7,2.7,85,0.00,,,0.00,VWS V13.01,2013-02-23 23:15:00,
2013-02-23 17:16:00,28.8,24.8,29.68,South,179,3.6,3.6,85,0.00,,,0.00,VWS V13.01,2013-02-23 23:16:00,
2013-02-23 17:17:00,28.9,25.0,29.68,South,179,3.1,3.1,85,0.00,,,0.00,VWS V13.01,2013-02-23 23:17:00,
2013-02-23 17:18:00,28.9,25.0,29.68,South,179,3.6,3.6,85,0.00,,,0.00,VWS V13.01,2013-02-23 23:18:00,
2013-02-23 17:19:00,28.9,25.0,29.68,South,179,3.6,3.6,85,0.00,,,0.00,VWS V13.01,2013-02-23 23:19:00,
2013-02-23 17:20:00,28.9,25.0,29.68,South,179,3.6,3.6,85,0.00,,,0.00,VWS V13.01,2013-02-23 23:20:00,
2013-02-23 17:21:00,29.1,25.2,29.68,South,179,3.6,3.6,85,0.00,,,0.00,VWS V13.01,2013-02-23 23:21:00,
2013-02-23 17:22:00,28.9,25.0,29.68,South,179,3.6,3.6,85,0.00,,,0.00,VWS V13.01,2013-02-23 23:22:00,
2013-02-23 17:23:00,29.1,25.2,29.68,South,179,2.7,2.7,85,0.00,,,0.00,VWS V13.01,2013-02-23 23:23:00,
2013-02-23 17:24:00,28.9,25.0,29.68,South,179,3.1,3.1,85,0.00,,,0.00,VWS V13.01,2013-02-23 23:24:00,
2013-02-23 17:25:00,28.9,25.0,29.68,South,179,3.6,3.6,85,0.00,,,0.00,VWS V13.01,2013-02-23 23:25:00,
2013-02-23 17:26:00,28.8,24.8,29.68,South,179,4.0,4.0,85,0.00,,,0.00,VWS V13.01,2013-02-23 23:26:00,
2013-02-23 17:27:00,28.8,24.8,29.68,South,179,3.6,3.6,85,0.00,,,0.00,VWS V13.01,2013-02-23 23:27:00,
2013-02-23 17:28:00,28.9,25.0,29.68,South,179,4.9,4.9,85,0.00,,,0.00,VWS V13.01,2013-02-23 23:28:00,
2013-02-23 17:29:00,28.9,25.0,29.68,South,179,3.6,3.6,85,0.00,,,0.00,VWS V13.01,2013-02-23 23:29:00,
2013-02-23 17:30:00,28.8,24.8,29.68,South,179,3.1,3.1,85,0.00,,,0.00,VWS V13.01,2013-02-23 23:30:00,
2013-02-23 17:31:00,28.8,24.8,29.68,South,179,3.1,3.1,85,0.00,,,0.00,VWS V13.01,2013-02-23 23:31:00,
2013-02-23 17:32:00,28.6,24.6,29.68,South,179,3.1,3.1,85,0.00,,,0.00,VWS V13.01,2013-02-23 23:32:00,
2013-02-23 17:33:00,28.4,24.5,29.68,South,179,2.7,2.7,85,0.00,,,0.00,VWS V13.01,2013-02-23 23:33:00,
2013-02-23 17:34:00,28.4,24.5,29.68,South,179,2.7,2.7,85,0.00,,,0.00,VWS V13.01,2013-02-23 23:34:00,
2013-02-23 17:35:00,28.2,24.3,29.68,South,179,2.7,2.7,85,0.00,,,0.00,VWS V13.01,2013-02-23 23:35:00,
2013-02-23 17:36:00,28.0,24.1,29.68,South,179,3.1,3.1,85,0.00,,,0.00,VWS V13.01,2013-02-23 23:36:00,
2013-02-23 17:37:00,28.0,24.1,29.68,South,179,2.7,2.7,85,0.00,,,0.00,VWS V13.01,2013-02-23 23:37:00,
2013-02-23 17:38:00,27.9,23.9,29.68,South,179,2.7,2.7,85,0.00,,,0.00,VWS V13.01,2013-02-23 23:38:00,
2013-02-23 17:39:00,27.9,24.0,29.68,South,179,2.7,2.7,85,0.00,,,0.00,VWS V13.01,2013-02-23 23:39:00,
2013-02-23 17:40:00,27.7,23.8,29.68,South,179,2.2,2.2,85,0.00,,,0.00,VWS V13.01,2013-02-23 23:40:00,
2013-02-23 17:41:00,27.7,23.8,29.68,South,179,2.2,2.2,85,0.00,,,0.00,VWS V13.01,2013-02-23 23:41:00,
2013-02-23 17:42:00,27.5,23.6,29.68,South,179,2.2,2.2,85,0.00,,,0.00,VWS V13.01,2013-02-23 23:42:00,
2013-02-23 17:43:00,27.3,23.4,29.68,South,179,2.2,2.2,85,0.00,,,0.00,VWS V13.01,2013-02-23 23:43:00,
2013-02-23 17:44:00,27.3,23.4,29.68,South,179,2.7,2.7,85,0.00,,,0.00,VWS V13.01,2013-02-23 23:44:00,
2013-02-23 17:45:00,27.3,23.4,29.68,South,179,2.7,2.7,85,0.00,,,0.00,VWS V13.01,2013-02-23 23:45:00,
2013-02-23 17:46:00,27.3,23.4,29.68,South,179,3.1,3.1,85,0.00,,,0.00,VWS V13.01,2013-02-23 23:46:00,
2013-02-23 17:47:00,27.3,23.4,29.68,South,179,3.1,3.1,85,0.00,,,0.00,VWS V13.01,2013-02-23 23:47:00,
2013-02-23 17:48:00,27.3,23.4,29.68,South,179,2.7,2.7,85,0.00,,,0.00,VWS V13.01,2013-02-23 23:48:00,
2013-02-23 17:49:00,27.3,23.4,29.68,South,179,2.7,2.7,85,0.00,,,0.00,VWS V13.01,2013-02-23 23:49:00,
2013-02-23 17:50:00,27.1,23.2,29.68,South,179,2.7,2.7,85,0.00,,,0.00,VWS V13.01,2013-02-23 23:50:00,
2013-02-23 17:51:00,27.1,23.2,29.68,South,179,2.7,2.7,85,0.00,,,0.00,VWS V13.01,2013-02-23 23:51:00,
2013-02-23 17:52:00,27.1,23.2,29.68,South,179,3.1,3.1,85,0.00,,,0.00,VWS V13.01,2013-02-23 23:52:00,
2013-02-23 17:53:00,27.1,23.2,29.68,South,179,2.7,2.7,85,0.00,,,0.00,VWS V13.01,2013-02-23 23:53:00,
2013-02-23 17:54:00,27.0,23.1,29.68,South,179,3.1,3.1,85,0.00,,,0.00,VWS V13.01,2013-02-23 23:54:00,
2013-02-23 17:55:00,27.0,23.1,29.68,South,179,2.7,2.7,85,0.00,,,0.00,VWS V13.01,2013-02-23 23:55:00,
2013-02-23 17:56:00,27.0,23.1,29.68,South,179,3.6,3.6,85,0.00,,,0.00,VWS V13.01,2013-02-23 23:56:00,
2013-02-23 17:57:00,27.1,23.2,29.65,South,179,3.1,3.1,85,0.00,,,0.00,VWS V13.01,2013-02-23 23:57:00,
2013-02-23 17:58:00,27.0,23.1,29.65,South,179,4.0,4.0,85,0.00,,,0.00,VWS V13.01,2013-02-23 23:58:00,
2013-02-23 17:59:00,27.0,23.1,29.65,South,179,4.0,4.0,85,0.00,,,0.00,VWS V13.01,2013-02-23 23:59:00,
2013-02-23 18:00:00,27.0,23.1,29.65,South,179,3.6,3.6,85,0.00,,,0.00,VWS V13.01,2013-02-24 00:00:00,
2013-02-23 18:01:00,27.0,23.1,29.65,South,179,3.6,3.6,85,0.00,,,0.00,VWS V13.01,2013-02-24 00:01:00,
2013-02-23 18:02:00,27.0,23.1,29.65,South,179,3.6,3.6,85,0.00,,,0.00,VWS V13.01,2013-02-24 00:02:00,
2013-02-23 18:03:00,27.0,23.1,29.65,South,179,3.6,3.6,85,0.00,,,0.00,VWS V13.01,2013-02-24 00:03:00,
2013-02-23 18:04:00,27.0,23.1,29.65,South,179,3.6,3.6,85,0.00,,,0.00,VWS V13.01,2013-02-24 00:04:00,
2013-02-23 18:05:00,27.0,23.1,29.65,South,179,4.0,4.0,85,0.00,,,0.00,VWS V13.01,2013-02-24 00:05:00,
2013-02-23 18:06:00,27.0,23.1,29.65,South,179,3.6,3.6,85,0.00,,,0.00,VWS V13.01,2013-02-24 00:06:00,
2013-02-23 18:07:00,26.8,22.9,29.65,South,179,3.1,3.1,85,0.00,,,0.00,VWS V13.01,2013-02-24 00:07:00,
2013-02-23 18:08:00,26.8,22.9,29.65,South,179,3.1,3.1,85,0.00,,,0.00,VWS V13.01,2013-02-24 00:08:00,
2013-02-23 18:09:00,26.8,22.9,29.65,South,179,3.1,3.1,85,0.00,,,0.00,VWS V13.01,2013-02-24 00:09:00,
2013-02-23 18:10:00,26.8,22.9,29.65,South,179,2.7,2.7,85,0.00,,,0.00,VWS V13.01,2013-02-24 00:10:00,
2013-02-23 18:11:00,26.8,22.9,29.65,South,179,3.6,3.6,85,0.00,,,0.00,VWS V13.01,2013-02-24 00:11:00,
2013-02-23 18:12:00,26.6,24.3,29.65,South,179,2.2,2.2,91,0.00,,,0.00,VWS V13.01,2013-02-24 00:12:00,
2013-02-23 18:13:00,26.6,24.3,29.68,South,179,3.1,3.1,91,0.00,,,0.00,VWS V13.01,2013-02-24 00:13:00,
2013-02-23 18:14:00,26.4,24.1,29.68,South,179,2.7,2.7,91,0.00,,,0.00,VWS V13.01,2013-02-24 00:14:00,
2013-02-23 18:15:00,26.4,24.1,29.68,South,179,3.1,3.1,91,0.00,,,0.00,VWS V13.01,2013-02-24 00:15:00,
2013-02-23 18:16:00,26.4,24.1,29.68,South,179,2.7,2.7,91,0.00,,,0.00,VWS V13.01,2013-02-24 00:16:00,
2013-02-23 18:17:00,26.4,24.1,29.68,South,179,4.0,4.0,91,0.00,,,0.00,VWS V13.01,2013-02-24 00:17:00,
2013-02-23 18:18:00,26.4,24.1,29.68,South,179,3.6,3.6,91,0.00,,,0.00,VWS V13.01,2013-02-24 00:18:00,
2013-02-23 18:19:00,26.4,24.1,29.68,South,179,2.7,2.7,91,0.00,,,0.00,VWS V13.01,2013-02-24 00:19:00,
2013-02-23 18:20:00,26.4,24.1,29.68,South,179,3.1,3.1,91,0.00,,,0.00,VWS V13.01,2013-02-24 00:20:00,
2013-02-23 18:21:00,26.2,24.0,29.68,South,179,2.7,2.7,91,0.00,,,0.00,VWS V13.01,2013-02-24 00:21:00,
2013-02-23 18:22:00,26.2,24.0,29.68,South,179,2.7,2.7,91,0.00,,,0.00,VWS V13.01,2013-02-24 00:22:00,
2013-02-23 18:23:00,26.1,23.8,29.68,South,179,3.1,3.1,91,0.00,,,0.00,VWS V13.01,2013-02-24 00:23:00,
2013-02-23 18:24:00,26.1,23.8,29.68,South,179,2.2,2.2,91,0.00,,,0.00,VWS V13.01,2013-02-24 00:24:00,
2013-02-23 18:25:00,26.1,23.8,29.68,South,179,2.7,2.7,91,0.00,,,0.00,VWS V13.01,2013-02-24 00:25:00,
2013-02-23 18:26:00,25.9,23.6,29.68,South,179,2.2,2.2,91,0.00,,,0.00,VWS V13.01,2013-02-24 00:26:00,
2013-02-23 18:27:00,25.9,23.6,29.68,South,179,0.0,0.0,91,0.00,,,0.00,VWS V13.01,2013-02-24 00:27:00,
2013-02-23 18:28:00,25.7,23.4,29.68,South,179,0.0,0.0,91,0.00,,,0.00,VWS V13.01,2013-02-24 00:28:00,
2013-02-23 18:29:00,25.5,23.3,29.68,South,179,0.0,0.0,91,0.00,,,0.00,VWS V13.01,2013-02-24 00:29:00,
2013-02-23 18:30:00,25.3,23.1,29.68,South,179,0.0,0.0,91,0.00,,,0.00,VWS V13.01,2013-02-24 00:30:00,
2013-02-23 18:31:00,25.3,23.1,29.68,South,179,0.0,0.0,91,0.00,,,0.00,VWS V13.01,2013-02-24 00:31:00,
2013-02-23 18:32:00,25.2,22.9,29.68,South,179,0.0,0.0,91,0.00,,,0.00,VWS V13.01,2013-02-24 00:32:00,
2013-02-23 18:33:00,25.0,22.7,29.68,South,179,0.0,0.0,91,0.00,,,0.00,VWS V13.01,2013-02-24 00:33:00,
2013-02-23 18:34:00,25.0,22.7,29.68,South,179,0.0,0.0,91,0.00,,,0.00,VWS V13.01,2013-02-24 00:34:00,
2013-02-23 18:35:00,24.8,22.5,29.68,South,179,0.0,0.0,91,0.00,,,0.00,VWS V13.01,2013-02-24 00:35:00,
2013-02-23 18:36:00,24.6,22.4,29.68,South,179,0.0,0.0,91,0.00,,,0.00,VWS V13.01,2013-02-24 00:36:00,
2013-02-23 18:37:00,24.6,22.4,29.68,South,179,0.0,0.0,91,0.00,,,0.00,VWS V13.01,2013-02-24 00:37:00,
2013-02-23 18:38:00,24.6,22.4,29.68,South,179,0.0,0.0,91,0.00,,,0.00,VWS V13.01,2013-02-24 00:38:00,
2013-02-23 18:39:00,24.8,22.5,29.68,South,179,0.0,0.0,91,0.00,,,0.00,VWS V13.01,2013-02-24 00:39:00,
2013-02-23 18:40:00,25.0,22.7,29.68,South,179,0.0,0.0,91,0.00,,,0.00,VWS V13.01,2013-02-24 00:40:00,
2013-02-23 18:41:00,25.0,22.7,29.68,South,179,0.0,0.0,91,0.00,,,0.00,VWS V13.01,2013-02-24 00:41:00,
2013-02-23 18:42:00,25.0,22.7,29.68,South,179,0.0,0.0,91,0.00,,,0.00,VWS V13.01,2013-02-24 00:42:00,
2013-02-23 18:43:00,25.0,22.7,29.68,South,179,0.0,0.0,91,0.00,,,0.00,VWS V13.01,2013-02-24 00:43:00,
2013-02-23 18:44:00,25.0,22.7,29.68,South,179,0.0,0.0,91,0.00,,,0.00,VWS V13.01,2013-02-24 00:44:00,
2013-02-23 18:45:00,25.0,22.7,29.68,South,179,0.0,0.0,91,0.00,,,0.00,VWS V13.01,2013-02-24 00:45:00,
2013-02-23 18:46:00,25.0,22.7,29.68,South,179,0.0,0.0,91,0.00,,,0.00,VWS V13.01,2013-02-24 00:46:00,
2013-02-23 18:47:00,24.8,22.5,29.68,South,179,0.0,0.0,91,0.00,,,0.00,VWS V13.01,2013-02-24 00:47:00,
2013-02-23 18:48:00,24.8,22.5,29.68,South,179,0.0,0.0,91,0.00,,,0.00,VWS V13.01,2013-02-24 00:48:00,
2013-02-23 18:49:00,24.6,22.4,29.68,South,179,0.0,0.0,91,0.00,,,0.00,VWS V13.01,2013-02-24 00:49:00,
2013-02-23 18:50:00,24.6,22.4,29.68,South,179,0.0,0.0,91,0.00,,,0.00,VWS V13.01,2013-02-24 00:50:00,
2013-02-23 18:51:00,24.6,22.4,29.68,South,179,0.0,0.0,91,0.00,,,0.00,VWS V13.01,2013-02-24 00:51:00,
2013-02-23 18:52:00,24.6,22.4,29.68,South,179,0.0,0.0,91,0.00,,,0.00,VWS V13.01,2013-02-24 00:52:00,
2013-02-23 18:53:00,24.6,22.4,29.68,South,179,0.0,0.0,91,0.00,,,0.00,VWS V13.01,2013-02-24 00:53:00,
2013-02-23 18:54:00,24.6,22.4,29.68,South,179,0.0,0.0,91,0.00,,,0.00,VWS V13.01,2013-02-24 00:54:00,
2013-02-23 18:55:00,24.6,22.4,29.68,South,179,0.0,0.0,91,0.00,,,0.00,VWS V13.01,2013-02-24 00:55:00,
2013-02-23 18:56:00,24.6,22.4,29.68,South,179,0.0,0.0,91,0.00,,,0.00,VWS V13.01,2013-02-24 00:56:00,
2013-02-23 18:57:00,24.6,22.4,29.68,South,179,0.0,0.0,91,0.00,,,0.00,VWS V13.01,2013-02-24 00:57:00,
2013-02-23 18:58:00,24.6,22.4,29.68,South,179,0.0,0.0,91,0.00,,,0.00,VWS V13.01,2013-02-24 00:58:00,
2013-02-23 18:59:00,24.4,22.2,29.68,South,179,0.0,0.0,91,0.00,,,0.00,VWS V13.01,2013-02-24 00:59:00,
2013-02-23 19:00:00,24.3,22.0,29.68,South,179,0.0,0.0,91,0.00,,,0.00,VWS V13.01,2013-02-24 01:00:00,
2013-02-23 19:01:00,24.3,22.0,29.68,South,179,0.0,0.0,91,0.00,,,0.00,VWS V13.01,2013-02-24 01:01:00,
2013-02-23 19:02:00,24.3,22.0,29.68,South,179,0.0,0.0,91,0.00,,,0.00,VWS V13.01,2013-02-24 01:02:00,
2013-02-23 19:03:00,24.1,21.8,29.68,South,179,0.0,0.0,91,0.00,,,0.00,VWS V13.01,2013-02-24 01:03:00,
2013-02-23 19:04:00,23.9,21.7,29.68,South,179,0.0,0.0,91,0.00,,,0.00,VWS V13.01,2013-02-24 01:04:00,
2013-02-23 19:05:00,23.5,21.3,29.68,South,179,0.0,0.0,91,0.00,,,0.00,VWS V13.01,2013-02-24 01:05:00,
2013-02-23 19:06:00,23.5,21.3,29.68,South,179,0.0,0.0,91,0.00,,,0.00,VWS V13.01,2013-02-24 01:06:00,
2013-02-23 19:07:00,23.5,21.3,29.68,South,179,0.0,0.0,91,0.00,,,0.00,VWS V13.01,2013-02-24 01:07:00,
2013-02-23 19:08:00,23.5,21.3,29.68,South,179,0.0,0.0,91,0.00,,,0.00,VWS V13.01,2013-02-24 01:08:00,
2013-02-23 19:09:00,23.7,21.5,29.68,South,179,0.0,0.0,91,0.00,,,0.00,VWS V13.01,2013-02-24 01:09:00,
2013-02-23 19:10:00,23.9,21.7,29.68,South,179,0.0,0.0,91,0.00,,,0.00,VWS V13.01,2013-02-24 01:10:00,
2013-02-23 19:11:00,23.9,21.7,29.68,South,179,0.0,0.0,91,0.00,,,0.00,VWS V13.01,2013-02-24 01:11:00,
2013-02-23 19:12:00,23.9,21.7,29.65,South,179,0.0,0.0,91,0.00,,,0.00,VWS V13.01,2013-02-24 01:12:00,
2013-02-23 19:13:00,24.1,21.8,29.65,South,179,0.0,0.0,91,0.00,,,0.00,VWS V13.01,2013-02-24 01:13:00,
2013-02-23 19:14:00,24.1,21.8,29.65,South,179,0.0,0.0,91,0.00,,,0.00,VWS V13.01,2013-02-24 01:14:00,
2013-02-23 19:15:00,24.1,21.8,29.65,South,179,0.0,0.0,91,0.00,,,0.00,VWS V13.01,2013-02-24 01:15:00,
2013-02-23 19:16:00,24.1,21.8,29.65,South,179,0.0,0.0,91,0.00,,,0.00,VWS V13.01,2013-02-24 01:16:00,
2013-02-23 19:17:00,24.1,21.8,29.65,South,179,0.0,0.0,91,0.00,,,0.00,VWS V13.01,2013-02-24 01:17:00,
2013-02-23 19:18:00,24.3,22.0,29.65,South,179,0.0,0.0,91,0.00,,,0.00,VWS V13.01,2013-02-24 01:18:00,
2013-02-23 19:19:00,24.1,21.8,29.65,South,179,0.0,0.0,91,0.00,,,0.00,VWS V13.01,2013-02-24 01:19:00,
2013-02-23 19:20:00,23.9,21.7,29.65,South,179,0.0,0.0,91,0.00,,,0.00,VWS V13.01,2013-02-24 01:20:00,
2013-02-23 19:21:00,23.9,21.7,29.65,South,179,0.0,0.0,91,0.00,,,0.00,VWS V13.01,2013-02-24 01:21:00,
2013-02-23 19:22:00,23.9,21.7,29.65,South,179,0.0,0.0,91,0.00,,,0.00,VWS V13.01,2013-02-24 01:22:00,
2013-02-23 19:23:00,23.9,21.7,29.65,South,179,0.0,0.0,91,0.00,,,0.00,VWS V13.01,2013-02-24 01:23:00,
2013-02-23 19:24:00,23.9,21.7,29.65,South,179,0.0,0.0,91,0.00,,,0.00,VWS V13.01,2013-02-24 01:24:00,
2013-02-23 19:25:00,23.9,21.7,29.65,South,179,0.0,0.0,91,0.00,,,0.00,VWS V13.01,2013-02-24 01:25:00,
2013-02-23 19:26:00,23.9,21.7,29.65,South,179,0.0,0.0,91,0.00,,,0.00,VWS V13.01,2013-02-24 01:26:00,
2013-02-23 19:27:00,23.7,21.5,29.65,South,179,0.0,0.0,91,0.00,,,0.00,VWS V13.01,2013-02-24 01:27:00,
2013-02-23 19:28:00,23.9,21.7,29.65,South,179,0.0,0.0,91,0.00,,,0.00,VWS V13.01,2013-02-24 01:28:00,
2013-02-23 19:29:00,24.1,21.8,29.65,South,179,0.0,0.0,91,0.00,,,0.00,VWS V13.01,2013-02-24 01:29:00,
2013-02-23 19:30:00,24.3,22.0,29.65,South,179,0.0,0.0,91,0.00,,,0.00,VWS V13.01,2013-02-24 01:30:00,
2013-02-23 19:31:00,24.3,22.0,29.65,South,179,0.0,0.0,91,0.00,,,0.00,VWS V13.01,2013-02-24 01:31:00,
2013-02-23 19:32:00,24.3,22.0,29.65,South,179,0.0,0.0,91,0.00,,,0.00,VWS V13.01,2013-02-24 01:32:00,
2013-02-23 19:33:00,24.3,22.0,29.65,South,179,0.0,0.0,91,0.00,,,0.00,VWS V13.01,2013-02-24 01:33:00,
2013-02-23 19:34:00,24.4,22.2,29.65,South,179,0.0,0.0,91,0.00,,,0.00,VWS V13.01,2013-02-24 01:34:00,
2013-02-23 19:35:00,24.4,22.2,29.65,South,179,0.0,0.0,91,0.00,,,0.00,VWS V13.01,2013-02-24 01:35:00,
2013-02-23 19:36:00,24.4,22.2,29.65,South,179,0.0,0.0,91,0.00,,,0.00,VWS V13.01,2013-02-24 01:36:00,
2013-02-23 19:37:00,24.4,22.2,29.65,South,179,0.0,0.0,91,0.00,,,0.00,VWS V13.01,2013-02-24 01:37:00,
2013-02-23 19:38:00,24.4,22.2,29.65,South,179,0.0,0.0,91,0.00,,,0.00,VWS V13.01,2013-02-24 01:38:00,
2013-02-23 19:39:00,24.6,22.4,29.65,South,179,0.0,0.0,91,0.00,,,0.00,VWS V13.01,2013-02-24 01:39:00,
2013-02-23 19:40:00,24.4,22.2,29.65,South,179,0.0,0.0,91,0.00,,,0.00,VWS V13.01,2013-02-24 01:40:00,
2013-02-23 19:41:00,24.4,22.2,29.65,South,179,0.0,0.0,91,0.00,,,0.00,VWS V13.01,2013-02-24 01:41:00,
2013-02-23 19:42:00,24.4,22.2,29.65,South,179,0.0,0.0,91,0.00,,,0.00,VWS V13.01,2013-02-24 01:42:00,
2013-02-23 19:43:00,24.4,22.2,29.68,South,179,0.0,0.0,91,0.00,,,0.00,VWS V13.01,2013-02-24 01:43:00,
2013-02-23 19:44:00,24.3,22.0,29.68,South,179,0.0,0.0,91,0.00,,,0.00,VWS V13.01,2013-02-24 01:44:00,
2013-02-23 19:45:00,24.3,22.0,29.68,South,179,0.0,0.0,91,0.00,,,0.00,VWS V13.01,2013-02-24 01:45:00,
2013-02-23 19:46:00,24.1,21.8,29.68,South,179,0.0,0.0,91,0.00,,,0.00,VWS V13.01,2013-02-24 01:46:00,
2013-02-23 19:47:00,24.1,21.8,29.68,South,180,0.0,0.0,91,0.00,,,0.00,VWS V13.01,2013-02-24 01:47:00,
2013-02-23 19:48:00,23.9,21.7,29.68,South,179,0.0,0.0,91,0.00,,,0.00,VWS V13.01,2013-02-24 01:48:00,
2013-02-23 19:49:00,23.7,21.5,29.68,South,179,0.0,0.0,91,0.00,,,0.00,VWS V13.01,2013-02-24 01:49:00,
2013-02-23 19:50:00,23.7,21.5,29.68,South,179,0.0,0.0,91,0.00,,,0.00,VWS V13.01,2013-02-24 01:50:00,
2013-02-23 19:51:00,23.7,21.5,29.68,South,179,0.0,0.0,91,0.00,,,0.00,VWS V13.01,2013-02-24 01:51:00,
2013-02-23 19:52:00,23.5,21.3,29.68,South,179,0.0,0.0,91,0.00,,,0.00,VWS V13.01,2013-02-24 01:52:00,
2013-02-23 19:53:00,23.5,21.3,29.68,South,179,0.0,0.0,91,0.00,,,0.00,VWS V13.01,2013-02-24 01:53:00,
2013-02-23 19:54:00,23.5,21.3,29.68,South,179,0.0,0.0,91,0.00,,,0.00,VWS V13.01,2013-02-24 01:54:00,
2013-02-23 19:55:00,23.5,21.3,29.68,South,179,0.0,0.0,91,0.00,,,0.00,VWS V13.01,2013-02-24 01:55:00,
2013-02-23 19:56:00,23.4,21.1,29.68,South,179,0.0,0.0,91,0.00,,,0.00,VWS V13.01,2013-02-24 01:56:00,
2013-02-23 19:57:00,23.4,21.1,29.68,South,179,0.0,0.0,91,0.00,,,0.00,VWS V13.01,2013-02-24 01:57:00,
2013-02-23 19:58:00,23.4,21.1,29.68,South,179,0.0,0.0,91,0.00,,,0.00,VWS V13.01,2013-02-24 01:58:00,
2013-02-23 19:59:00,23.2,21.0,29.68,South,179,0.0,0.0,91,0.00,,,0.00,VWS V13.01,2013-02-24 01:59:00,
2013-02-23 20:00:00,23.2,21.0,29.68,South,179,0.0,0.0,91,0.00,,,0.00,VWS V13.01,2013-02-24 02:00:00,
2013-02-23 20:01:00,23.4,21.1,29.68,South,179,0.0,0.0,91,0.00,,,0.00,VWS V13.01,2013-02-24 02:01:00,
2013-02-23 20:02:00,23.5,21.3,29.68,South,179,0.0,0.0,91,0.00,,,0.00,VWS V13.01,2013-02-24 02:02:00,
2013-02-23 20:03:00,23.7,21.5,29.68,South,179,0.0,0.0,91,0.00,,,0.00,VWS V13.01,2013-02-24 02:03:00,
2013-02-23 20:04:00,23.9,21.7,29.68,South,179,0.0,0.0,91,0.00,,,0.00,VWS V13.01,2013-02-24 02:04:00,
2013-02-23 20:05:00,23.9,21.7,29.68,South,179,0.0,0.0,91,0.00,,,0.00,VWS V13.01,2013-02-24 02:05:00,
2013-02-23 20:06:00,23.9,21.7,29.68,South,179,0.0,0.0,91,0.00,,,0.00,VWS V13.01,2013-02-24 02:06:00,
2013-02-23 20:07:00,23.9,21.7,29.68,South,179,0.0,0.0,91,0.00,,,0.00,VWS V13.01,2013-02-24 02:07:00,
2013-02-23 20:08:00,23.9,21.7,29.68,South,179,0.0,0.0,91,0.00,,,0.00,VWS V13.01,2013-02-24 02:08:00,
2013-02-23 20:09:00,23.7,21.5,29.68,South,179,0.0,0.0,91,0.00,,,0.00,VWS V13.01,2013-02-24 02:09:00,
2013-02-23 20:10:00,23.7,21.5,29.68,South,179,0.0,0.0,91,0.00,,,0.00,VWS V13.01,2013-02-24 02:10:00,
2013-02-23 20:11:00,23.7,21.5,29.68,South,179,0.0,0.0,91,0.00,,,0.00,VWS V13.01,2013-02-24 02:11:00,
2013-02-23 20:12:00,23.9,21.7,29.65,South,179,0.0,0.0,91,0.00,,,0.00,VWS V13.01,2013-02-24 02:12:00,
2013-02-23 20:13:00,23.9,21.7,29.65,South,179,0.0,0.0,91,0.00,,,0.00,VWS V13.01,2013-02-24 02:13:00,
2013-02-23 20:14:00,23.7,21.5,29.65,South,179,0.0,0.0,91,0.00,,,0.00,VWS V13.01,2013-02-24 02:14:00,
2013-02-23 20:15:00,23.7,21.5,29.65,South,179,0.0,0.0,91,0.00,,,0.00,VWS V13.01,2013-02-24 02:15:00,
2013-02-23 20:16:00,23.5,21.3,29.65,South,179,0.0,0.0,91,0.00,,,0.00,VWS V13.01,2013-02-24 02:16:00,
2013-02-23 20:17:00,23.5,21.3,29.65,South,179,0.0,0.0,91,0.00,,,0.00,VWS V13.01,2013-02-24 02:17:00,
2013-02-23 20:18:00,23.5,21.3,29.65,South,180,0.0,0.0,91,0.00,,,0.00,VWS V13.01,2013-02-24 02:18:00,
2013-02-23 20:19:00,23.5,21.3,29.65,South,179,0.0,0.0,91,0.00,,,0.00,VWS V13.01,2013-02-24 02:19:00,
2013-02-23 20:20:00,23.5,21.3,29.65,South,179,0.0,0.0,91,0.00,,,0.00,VWS V13.01,2013-02-24 02:20:00,
2013-02-23 20:21:00,23.2,21.0,29.65,South,179,0.0,0.0,91,0.00,,,0.00,VWS V13.01,2013-02-24 02:21:00,
2013-02-23 20:22:00,23.0,22.3,29.65,South,179,0.0,0.0,97,0.00,,,0.00,VWS V13.01,2013-02-24 02:22:00,
2013-02-23 20:23:00,23.0,22.3,29.65,South,179,0.0,0.0,97,0.00,,,0.00,VWS V13.01,2013-02-24 02:23:00,
2013-02-23 20:24:00,22.8,22.1,29.65,South,179,0.0,0.0,97,0.00,,,0.00,VWS V13.01,2013-02-24 02:24:00,
2013-02-23 20:25:00,22.8,22.1,29.65,South,179,0.0,0.0,97,0.00,,,0.00,VWS V13.01,2013-02-24 02:25:00,
2013-02-23 20:26:00,22.8,22.1,29.65,South,179,0.0,0.0,97,0.00,,,0.00,VWS V13.01,2013-02-24 02:26:00,
2013-02-23 20:27:00,23.0,22.3,29.68,South,179,0.0,0.0,97,0.00,,,0.00,VWS V13.01,2013-02-24 02:27:00,
2013-02-23 20:28:00,23.0,22.3,29.68,South,179,0.0,0.0,97,0.00,,,0.00,VWS V13.01,2013-02-24 02:28:00,
2013-02-23 20:29:00,23.0,22.3,29.68,South,179,0.0,0.0,97,0.00,,,0.00,VWS V13.01,2013-02-24 02:29:00,
2013-02-23 20:30:00,23.2,21.0,29.68,South,179,0.0,0.0,91,0.00,,,0.00,VWS V13.01,2013-02-24 02:30:00,
2013-02-23 20:31:00,23.2,21.0,29.68,South,179,0.0,0.0,91,0.00,,,0.00,VWS V13.01,2013-02-24 02:31:00,
2013-02-23 20:32:00,23.2,21.0,29.68,South,179,0.0,0.0,91,0.00,,,0.00,VWS V13.01,2013-02-24 02:32:00,
2013-02-23 20:33:00,23.0,22.3,29.68,South,179,0.0,0.0,97,0.00,,,0.00,VWS V13.01,2013-02-24 02:33:00,
2013-02-23 20:34:00,23.0,22.3,29.68,South,179,0.0,0.0,97,0.00,,,0.00,VWS V13.01,2013-02-24 02:34:00,
2013-02-23 20:35:00,23.0,22.3,29.68,South,179,0.0,0.0,97,0.00,,,0.00,VWS V13.01,2013-02-24 02:35:00,
2013-02-23 20:36:00,23.0,22.3,29.68,South,179,0.0,0.0,97,0.00,,,0.00,VWS V13.01,2013-02-24 02:36:00,
2013-02-23 20:37:00,23.0,22.3,29.68,South,179,0.0,0.0,97,0.00,,,0.00,VWS V13.01,2013-02-24 02:37:00,
2013-02-23 20:38:00,23.0,22.3,29.68,South,179,0.0,0.0,97,0.00,,,0.00,VWS V13.01,2013-02-24 02:38:00,
2013-02-23 20:39:00,22.8,22.1,29.68,South,179,0.0,0.0,97,0.00,,,0.00,VWS V13.01,2013-02-24 02:39:00,
2013-02-23 20:40:00,22.8,22.1,29.68,South,179,0.0,0.0,97,0.00,,,0.00,VWS V13.01,2013-02-24 02:40:00,
2013-02-23 20:41:00,22.8,22.1,29.68,South,179,0.0,0.0,97,0.00,,,0.00,VWS V13.01,2013-02-24 02:41:00,
2013-02-23 20:42:00,22.8,22.1,29.68,South,179,0.0,0.0,97,0.00,,,0.00,VWS V13.01,2013-02-24 02:42:00,
2013-02-23 20:43:00,22.8,22.1,29.68,South,179,0.0,0.0,97,0.00,,,0.00,VWS V13.01,2013-02-24 02:43:00,
2013-02-23 20:44:00,23.0,22.3,29.68,South,179,0.0,0.0,97,0.00,,,0.00,VWS V13.01,2013-02-24 02:44:00,
2013-02-23 20:45:00,23.0,22.3,29.68,South,179,0.0,0.0,97,0.00,,,0.00,VWS V13.01,2013-02-24 02:45:00,
2013-02-23 20:46:00,23.0,22.3,29.68,South,179,0.0,0.0,97,0.00,,,0.00,VWS V13.01,2013-02-24 02:46:00,
2013-02-23 20:47:00,23.0,22.3,29.68,South,179,0.0,0.0,97,0.00,,,0.00,VWS V13.01,2013-02-24 02:47:00,
2013-02-23 20:48:00,23.2,21.0,29.68,South,179,0.0,0.0,91,0.00,,,0.00,VWS V13.01,2013-02-24 02:48:00,
2013-02-23 20:49:00,23.2,21.0,29.68,South,179,0.0,0.0,91,0.00,,,0.00,VWS V13.01,2013-02-24 02:49:00,
2013-02-23 20:50:00,23.2,21.0,29.68,South,179,0.0,0.0,91,0.00,,,0.00,VWS V13.01,2013-02-24 02:50:00,
2013-02-23 20:51:00,23.2,21.0,29.68,South,179,0.0,0.0,91,0.00,,,0.00,VWS V13.01,2013-02-24 02:51:00,
2013-02-23 20:52:00,23.2,21.0,29.68,South,179,0.0,0.0,91,0.00,,,0.00,VWS V13.01,2013-02-24 02:52:00,
2013-02-23 20:53:00,23.0,22.3,29.68,South,179,0.0,0.0,97,0.00,,,0.00,VWS V13.01,2013-02-24 02:53:00,
2013-02-23 20:54:00,23.2,21.0,29.68,South,179,0.0,0.0,91,0.00,,,0.00,VWS V13.01,2013-02-24 02:54:00,
2013-02-23 20:55:00,23.2,21.0,29.68,South,179,0.0,0.0,91,0.00,,,0.00,VWS V13.01,2013-02-24 02:55:00,
2013-02-23 20:56:00,23.0,22.3,29.68,South,179,0.0,0.0,97,0.00,,,0.00,VWS V13.01,2013-02-24 02:56:00,
2013-02-23 20:57:00,23.0,22.3,29.65,South,179,0.0,0.0,97,0.00,,,0.00,VWS V13.01,2013-02-24 02:57:00,
2013-02-23 20:58:00,22.8,22.1,29.65,South,179,0.0,0.0,97,0.00,,,0.00,VWS V13.01,2013-02-24 02:58:00,
2013-02-23 20:59:00,23.0,22.3,29.65,South,179,0.0,0.0,97,0.00,,,0.00,VWS V13.01,2013-02-24 02:59:00,
2013-02-23 21:00:00,23.0,22.3,29.65,South,179,0.0,0.0,97,0.00,,,0.00,VWS V13.01,2013-02-24 03:00:00,
2013-02-23 21:01:00,23.2,21.0,29.65,South,179,0.0,0.0,91,0.00,,,0.00,VWS V13.01,2013-02-24 03:01:00,
2013-02-23 21:02:00,23.2,21.0,29.65,South,179,0.0,0.0,91,0.00,,,0.00,VWS V13.01,2013-02-24 03:02:00,
2013-02-23 21:03:00,23.2,21.0,29.65,South,179,0.0,0.0,91,0.00,,,0.00,VWS V13.01,2013-02-24 03:03:00,
2013-02-23 21:04:00,23.2,21.0,29.65,South,179,0.0,0.0,91,0.00,,,0.00,VWS V13.01,2013-02-24 03:04:00,
2013-02-23 21:05:00,23.0,22.3,29.65,South,179,0.0,0.0,97,0.00,,,0.00,VWS V13.01,2013-02-24 03:05:00,
2013-02-23 21:06:00,23.0,22.3,29.65,South,179,0.0,0.0,97,0.00,,,0.00,VWS V13.01,2013-02-24 03:06:00,
2013-02-23 21:07:00,23.2,21.0,29.65,South,179,0.0,0.0,91,0.00,,,0.00,VWS V13.01,2013-02-24 03:07:00,
2013-02-23 21:08:00,23.2,21.0,29.65,South,179,0.0,0.0,91,0.00,,,0.00,VWS V13.01,2013-02-24 03:08:00,
2013-02-23 21:09:00,23.0,22.3,29.65,South,179,0.0,0.0,97,0.00,,,0.00,VWS V13.01,2013-02-24 03:09:00,
2013-02-23 21:10:00,23.0,22.3,29.65,South,179,0.0,0.0,97,0.00,,,0.00,VWS V13.01,2013-02-24 03:10:00,
2013-02-23 21:11:00,23.0,22.3,29.65,South,179,0.0,0.0,97,0.00,,,0.00,VWS V13.01,2013-02-24 03:11:00,
2013-02-23 21:12:00,23.0,22.3,29.65,South,179,0.0,0.0,97,0.00,,,0.00,VWS V13.01,2013-02-24 03:12:00,
2013-02-23 21:13:00,23.0,22.3,29.68,South,179,0.0,0.0,97,0.00,,,0.00,VWS V13.01,2013-02-24 03:13:00,
2013-02-23 21:14:00,23.0,22.3,29.68,South,179,0.0,0.0,97,0.00,,,0.00,VWS V13.01,2013-02-24 03:14:00,
2013-02-23 21:15:00,23.2,21.0,29.68,South,179,0.0,0.0,91,0.00,,,0.00,VWS V13.01,2013-02-24 03:15:00,
2013-02-23 21:16:00,23.4,21.1,29.68,South,179,0.0,0.0,91,0.00,,,0.00,VWS V13.01,2013-02-24 03:16:00,
2013-02-23 21:17:00,23.4,21.1,29.68,South,179,0.0,0.0,91,0.00,,,0.00,VWS V13.01,2013-02-24 03:17:00,
2013-02-23 21:18:00,23.4,21.1,29.68,South,179,0.0,0.0,91,0.00,,,0.00,VWS V13.01,2013-02-24 03:18:00,
2013-02-23 21:19:00,23.4,21.1,29.68,South,179,0.0,0.0,91,0.00,,,0.00,VWS V13.01,2013-02-24 03:19:00,
2013-02-23 21:20:00,23.5,21.3,29.68,South,179,0.0,0.0,91,0.00,,,0.00,VWS V13.01,2013-02-24 03:20:00,
2013-02-23 21:21:00,23.4,21.1,29.68,South,179,0.0,0.0,91,0.00,,,0.00,VWS V13.01,2013-02-24 03:21:00,
2013-02-23 21:22:00,23.4,21.1,29.68,South,179,0.0,0.0,91,0.00,,,0.00,VWS V13.01,2013-02-24 03:22:00,
2013-02-23 21:23:00,23.2,21.0,29.68,South,179,0.0,0.0,91,0.00,,,0.00,VWS V13.01,2013-02-24 03:23:00,
2013-02-23 21:24:00,23.0,22.3,29.68,South,179,0.0,0.0,97,0.00,,,0.00,VWS V13.01,2013-02-24 03:24:00,
2013-02-23 21:25:00,23.0,22.3,29.68,South,179,0.0,0.0,97,0.00,,,0.00,VWS V13.01,2013-02-24 03:25:00,
2013-02-23 21:26:00,22.8,22.1,29.68,South,179,0.0,0.0,97,0.00,,,0.00,VWS V13.01,2013-02-24 03:26:00,
2013-02-23 21:27:00,22.8,22.1,29.68,South,179,0.0,0.0,97,0.00,,,0.00,VWS V13.01,2013-02-24 03:27:00,